<?xml version='1.0' encoding='UTF-8'?>
<gpx version="1.1" creator="https://www.komoot.de" xmlns="http://www.topografix.com/GPX/1/1" xmlns:xsi="http://www.w3.org/2001/XMLSchema-instance" xsi:schemaLocation="http://www.topografix.com/GPX/1/1 http://www.topografix.com/GPX/1/1/gpx.xsd">
  <metadata>
    <name>GPX Download: Donauuferweg Hainburg – Burg Bratislava Runde von Hainburg an der Donau Personenbf</name>
    <author>
      <link href="https://www.komoot.de">
        <text>komoot</text>
        <type>text/html</type>
      </link>
    </author>
  </metadata>
  <wpt lat="48.149174" lon="16.940066">
    <name>Donauuferweg Hainburg</name>
    <sym>Flag, Blue</sym>
  </wpt>
  <wpt lat="48.144699" lon="16.912290">
    <name>Weg nach Hainburg</name>
    <sym>Flag, Blue</sym>
  </wpt>
  <wpt lat="48.137684" lon="16.909004">
    <name>Basilika Mariä Himmelfahrt (Bad Deutsch-Altenburg)</name>
    <sym>Flag, Blue</sym>
  </wpt>
  <wpt lat="48.086881" lon="16.979382">
    <name>Kellergasse Prellenkirchen</name>
    <sym>Flag, Blue</sym>
  </wpt>
  <wpt lat="48.141463" lon="17.100051">
    <name>Burg Bratislava</name>
    <sym>Flag, Blue</sym>
  </wpt>
  <wpt lat="48.136923" lon="17.105267">
    <name>UFO-Aussichtsturm</name>
    <sym>Flag, Blue</sym>
  </wpt>
  <wpt lat="48.142295" lon="17.109511">
    <name>Slowakisches Nationaltheater (Altes Gebäude)</name>
    <sym>Flag, Blue</sym>
  </wpt>
  <wpt lat="48.144630" lon="17.106716">
    <name>Altstadt von Bratislava und Michaelertor</name>
    <sym>Flag, Blue</sym>
  </wpt>
  <wpt lat="48.141388" lon="17.105903">
    <name>Čákiho palác</name>
    <sym>Flag, Blue</sym>
  </wpt>
  <trk>
    <name>GPX Download: Donauuferweg Hainburg – Burg Bratislava Runde von Hainburg an der Donau Personenbf</name>
    <trkseg>
      <trkpt lat="48.137940" lon="16.904493">
        <ele>148.431904</ele>
        <time>2026-05-06T10:49:20.177Z</time>
      </trkpt>
      <trkpt lat="48.137826" lon="16.904556">
        <ele>148.431904</ele>
        <time>2026-05-06T10:49:22.843Z</time>
      </trkpt>
      <trkpt lat="48.137769" lon="16.904529">
        <ele>148.431904</ele>
        <time>2026-05-06T10:49:24.153Z</time>
      </trkpt>
      <trkpt lat="48.137673" lon="16.904261">
        <ele>148.431904</ele>
        <time>2026-05-06T10:49:28.639Z</time>
      </trkpt>
      <trkpt lat="48.138447" lon="16.903633">
        <ele>148.232785</ele>
        <time>2026-05-06T10:49:47.845Z</time>
      </trkpt>
      <trkpt lat="48.139222" lon="16.903321">
        <ele>147.795157</ele>
        <time>2026-05-06T10:50:04.604Z</time>
      </trkpt>
      <trkpt lat="48.139430" lon="16.903301">
        <ele>147.681492</ele>
        <time>2026-05-06T10:50:08.780Z</time>
      </trkpt>
      <trkpt lat="48.139559" lon="16.903289">
        <ele>147.611007</ele>
        <time>2026-05-06T10:50:11.331Z</time>
      </trkpt>
      <trkpt lat="48.139879" lon="16.903263">
        <ele>147.443710</ele>
        <time>2026-05-06T10:50:17.386Z</time>
      </trkpt>
      <trkpt lat="48.140187" lon="16.903246">
        <ele>147.360558</ele>
        <time>2026-05-06T10:50:23.220Z</time>
      </trkpt>
      <trkpt lat="48.140305" lon="16.903237">
        <ele>147.328681</ele>
        <time>2026-05-06T10:50:25.446Z</time>
      </trkpt>
      <trkpt lat="48.140334" lon="16.903343">
        <ele>147.308055</ele>
        <time>2026-05-06T10:50:26.952Z</time>
      </trkpt>
      <trkpt lat="48.140368" lon="16.903373">
        <ele>147.297410</ele>
        <time>2026-05-06T10:50:27.672Z</time>
      </trkpt>
      <trkpt lat="48.140337" lon="16.903518">
        <ele>147.269998</ele>
        <time>2026-05-06T10:50:29.673Z</time>
      </trkpt>
      <trkpt lat="48.140336" lon="16.903733">
        <ele>147.231290</ele>
        <time>2026-05-06T10:50:32.504Z</time>
      </trkpt>
      <trkpt lat="48.140363" lon="16.903908">
        <ele>147.198952</ele>
        <time>2026-05-06T10:50:34.904Z</time>
      </trkpt>
      <trkpt lat="48.140419" lon="16.904078">
        <ele>147.164820</ele>
        <time>2026-05-06T10:50:37.597Z</time>
      </trkpt>
      <trkpt lat="48.140526" lon="16.904402">
        <ele>147.099736</ele>
        <time>2026-05-06T10:50:43.319Z</time>
      </trkpt>
      <trkpt lat="48.140765" lon="16.905142">
        <ele>146.995133</ele>
        <time>2026-05-06T10:50:56.740Z</time>
      </trkpt>
      <trkpt lat="48.140907" lon="16.905574">
        <ele>147.176581</ele>
        <time>2026-05-06T10:51:05.183Z</time>
      </trkpt>
      <trkpt lat="48.141067" lon="16.906080">
        <ele>147.387555</ele>
        <time>2026-05-06T10:51:15.132Z</time>
      </trkpt>
      <trkpt lat="48.141368" lon="16.907157">
        <ele>147.827503</ele>
        <time>2026-05-06T10:51:34.098Z</time>
      </trkpt>
      <trkpt lat="48.141416" lon="16.907396">
        <ele>147.921544</ele>
        <time>2026-05-06T10:51:37.774Z</time>
      </trkpt>
      <trkpt lat="48.141519" lon="16.908194">
        <ele>148.000581</ele>
        <time>2026-05-06T10:51:49.510Z</time>
      </trkpt>
      <trkpt lat="48.141567" lon="16.908937">
        <ele>148.022534</ele>
        <time>2026-05-06T10:52:01.239Z</time>
      </trkpt>
      <trkpt lat="48.141573" lon="16.910011">
        <ele>148.054119</ele>
        <time>2026-05-06T10:52:17.570Z</time>
      </trkpt>
      <trkpt lat="48.141538" lon="16.910413">
        <ele>148.003938</ele>
        <time>2026-05-06T10:52:23.161Z</time>
      </trkpt>
      <trkpt lat="48.141662" lon="16.910341">
        <ele>147.942739</ele>
        <time>2026-05-06T10:52:25.933Z</time>
      </trkpt>
      <trkpt lat="48.141777" lon="16.910249">
        <ele>147.882747</ele>
        <time>2026-05-06T10:52:28.685Z</time>
      </trkpt>
      <trkpt lat="48.142064" lon="16.910104">
        <ele>147.743364</ele>
        <time>2026-05-06T10:52:34.916Z</time>
      </trkpt>
      <trkpt lat="48.142567" lon="16.909984">
        <ele>147.508966</ele>
        <time>2026-05-06T10:52:45.327Z</time>
      </trkpt>
      <trkpt lat="48.142785" lon="16.909928">
        <ele>147.407178</ele>
        <time>2026-05-06T10:52:49.764Z</time>
      </trkpt>
      <trkpt lat="48.143058" lon="16.909817">
        <ele>147.277001</ele>
        <time>2026-05-06T10:52:55.434Z</time>
      </trkpt>
      <trkpt lat="48.143487" lon="16.909575">
        <ele>146.886543</ele>
        <time>2026-05-06T10:53:04.915Z</time>
      </trkpt>
      <trkpt lat="48.143625" lon="16.909570">
        <ele>146.754658</ele>
        <time>2026-05-06T10:53:07.842Z</time>
      </trkpt>
      <trkpt lat="48.143703" lon="16.909762">
        <ele>146.611355</ele>
        <time>2026-05-06T10:53:11.045Z</time>
      </trkpt>
      <trkpt lat="48.143799" lon="16.910057">
        <ele>146.402116</ele>
        <time>2026-05-06T10:53:15.488Z</time>
      </trkpt>
      <trkpt lat="48.144843" lon="16.912655">
        <ele>144.306089</ele>
        <time>2026-05-06T10:53:52.928Z</time>
      </trkpt>
      <trkpt lat="48.144959" lon="16.913005">
        <ele>144.018210</ele>
        <time>2026-05-06T10:53:58.008Z</time>
      </trkpt>
      <trkpt lat="48.145088" lon="16.913724">
        <ele>143.509104</ele>
        <time>2026-05-06T10:54:08.018Z</time>
      </trkpt>
      <trkpt lat="48.145146" lon="16.914253">
        <ele>143.377698</ele>
        <time>2026-05-06T10:54:15.570Z</time>
      </trkpt>
      <trkpt lat="48.145156" lon="16.918585">
        <ele>142.472314</ele>
        <time>2026-05-06T10:55:16.727Z</time>
      </trkpt>
      <trkpt lat="48.145266" lon="16.921791">
        <ele>142.384253</ele>
        <time>2026-05-06T10:56:03.499Z</time>
      </trkpt>
      <trkpt lat="48.145200" lon="16.923286">
        <ele>142.799094</ele>
        <time>2026-05-06T10:56:28.618Z</time>
      </trkpt>
      <trkpt lat="48.145193" lon="16.924157">
        <ele>143.040275</ele>
        <time>2026-05-06T10:56:42.795Z</time>
      </trkpt>
      <trkpt lat="48.145368" lon="16.925115">
        <ele>143.055281</ele>
        <time>2026-05-06T10:56:57.524Z</time>
      </trkpt>
      <trkpt lat="48.145337" lon="16.926873">
        <ele>142.923047</ele>
        <time>2026-05-06T10:57:22.400Z</time>
      </trkpt>
      <trkpt lat="48.145295" lon="16.927449">
        <ele>142.988003</ele>
        <time>2026-05-06T10:57:30.711Z</time>
      </trkpt>
      <trkpt lat="48.145221" lon="16.928785">
        <ele>143.269144</ele>
        <time>2026-05-06T10:57:50.958Z</time>
      </trkpt>
      <trkpt lat="48.145247" lon="16.931044">
        <ele>144.057925</ele>
        <time>2026-05-06T10:58:29.524Z</time>
      </trkpt>
      <trkpt lat="48.145250" lon="16.931435">
        <ele>144.235757</ele>
        <time>2026-05-06T10:58:36.346Z</time>
      </trkpt>
      <trkpt lat="48.145299" lon="16.931892">
        <ele>144.446259</ele>
        <time>2026-05-06T10:58:44.147Z</time>
      </trkpt>
      <trkpt lat="48.145362" lon="16.932180">
        <ele>144.584095</ele>
        <time>2026-05-06T10:58:49.112Z</time>
      </trkpt>
      <trkpt lat="48.145453" lon="16.932451">
        <ele>144.698724</ele>
        <time>2026-05-06T10:58:54.004Z</time>
      </trkpt>
      <trkpt lat="48.146448" lon="16.934659">
        <ele>144.672917</ele>
        <time>2026-05-06T10:59:32.009Z</time>
      </trkpt>
      <trkpt lat="48.146505" lon="16.934866">
        <ele>144.765229</ele>
        <time>2026-05-06T10:59:35.359Z</time>
      </trkpt>
      <trkpt lat="48.147574" lon="16.936655">
        <ele>145.755196</ele>
        <time>2026-05-06T11:00:16.041Z</time>
      </trkpt>
      <trkpt lat="48.147686" lon="16.936842">
        <ele>145.780788</ele>
        <time>2026-05-06T11:00:20.647Z</time>
      </trkpt>
      <trkpt lat="48.147959" lon="16.937300">
        <ele>145.794130</ele>
        <time>2026-05-06T11:00:31.011Z</time>
      </trkpt>
      <trkpt lat="48.148076" lon="16.937504">
        <ele>145.799973</ele>
        <time>2026-05-06T11:00:35.145Z</time>
      </trkpt>
      <trkpt lat="48.148374" lon="16.938193">
        <ele>145.817811</ele>
        <time>2026-05-06T11:00:46.580Z</time>
      </trkpt>
      <trkpt lat="48.148785" lon="16.939253">
        <ele>145.824606</ele>
        <time>2026-05-06T11:01:03.629Z</time>
      </trkpt>
      <trkpt lat="48.149103" lon="16.940125">
        <ele>145.800790</ele>
        <time>2026-05-06T11:01:16.481Z</time>
      </trkpt>
      <trkpt lat="48.148785" lon="16.939253">
        <ele>145.776975</ele>
        <time>2026-05-06T11:01:33.755Z</time>
      </trkpt>
      <trkpt lat="48.148374" lon="16.938193">
        <ele>145.796106</ele>
        <time>2026-05-06T11:01:53.276Z</time>
      </trkpt>
      <trkpt lat="48.148076" lon="16.937504">
        <ele>145.818274</ele>
        <time>2026-05-06T11:02:06.304Z</time>
      </trkpt>
      <trkpt lat="48.147959" lon="16.937300">
        <ele>145.825537</ele>
        <time>2026-05-06T11:02:10.188Z</time>
      </trkpt>
      <trkpt lat="48.147686" lon="16.936842">
        <ele>145.842118</ele>
        <time>2026-05-06T11:02:18.296Z</time>
      </trkpt>
      <trkpt lat="48.147574" lon="16.936655">
        <ele>145.752557</ele>
        <time>2026-05-06T11:02:21.437Z</time>
      </trkpt>
      <trkpt lat="48.146505" lon="16.934866">
        <ele>144.724253</ele>
        <time>2026-05-06T11:02:53.137Z</time>
      </trkpt>
      <trkpt lat="48.146448" lon="16.934659">
        <ele>144.690782</ele>
        <time>2026-05-06T11:02:56.437Z</time>
      </trkpt>
      <trkpt lat="48.145453" lon="16.932451">
        <ele>144.676578</ele>
        <time>2026-05-06T11:03:37.606Z</time>
      </trkpt>
      <trkpt lat="48.145362" lon="16.932180">
        <ele>144.545120</ele>
        <time>2026-05-06T11:03:41.790Z</time>
      </trkpt>
      <trkpt lat="48.145299" lon="16.931892">
        <ele>144.413793</ele>
        <time>2026-05-06T11:03:45.899Z</time>
      </trkpt>
      <trkpt lat="48.145250" lon="16.931435">
        <ele>144.213231</ele>
        <time>2026-05-06T11:03:52.024Z</time>
      </trkpt>
      <trkpt lat="48.145247" lon="16.931044">
        <ele>144.043797</ele>
        <time>2026-05-06T11:03:57.093Z</time>
      </trkpt>
      <trkpt lat="48.145221" lon="16.928785">
        <ele>143.278450</ele>
        <time>2026-05-06T11:04:26.724Z</time>
      </trkpt>
      <trkpt lat="48.145295" lon="16.927449">
        <ele>142.950073</ele>
        <time>2026-05-06T11:04:46.301Z</time>
      </trkpt>
      <trkpt lat="48.145337" lon="16.926873">
        <ele>142.926530</ele>
        <time>2026-05-06T11:04:55.201Z</time>
      </trkpt>
      <trkpt lat="48.145368" lon="16.925115">
        <ele>143.076318</ele>
        <time>2026-05-06T11:05:22.629Z</time>
      </trkpt>
      <trkpt lat="48.145193" lon="16.924157">
        <ele>143.013474</ele>
        <time>2026-05-06T11:05:37.392Z</time>
      </trkpt>
      <trkpt lat="48.145200" lon="16.923286">
        <ele>142.778080</ele>
        <time>2026-05-06T11:05:49.262Z</time>
      </trkpt>
      <trkpt lat="48.145266" lon="16.921791">
        <ele>142.396476</ele>
        <time>2026-05-06T11:06:09.217Z</time>
      </trkpt>
      <trkpt lat="48.145156" lon="16.918585">
        <ele>142.479721</ele>
        <time>2026-05-06T11:06:57.741Z</time>
      </trkpt>
      <trkpt lat="48.145146" lon="16.914253">
        <ele>143.358189</ele>
        <time>2026-05-06T11:08:05.492Z</time>
      </trkpt>
      <trkpt lat="48.145088" lon="16.913724">
        <ele>143.519759</ele>
        <time>2026-05-06T11:08:13.884Z</time>
      </trkpt>
      <trkpt lat="48.144959" lon="16.913005">
        <ele>144.031133</ele>
        <time>2026-05-06T11:08:26.199Z</time>
      </trkpt>
      <trkpt lat="48.144843" lon="16.912655">
        <ele>144.299547</ele>
        <time>2026-05-06T11:08:32.962Z</time>
      </trkpt>
      <trkpt lat="48.144697" lon="16.912292">
        <ele>144.590661</ele>
        <time>2026-05-06T11:08:40.577Z</time>
      </trkpt>
      <trkpt lat="48.143799" lon="16.910057">
        <ele>146.388376</ele>
        <time>2026-05-06T11:09:29.350Z</time>
      </trkpt>
      <trkpt lat="48.143703" lon="16.909762">
        <ele>146.615036</ele>
        <time>2026-05-06T11:09:34.737Z</time>
      </trkpt>
      <trkpt lat="48.143625" lon="16.909570">
        <ele>146.770270</ele>
        <time>2026-05-06T11:09:38.226Z</time>
      </trkpt>
      <trkpt lat="48.143487" lon="16.909575">
        <ele>146.913135</ele>
        <time>2026-05-06T11:09:41.424Z</time>
      </trkpt>
      <trkpt lat="48.143058" lon="16.909817">
        <ele>147.548171</ele>
        <time>2026-05-06T11:09:52.466Z</time>
      </trkpt>
      <trkpt lat="48.142785" lon="16.909928">
        <ele>148.065065</ele>
        <time>2026-05-06T11:09:59.561Z</time>
      </trkpt>
      <trkpt lat="48.142567" lon="16.909984">
        <ele>148.469232</ele>
        <time>2026-05-06T11:10:05.121Z</time>
      </trkpt>
      <trkpt lat="48.142064" lon="16.910104">
        <ele>149.399950</ele>
        <time>2026-05-06T11:10:19.422Z</time>
      </trkpt>
      <trkpt lat="48.141777" lon="16.910249">
        <ele>149.953393</ele>
        <time>2026-05-06T11:10:29.402Z</time>
      </trkpt>
      <trkpt lat="48.141662" lon="16.910341">
        <ele>150.191604</ele>
        <time>2026-05-06T11:10:33.970Z</time>
      </trkpt>
      <trkpt lat="48.141702" lon="16.910707">
        <ele>150.993216</ele>
        <time>2026-05-06T11:10:43.338Z</time>
      </trkpt>
      <trkpt lat="48.141660" lon="16.910777">
        <ele>151.331553</ele>
        <time>2026-05-06T11:10:45.838Z</time>
      </trkpt>
      <trkpt lat="48.141582" lon="16.910794">
        <ele>151.756092</ele>
        <time>2026-05-06T11:10:48.973Z</time>
      </trkpt>
      <trkpt lat="48.141453" lon="16.910818">
        <ele>152.456239</ele>
        <time>2026-05-06T11:10:54.180Z</time>
      </trkpt>
      <trkpt lat="48.141338" lon="16.911063">
        <ele>153.532836</ele>
        <time>2026-05-06T11:11:02.498Z</time>
      </trkpt>
      <trkpt lat="48.141220" lon="16.911224">
        <ele>154.392365</ele>
        <time>2026-05-06T11:11:09.419Z</time>
      </trkpt>
      <trkpt lat="48.141019" lon="16.911442">
        <ele>155.728768</ele>
        <time>2026-05-06T11:11:20.474Z</time>
      </trkpt>
      <trkpt lat="48.140760" lon="16.911630">
        <ele>157.278812</ele>
        <time>2026-05-06T11:11:33.831Z</time>
      </trkpt>
      <trkpt lat="48.140450" lon="16.911747">
        <ele>159.000658</ele>
        <time>2026-05-06T11:11:49.485Z</time>
      </trkpt>
      <trkpt lat="48.140103" lon="16.911793">
        <ele>160.940235</ele>
        <time>2026-05-06T11:12:06.520Z</time>
      </trkpt>
      <trkpt lat="48.140096" lon="16.911708">
        <ele>161.274942</ele>
        <time>2026-05-06T11:12:09.170Z</time>
      </trkpt>
      <trkpt lat="48.139396" lon="16.911751">
        <ele>165.377909</ele>
        <time>2026-05-06T11:12:42.072Z</time>
      </trkpt>
      <trkpt lat="48.139201" lon="16.911741">
        <ele>166.520588</ele>
        <time>2026-05-06T11:12:50.870Z</time>
      </trkpt>
      <trkpt lat="48.139062" lon="16.911681">
        <ele>167.367736</ele>
        <time>2026-05-06T11:12:57.248Z</time>
      </trkpt>
      <trkpt lat="48.138824" lon="16.911413">
        <ele>169.111241</ele>
        <time>2026-05-06T11:13:10.305Z</time>
      </trkpt>
      <trkpt lat="48.138734" lon="16.911200">
        <ele>170.096521</ele>
        <time>2026-05-06T11:13:17.758Z</time>
      </trkpt>
      <trkpt lat="48.138671" lon="16.910764">
        <ele>171.343454</ele>
        <time>2026-05-06T11:13:30.922Z</time>
      </trkpt>
      <trkpt lat="48.138615" lon="16.910516">
        <ele>171.926453</ele>
        <time>2026-05-06T11:13:38.454Z</time>
      </trkpt>
      <trkpt lat="48.138532" lon="16.910293">
        <ele>172.495039</ele>
        <time>2026-05-06T11:13:45.657Z</time>
      </trkpt>
      <trkpt lat="48.138400" lon="16.910059">
        <ele>173.177329</ele>
        <time>2026-05-06T11:13:54.009Z</time>
      </trkpt>
      <trkpt lat="48.138256" lon="16.909907">
        <ele>173.765079</ele>
        <time>2026-05-06T11:14:00.838Z</time>
      </trkpt>
      <trkpt lat="48.138093" lon="16.909818">
        <ele>174.343966</ele>
        <time>2026-05-06T11:14:07.280Z</time>
      </trkpt>
      <trkpt lat="48.137984" lon="16.909811">
        <ele>174.708016</ele>
        <time>2026-05-06T11:14:11.123Z</time>
      </trkpt>
      <trkpt lat="48.137947" lon="16.909673">
        <ele>175.039190</ele>
        <time>2026-05-06T11:14:14.529Z</time>
      </trkpt>
      <trkpt lat="48.137711" lon="16.909151">
        <ele>176.443225</ele>
        <time>2026-05-06T11:14:27.323Z</time>
      </trkpt>
      <trkpt lat="48.137657" lon="16.909033">
        <ele>176.584814</ele>
        <time>2026-05-06T11:14:29.815Z</time>
      </trkpt>
      <trkpt lat="48.137380" lon="16.908432">
        <ele>174.328839</ele>
        <time>2026-05-06T11:14:39.414Z</time>
      </trkpt>
      <trkpt lat="48.137332" lon="16.908554">
        <ele>173.891407</ele>
        <time>2026-05-06T11:14:40.970Z</time>
      </trkpt>
      <trkpt lat="48.136821" lon="16.909030">
        <ele>171.106622</ele>
        <time>2026-05-06T11:14:49.987Z</time>
      </trkpt>
      <trkpt lat="48.136515" lon="16.908749">
        <ele>169.445573</ele>
        <time>2026-05-06T11:14:55.282Z</time>
      </trkpt>
      <trkpt lat="48.136168" lon="16.908550">
        <ele>167.247254</ele>
        <time>2026-05-06T11:15:00.608Z</time>
      </trkpt>
      <trkpt lat="48.135812" lon="16.908181">
        <ele>163.738409</ele>
        <time>2026-05-06T11:15:06.789Z</time>
      </trkpt>
      <trkpt lat="48.135572" lon="16.908045">
        <ele>161.658514</ele>
        <time>2026-05-06T11:15:10.471Z</time>
      </trkpt>
      <trkpt lat="48.135476" lon="16.907940">
        <ele>160.695087</ele>
        <time>2026-05-06T11:15:12.181Z</time>
      </trkpt>
      <trkpt lat="48.135407" lon="16.907805">
        <ele>159.775208</ele>
        <time>2026-05-06T11:15:13.823Z</time>
      </trkpt>
      <trkpt lat="48.135318" lon="16.907464">
        <ele>157.794451</ele>
        <time>2026-05-06T11:15:17.393Z</time>
      </trkpt>
      <trkpt lat="48.135292" lon="16.907419">
        <ele>157.472459</ele>
        <time>2026-05-06T11:15:17.974Z</time>
      </trkpt>
      <trkpt lat="48.135266" lon="16.907398">
        <ele>157.233036</ele>
        <time>2026-05-06T11:15:18.407Z</time>
      </trkpt>
      <trkpt lat="48.135134" lon="16.907305">
        <ele>156.050674</ele>
        <time>2026-05-06T11:15:20.563Z</time>
      </trkpt>
      <trkpt lat="48.135131" lon="16.907127">
        <ele>155.087437</ele>
        <time>2026-05-06T11:15:22.273Z</time>
      </trkpt>
      <trkpt lat="48.135092" lon="16.907035">
        <ele>154.497828</ele>
        <time>2026-05-06T11:15:23.340Z</time>
      </trkpt>
      <trkpt lat="48.134610" lon="16.906356">
        <ele>152.534888</ele>
        <time>2026-05-06T11:15:33.488Z</time>
      </trkpt>
      <trkpt lat="48.134448" lon="16.906140">
        <ele>152.062764</ele>
        <time>2026-05-06T11:15:37.138Z</time>
      </trkpt>
      <trkpt lat="48.134402" lon="16.906077">
        <ele>151.927082</ele>
        <time>2026-05-06T11:15:38.249Z</time>
      </trkpt>
      <trkpt lat="48.134345" lon="16.905999">
        <ele>151.759018</ele>
        <time>2026-05-06T11:15:39.605Z</time>
      </trkpt>
      <trkpt lat="48.134006" lon="16.905570">
        <ele>150.792945</ele>
        <time>2026-05-06T11:15:48.065Z</time>
      </trkpt>
      <trkpt lat="48.133972" lon="16.905531">
        <ele>150.699721</ele>
        <time>2026-05-06T11:15:48.998Z</time>
      </trkpt>
      <trkpt lat="48.133663" lon="16.905135">
        <ele>149.896342</ele>
        <time>2026-05-06T11:15:58.892Z</time>
      </trkpt>
      <trkpt lat="48.133039" lon="16.904397">
        <ele>150.844527</ele>
        <time>2026-05-06T11:16:22.417Z</time>
      </trkpt>
      <trkpt lat="48.132989" lon="16.904331">
        <ele>150.924006</ele>
        <time>2026-05-06T11:16:24.452Z</time>
      </trkpt>
      <trkpt lat="48.132477" lon="16.903688">
        <ele>151.720828</ele>
        <time>2026-05-06T11:16:43.523Z</time>
      </trkpt>
      <trkpt lat="48.131956" lon="16.903097">
        <ele>151.940313</ele>
        <time>2026-05-06T11:16:59.136Z</time>
      </trkpt>
      <trkpt lat="48.131866" lon="16.903140">
        <ele>151.923593</ele>
        <time>2026-05-06T11:17:01.064Z</time>
      </trkpt>
      <trkpt lat="48.131500" lon="16.903454">
        <ele>151.848942</ele>
        <time>2026-05-06T11:17:09.574Z</time>
      </trkpt>
      <trkpt lat="48.131092" lon="16.903897">
        <ele>151.759756</ele>
        <time>2026-05-06T11:17:19.696Z</time>
      </trkpt>
      <trkpt lat="48.130988" lon="16.904133">
        <ele>151.726347</ele>
        <time>2026-05-06T11:17:23.434Z</time>
      </trkpt>
      <trkpt lat="48.130954" lon="16.904213">
        <ele>151.715143</ele>
        <time>2026-05-06T11:17:24.781Z</time>
      </trkpt>
      <trkpt lat="48.130929" lon="16.904302">
        <ele>151.703735</ele>
        <time>2026-05-06T11:17:26.070Z</time>
      </trkpt>
      <trkpt lat="48.130630" lon="16.904135">
        <ele>152.112386</ele>
        <time>2026-05-06T11:17:32.878Z</time>
      </trkpt>
      <trkpt lat="48.130401" lon="16.904082">
        <ele>152.476811</ele>
        <time>2026-05-06T11:17:38.398Z</time>
      </trkpt>
      <trkpt lat="48.130210" lon="16.904074">
        <ele>152.777319</ele>
        <time>2026-05-06T11:17:43.340Z</time>
      </trkpt>
      <trkpt lat="48.130069" lon="16.904067">
        <ele>152.999194</ele>
        <time>2026-05-06T11:17:47.300Z</time>
      </trkpt>
      <trkpt lat="48.129744" lon="16.904052">
        <ele>153.510572</ele>
        <time>2026-05-06T11:17:57.162Z</time>
      </trkpt>
      <trkpt lat="48.129550" lon="16.904049">
        <ele>153.815696</ele>
        <time>2026-05-06T11:18:03.331Z</time>
      </trkpt>
      <trkpt lat="48.129044" lon="16.904093">
        <ele>154.716723</ele>
        <time>2026-05-06T11:18:20.415Z</time>
      </trkpt>
      <trkpt lat="48.128837" lon="16.904069">
        <ele>155.421182</ele>
        <time>2026-05-06T11:18:28.047Z</time>
      </trkpt>
      <trkpt lat="48.128577" lon="16.904028">
        <ele>156.308245</ele>
        <time>2026-05-06T11:18:37.761Z</time>
      </trkpt>
      <trkpt lat="48.128312" lon="16.903971">
        <ele>157.216619</ele>
        <time>2026-05-06T11:18:48.054Z</time>
      </trkpt>
      <trkpt lat="48.128051" lon="16.903909">
        <ele>158.113265</ele>
        <time>2026-05-06T11:18:58.172Z</time>
      </trkpt>
      <trkpt lat="48.127699" lon="16.903820">
        <ele>159.324503</ele>
        <time>2026-05-06T11:19:11.022Z</time>
      </trkpt>
      <trkpt lat="48.127438" lon="16.903770">
        <ele>160.217296</ele>
        <time>2026-05-06T11:19:20.308Z</time>
      </trkpt>
      <trkpt lat="48.127175" lon="16.903677">
        <ele>160.865422</ele>
        <time>2026-05-06T11:19:29.534Z</time>
      </trkpt>
      <trkpt lat="48.126623" lon="16.903370">
        <ele>161.806796</ele>
        <time>2026-05-06T11:19:47.664Z</time>
      </trkpt>
      <trkpt lat="48.125013" lon="16.902751">
        <ele>163.539926</ele>
        <time>2026-05-06T11:20:30.897Z</time>
      </trkpt>
      <trkpt lat="48.124904" lon="16.902718">
        <ele>163.547009</ele>
        <time>2026-05-06T11:20:33.539Z</time>
      </trkpt>
      <trkpt lat="48.124707" lon="16.902666">
        <ele>163.559751</ele>
        <time>2026-05-06T11:20:38.207Z</time>
      </trkpt>
      <trkpt lat="48.124141" lon="16.902577">
        <ele>163.596001</ele>
        <time>2026-05-06T11:20:50.573Z</time>
      </trkpt>
      <trkpt lat="48.124087" lon="16.902552">
        <ele>163.599601</ele>
        <time>2026-05-06T11:20:51.730Z</time>
      </trkpt>
      <trkpt lat="48.123835" lon="16.902449">
        <ele>163.614239</ele>
        <time>2026-05-06T11:20:56.837Z</time>
      </trkpt>
      <trkpt lat="48.123612" lon="16.902414">
        <ele>163.341607</ele>
        <time>2026-05-06T11:21:01.030Z</time>
      </trkpt>
      <trkpt lat="48.123481" lon="16.902462">
        <ele>163.177627</ele>
        <time>2026-05-06T11:21:03.498Z</time>
      </trkpt>
      <trkpt lat="48.123378" lon="16.902593">
        <ele>163.013341</ele>
        <time>2026-05-06T11:21:05.977Z</time>
      </trkpt>
      <trkpt lat="48.123136" lon="16.903081">
        <ele>162.519915</ele>
        <time>2026-05-06T11:21:13.277Z</time>
      </trkpt>
      <trkpt lat="48.122880" lon="16.903490">
        <ele>162.064839</ele>
        <time>2026-05-06T11:21:20.040Z</time>
      </trkpt>
      <trkpt lat="48.122750" lon="16.903639">
        <ele>161.865812</ele>
        <time>2026-05-06T11:21:23.030Z</time>
      </trkpt>
      <trkpt lat="48.122688" lon="16.903531">
        <ele>161.750195</ele>
        <time>2026-05-06T11:21:24.772Z</time>
      </trkpt>
      <trkpt lat="48.122595" lon="16.903341">
        <ele>161.558963</ele>
        <time>2026-05-06T11:21:27.666Z</time>
      </trkpt>
      <trkpt lat="48.121464" lon="16.901068">
        <ele>161.384454</ele>
        <time>2026-05-06T11:22:09.173Z</time>
      </trkpt>
      <trkpt lat="48.121262" lon="16.900571">
        <ele>161.891783</ele>
        <time>2026-05-06T11:22:20.056Z</time>
      </trkpt>
      <trkpt lat="48.121051" lon="16.900184">
        <ele>162.342735</ele>
        <time>2026-05-06T11:22:29.652Z</time>
      </trkpt>
      <trkpt lat="48.121057" lon="16.899991">
        <ele>162.517105</ele>
        <time>2026-05-06T11:22:33.430Z</time>
      </trkpt>
      <trkpt lat="48.121029" lon="16.899877">
        <ele>162.626732</ele>
        <time>2026-05-06T11:22:35.800Z</time>
      </trkpt>
      <trkpt lat="48.119298" lon="16.896315">
        <ele>167.134446</ele>
        <time>2026-05-06T11:23:58.695Z</time>
      </trkpt>
      <trkpt lat="48.118612" lon="16.894827">
        <ele>169.548288</ele>
        <time>2026-05-06T11:24:37.122Z</time>
      </trkpt>
      <trkpt lat="48.117297" lon="16.892146">
        <ele>172.945763</ele>
        <time>2026-05-06T11:25:39.933Z</time>
      </trkpt>
      <trkpt lat="48.117039" lon="16.891824">
        <ele>173.296071</ele>
        <time>2026-05-06T11:25:48.464Z</time>
      </trkpt>
      <trkpt lat="48.116805" lon="16.891389">
        <ele>173.685114</ele>
        <time>2026-05-06T11:25:57.934Z</time>
      </trkpt>
      <trkpt lat="48.116669" lon="16.890986">
        <ele>173.999588</ele>
        <time>2026-05-06T11:26:05.586Z</time>
      </trkpt>
      <trkpt lat="48.116640" lon="16.890835">
        <ele>174.109011</ele>
        <time>2026-05-06T11:26:08.264Z</time>
      </trkpt>
      <trkpt lat="48.116588" lon="16.890662">
        <ele>174.241139</ele>
        <time>2026-05-06T11:26:11.481Z</time>
      </trkpt>
      <trkpt lat="48.115170" lon="16.887765">
        <ele>177.170291</ele>
        <time>2026-05-06T11:27:17.250Z</time>
      </trkpt>
      <trkpt lat="48.113607" lon="16.884466">
        <ele>180.043578</ele>
        <time>2026-05-06T11:28:29.954Z</time>
      </trkpt>
      <trkpt lat="48.111893" lon="16.880949">
        <ele>181.427333</ele>
        <time>2026-05-06T11:29:39.131Z</time>
      </trkpt>
      <trkpt lat="48.110515" lon="16.878097">
        <ele>181.862772</ele>
        <time>2026-05-06T11:30:33.016Z</time>
      </trkpt>
      <trkpt lat="48.110042" lon="16.877195">
        <ele>181.961433</ele>
        <time>2026-05-06T11:30:50.129Z</time>
      </trkpt>
      <trkpt lat="48.109029" lon="16.875522">
        <ele>182.298677</ele>
        <time>2026-05-06T11:31:25.096Z</time>
      </trkpt>
      <trkpt lat="48.108325" lon="16.874516">
        <ele>182.643800</ele>
        <time>2026-05-06T11:31:47.589Z</time>
      </trkpt>
      <trkpt lat="48.107956" lon="16.874042">
        <ele>182.861780</ele>
        <time>2026-05-06T11:31:59.465Z</time>
      </trkpt>
      <trkpt lat="48.107244" lon="16.873100">
        <ele>183.268218</ele>
        <time>2026-05-06T11:32:22.711Z</time>
      </trkpt>
      <trkpt lat="48.106713" lon="16.872346">
        <ele>183.520125</ele>
        <time>2026-05-06T11:32:40.639Z</time>
      </trkpt>
      <trkpt lat="48.106169" lon="16.871472">
        <ele>183.794783</ele>
        <time>2026-05-06T11:32:58.579Z</time>
      </trkpt>
      <trkpt lat="48.105771" lon="16.870656">
        <ele>184.003882</ele>
        <time>2026-05-06T11:33:14.197Z</time>
      </trkpt>
      <trkpt lat="48.105506" lon="16.870018">
        <ele>184.156995</ele>
        <time>2026-05-06T11:33:26.082Z</time>
      </trkpt>
      <trkpt lat="48.105214" lon="16.869161">
        <ele>184.353059</ele>
        <time>2026-05-06T11:33:41.124Z</time>
      </trkpt>
      <trkpt lat="48.105170" lon="16.869083">
        <ele>184.375908</ele>
        <time>2026-05-06T11:33:42.761Z</time>
      </trkpt>
      <trkpt lat="48.104789" lon="16.868912">
        <ele>184.610208</ele>
        <time>2026-05-06T11:33:52.500Z</time>
      </trkpt>
      <trkpt lat="48.104625" lon="16.868749">
        <ele>184.726157</ele>
        <time>2026-05-06T11:33:57.409Z</time>
      </trkpt>
      <trkpt lat="48.104550" lon="16.868544">
        <ele>184.818107</ele>
        <time>2026-05-06T11:34:01.288Z</time>
      </trkpt>
      <trkpt lat="48.104523" lon="16.868371">
        <ele>184.887994</ele>
        <time>2026-05-06T11:34:04.204Z</time>
      </trkpt>
      <trkpt lat="48.104490" lon="16.867457">
        <ele>185.248057</ele>
        <time>2026-05-06T11:34:19.069Z</time>
      </trkpt>
      <trkpt lat="48.104429" lon="16.866838">
        <ele>185.505045</ele>
        <time>2026-05-06T11:34:29.547Z</time>
      </trkpt>
      <trkpt lat="48.104369" lon="16.866567">
        <ele>185.636713</ele>
        <time>2026-05-06T11:34:34.458Z</time>
      </trkpt>
      <trkpt lat="48.104268" lon="16.866166">
        <ele>185.834360</ele>
        <time>2026-05-06T11:34:41.714Z</time>
      </trkpt>
      <trkpt lat="48.104138" lon="16.865866">
        <ele>185.999289</ele>
        <time>2026-05-06T11:34:47.621Z</time>
      </trkpt>
      <trkpt lat="48.103784" lon="16.865369">
        <ele>186.334405</ele>
        <time>2026-05-06T11:34:59.532Z</time>
      </trkpt>
      <trkpt lat="48.103701" lon="16.865220">
        <ele>186.423890</ele>
        <time>2026-05-06T11:35:02.767Z</time>
      </trkpt>
      <trkpt lat="48.103538" lon="16.864919">
        <ele>186.602611</ele>
        <time>2026-05-06T11:35:09.907Z</time>
      </trkpt>
      <trkpt lat="48.103437" lon="16.864797">
        <ele>186.682274</ele>
        <time>2026-05-06T11:35:13.547Z</time>
      </trkpt>
      <trkpt lat="48.103091" lon="16.864437">
        <ele>186.819711</ele>
        <time>2026-05-06T11:35:25.254Z</time>
      </trkpt>
      <trkpt lat="48.102973" lon="16.864353">
        <ele>186.862331</ele>
        <time>2026-05-06T11:35:28.887Z</time>
      </trkpt>
      <trkpt lat="48.102396" lon="16.864069">
        <ele>187.060458</ele>
        <time>2026-05-06T11:35:45.422Z</time>
      </trkpt>
      <trkpt lat="48.101534" lon="16.863843">
        <ele>187.125489</ele>
        <time>2026-05-06T11:36:06.249Z</time>
      </trkpt>
      <trkpt lat="48.101006" lon="16.863753">
        <ele>186.853644</ele>
        <time>2026-05-06T11:36:18.062Z</time>
      </trkpt>
      <trkpt lat="48.100500" lon="16.863725">
        <ele>186.594621</ele>
        <time>2026-05-06T11:36:29.179Z</time>
      </trkpt>
      <trkpt lat="48.099366" lon="16.863750">
        <ele>185.865126</ele>
        <time>2026-05-06T11:36:56.415Z</time>
      </trkpt>
      <trkpt lat="48.098758" lon="16.863631">
        <ele>185.407568</ele>
        <time>2026-05-06T11:37:09.685Z</time>
      </trkpt>
      <trkpt lat="48.098341" lon="16.863455">
        <ele>185.084270</ele>
        <time>2026-05-06T11:37:17.852Z</time>
      </trkpt>
      <trkpt lat="48.097985" lon="16.863297">
        <ele>184.047312</ele>
        <time>2026-05-06T11:37:24.311Z</time>
      </trkpt>
      <trkpt lat="48.097603" lon="16.863131">
        <ele>182.567272</ele>
        <time>2026-05-06T11:37:30.806Z</time>
      </trkpt>
      <trkpt lat="48.096702" lon="16.863111">
        <ele>179.214359</ele>
        <time>2026-05-06T11:37:56.062Z</time>
      </trkpt>
      <trkpt lat="48.096237" lon="16.863004">
        <ele>177.277946</ele>
        <time>2026-05-06T11:38:09.109Z</time>
      </trkpt>
      <trkpt lat="48.095454" lon="16.862748">
        <ele>173.637026</ele>
        <time>2026-05-06T11:38:31.248Z</time>
      </trkpt>
      <trkpt lat="48.094387" lon="16.862515">
        <ele>169.218676</ele>
        <time>2026-05-06T11:39:01.516Z</time>
      </trkpt>
      <trkpt lat="48.094272" lon="16.862159">
        <ele>168.431637</ele>
        <time>2026-05-06T11:39:09.173Z</time>
      </trkpt>
      <trkpt lat="48.094243" lon="16.861998">
        <ele>168.099761</ele>
        <time>2026-05-06T11:39:12.441Z</time>
      </trkpt>
      <trkpt lat="48.092555" lon="16.861979">
        <ele>163.675838</ele>
        <time>2026-05-06T11:39:41.413Z</time>
      </trkpt>
      <trkpt lat="48.091578" lon="16.862061">
        <ele>161.796687</ele>
        <time>2026-05-06T11:39:58.905Z</time>
      </trkpt>
      <trkpt lat="48.087959" lon="16.862511">
        <ele>156.043511</ele>
        <time>2026-05-06T11:41:04.999Z</time>
      </trkpt>
      <trkpt lat="48.082199" lon="16.863253">
        <ele>149.491373</ele>
        <time>2026-05-06T11:42:55.190Z</time>
      </trkpt>
      <trkpt lat="48.081844" lon="16.863262">
        <ele>149.197707</ele>
        <time>2026-05-06T11:43:02.028Z</time>
      </trkpt>
      <trkpt lat="48.081036" lon="16.863181">
        <ele>148.527903</ele>
        <time>2026-05-06T11:43:17.834Z</time>
      </trkpt>
      <trkpt lat="48.080645" lon="16.863056">
        <ele>148.197208</ele>
        <time>2026-05-06T11:43:25.895Z</time>
      </trkpt>
      <trkpt lat="48.079963" lon="16.862771">
        <ele>147.907192</ele>
        <time>2026-05-06T11:43:40.508Z</time>
      </trkpt>
      <trkpt lat="48.078654" lon="16.862158">
        <ele>147.442025</ele>
        <time>2026-05-06T11:44:09.536Z</time>
      </trkpt>
      <trkpt lat="48.076176" lon="16.860989">
        <ele>146.978335</ele>
        <time>2026-05-06T11:45:06.012Z</time>
      </trkpt>
      <trkpt lat="48.075406" lon="16.860717">
        <ele>146.836074</ele>
        <time>2026-05-06T11:45:23.042Z</time>
      </trkpt>
      <trkpt lat="48.075098" lon="16.860661">
        <ele>146.676163</ele>
        <time>2026-05-06T11:45:29.587Z</time>
      </trkpt>
      <trkpt lat="48.074681" lon="16.860647">
        <ele>146.461185</ele>
        <time>2026-05-06T11:45:38.235Z</time>
      </trkpt>
      <trkpt lat="48.074057" lon="16.860778">
        <ele>146.136425</ele>
        <time>2026-05-06T11:45:50.822Z</time>
      </trkpt>
      <trkpt lat="48.073611" lon="16.860982">
        <ele>145.897597</ele>
        <time>2026-05-06T11:46:00.294Z</time>
      </trkpt>
      <trkpt lat="48.073342" lon="16.861153">
        <ele>145.759511</ele>
        <time>2026-05-06T11:46:06.322Z</time>
      </trkpt>
      <trkpt lat="48.073090" lon="16.861358">
        <ele>145.623994</ele>
        <time>2026-05-06T11:46:12.249Z</time>
      </trkpt>
      <trkpt lat="48.072653" lon="16.861811">
        <ele>145.372829</ele>
        <time>2026-05-06T11:46:23.306Z</time>
      </trkpt>
      <trkpt lat="48.071361" lon="16.863605">
        <ele>144.397634</ele>
        <time>2026-05-06T11:46:59.448Z</time>
      </trkpt>
      <trkpt lat="48.071666" lon="16.863952">
        <ele>144.167453</ele>
        <time>2026-05-06T11:47:06.950Z</time>
      </trkpt>
      <trkpt lat="48.071938" lon="16.864378">
        <ele>143.961514</ele>
        <time>2026-05-06T11:47:14.790Z</time>
      </trkpt>
      <trkpt lat="48.072039" lon="16.864592">
        <ele>143.916856</ele>
        <time>2026-05-06T11:47:18.346Z</time>
      </trkpt>
      <trkpt lat="48.072047" lon="16.864617">
        <ele>143.912131</ele>
        <time>2026-05-06T11:47:18.732Z</time>
      </trkpt>
      <trkpt lat="48.072224" lon="16.865129">
        <ele>143.813872</ele>
        <time>2026-05-06T11:47:26.744Z</time>
      </trkpt>
      <trkpt lat="48.072666" lon="16.867132">
        <ele>143.536310</ele>
        <time>2026-05-06T11:47:57.934Z</time>
      </trkpt>
      <trkpt lat="48.072751" lon="16.867623">
        <ele>143.549757</ele>
        <time>2026-05-06T11:48:05.174Z</time>
      </trkpt>
      <trkpt lat="48.072962" lon="16.869189">
        <ele>143.592108</ele>
        <time>2026-05-06T11:48:28.579Z</time>
      </trkpt>
      <trkpt lat="48.073121" lon="16.870592">
        <ele>143.930505</ele>
        <time>2026-05-06T11:48:52.387Z</time>
      </trkpt>
      <trkpt lat="48.073221" lon="16.871015">
        <ele>144.050139</ele>
        <time>2026-05-06T11:48:59.911Z</time>
      </trkpt>
      <trkpt lat="48.073471" lon="16.871706">
        <ele>144.259650</ele>
        <time>2026-05-06T11:49:12.271Z</time>
      </trkpt>
      <trkpt lat="48.073856" lon="16.872743">
        <ele>144.223894</ele>
        <time>2026-05-06T11:49:29.334Z</time>
      </trkpt>
      <trkpt lat="48.074271" lon="16.874097">
        <ele>144.086556</ele>
        <time>2026-05-06T11:49:50.268Z</time>
      </trkpt>
      <trkpt lat="48.074939" lon="16.876557">
        <ele>144.421359</ele>
        <time>2026-05-06T11:50:32.077Z</time>
      </trkpt>
      <trkpt lat="48.074992" lon="16.876778">
        <ele>144.455618</ele>
        <time>2026-05-06T11:50:35.677Z</time>
      </trkpt>
      <trkpt lat="48.076377" lon="16.882387">
        <ele>143.879425</ele>
        <time>2026-05-06T11:52:01.516Z</time>
      </trkpt>
      <trkpt lat="48.076435" lon="16.882734">
        <ele>143.884464</ele>
        <time>2026-05-06T11:52:06.670Z</time>
      </trkpt>
      <trkpt lat="48.076538" lon="16.884404">
        <ele>143.908089</ele>
        <time>2026-05-06T11:52:31.946Z</time>
      </trkpt>
      <trkpt lat="48.076709" lon="16.886484">
        <ele>144.499432</ele>
        <time>2026-05-06T11:53:05.956Z</time>
      </trkpt>
      <trkpt lat="48.076771" lon="16.887813">
        <ele>144.882348</ele>
        <time>2026-05-06T11:53:27.393Z</time>
      </trkpt>
      <trkpt lat="48.076817" lon="16.888543">
        <ele>145.088528</ele>
        <time>2026-05-06T11:53:39.128Z</time>
      </trkpt>
      <trkpt lat="48.076950" lon="16.890288">
        <ele>145.488822</ele>
        <time>2026-05-06T11:54:07.139Z</time>
      </trkpt>
      <trkpt lat="48.076958" lon="16.890656">
        <ele>145.515662</ele>
        <time>2026-05-06T11:54:12.846Z</time>
      </trkpt>
      <trkpt lat="48.076926" lon="16.890945">
        <ele>145.537017</ele>
        <time>2026-05-06T11:54:17.308Z</time>
      </trkpt>
      <trkpt lat="48.076841" lon="16.891203">
        <ele>145.557986</ele>
        <time>2026-05-06T11:54:21.656Z</time>
      </trkpt>
      <trkpt lat="48.076644" lon="16.891551">
        <ele>145.591236</ele>
        <time>2026-05-06T11:54:28.410Z</time>
      </trkpt>
      <trkpt lat="48.076342" lon="16.891927">
        <ele>145.634096</ele>
        <time>2026-05-06T11:54:36.967Z</time>
      </trkpt>
      <trkpt lat="48.075839" lon="16.892671">
        <ele>145.575691</ele>
        <time>2026-05-06T11:54:52.307Z</time>
      </trkpt>
      <trkpt lat="48.075576" lon="16.893208">
        <ele>145.512582</ele>
        <time>2026-05-06T11:55:01.934Z</time>
      </trkpt>
      <trkpt lat="48.075420" lon="16.893678">
        <ele>145.462840</ele>
        <time>2026-05-06T11:55:09.746Z</time>
      </trkpt>
      <trkpt lat="48.075344" lon="16.894013">
        <ele>145.429307</ele>
        <time>2026-05-06T11:55:14.980Z</time>
      </trkpt>
      <trkpt lat="48.075294" lon="16.894297">
        <ele>145.401470</ele>
        <time>2026-05-06T11:55:19.252Z</time>
      </trkpt>
      <trkpt lat="48.075130" lon="16.895297">
        <ele>145.257602</ele>
        <time>2026-05-06T11:55:33.671Z</time>
      </trkpt>
      <trkpt lat="48.074868" lon="16.896535">
        <ele>145.073465</ele>
        <time>2026-05-06T11:55:51.874Z</time>
      </trkpt>
      <trkpt lat="48.074677" lon="16.897458">
        <ele>145.510482</ele>
        <time>2026-05-06T11:56:06.177Z</time>
      </trkpt>
      <trkpt lat="48.074607" lon="16.897910">
        <ele>145.922706</ele>
        <time>2026-05-06T11:56:14.102Z</time>
      </trkpt>
      <trkpt lat="48.074578" lon="16.898281">
        <ele>146.254569</ele>
        <time>2026-05-06T11:56:20.999Z</time>
      </trkpt>
      <trkpt lat="48.074585" lon="16.898398">
        <ele>146.358933</ele>
        <time>2026-05-06T11:56:23.239Z</time>
      </trkpt>
      <trkpt lat="48.074588" lon="16.898435">
        <ele>146.392047</ele>
        <time>2026-05-06T11:56:23.960Z</time>
      </trkpt>
      <trkpt lat="48.074595" lon="16.898501">
        <ele>146.451419</ele>
        <time>2026-05-06T11:56:25.233Z</time>
      </trkpt>
      <trkpt lat="48.074602" lon="16.898574">
        <ele>146.516940</ele>
        <time>2026-05-06T11:56:26.664Z</time>
      </trkpt>
      <trkpt lat="48.074704" lon="16.899400">
        <ele>147.263226</ele>
        <time>2026-05-06T11:56:43.787Z</time>
      </trkpt>
      <trkpt lat="48.074888" lon="16.900637">
        <ele>149.621930</ele>
        <time>2026-05-06T11:57:11.931Z</time>
      </trkpt>
      <trkpt lat="48.075229" lon="16.902070">
        <ele>152.669949</ele>
        <time>2026-05-06T11:57:47.603Z</time>
      </trkpt>
      <trkpt lat="48.075419" lon="16.902788">
        <ele>154.212909</ele>
        <time>2026-05-06T11:58:06.383Z</time>
      </trkpt>
      <trkpt lat="48.075569" lon="16.903347">
        <ele>155.416158</ele>
        <time>2026-05-06T11:58:20.866Z</time>
      </trkpt>
      <trkpt lat="48.075651" lon="16.903646">
        <ele>156.061743</ele>
        <time>2026-05-06T11:58:28.402Z</time>
      </trkpt>
      <trkpt lat="48.075733" lon="16.903953">
        <ele>156.722137</ele>
        <time>2026-05-06T11:58:36.056Z</time>
      </trkpt>
      <trkpt lat="48.075822" lon="16.904296">
        <ele>157.457104</ele>
        <time>2026-05-06T11:58:44.182Z</time>
      </trkpt>
      <trkpt lat="48.075856" lon="16.904506">
        <ele>157.888702</ele>
        <time>2026-05-06T11:58:48.843Z</time>
      </trkpt>
      <trkpt lat="48.075861" lon="16.904730">
        <ele>158.242445</ele>
        <time>2026-05-06T11:58:53.529Z</time>
      </trkpt>
      <trkpt lat="48.075779" lon="16.905361">
        <ele>158.764466</ele>
        <time>2026-05-06T11:59:06.321Z</time>
      </trkpt>
      <trkpt lat="48.075594" lon="16.906410">
        <ele>159.645509</ele>
        <time>2026-05-06T11:59:25.931Z</time>
      </trkpt>
      <trkpt lat="48.075368" lon="16.907653">
        <ele>160.314723</ele>
        <time>2026-05-06T11:59:46.702Z</time>
      </trkpt>
      <trkpt lat="48.075259" lon="16.908080">
        <ele>160.258646</ele>
        <time>2026-05-06T11:59:53.341Z</time>
      </trkpt>
      <trkpt lat="48.074604" lon="16.910365">
        <ele>160.457062</ele>
        <time>2026-05-06T12:00:27.790Z</time>
      </trkpt>
      <trkpt lat="48.074390" lon="16.911011">
        <ele>160.923008</ele>
        <time>2026-05-06T12:00:39.030Z</time>
      </trkpt>
      <trkpt lat="48.074321" lon="16.911207">
        <ele>161.066171</ele>
        <time>2026-05-06T12:00:42.822Z</time>
      </trkpt>
      <trkpt lat="48.074239" lon="16.911433">
        <ele>161.232360</ele>
        <time>2026-05-06T12:00:47.501Z</time>
      </trkpt>
      <trkpt lat="48.074173" lon="16.911670">
        <ele>161.398284</ele>
        <time>2026-05-06T12:00:52.509Z</time>
      </trkpt>
      <trkpt lat="48.074168" lon="16.911850">
        <ele>161.514704</ele>
        <time>2026-05-06T12:00:56.226Z</time>
      </trkpt>
      <trkpt lat="48.074198" lon="16.911991">
        <ele>161.610329</ele>
        <time>2026-05-06T12:00:59.401Z</time>
      </trkpt>
      <trkpt lat="48.074347" lon="16.912229">
        <ele>161.955352</ele>
        <time>2026-05-06T12:01:06.588Z</time>
      </trkpt>
      <trkpt lat="48.074485" lon="16.912344">
        <ele>162.539079</ele>
        <time>2026-05-06T12:01:11.943Z</time>
      </trkpt>
      <trkpt lat="48.074657" lon="16.912427">
        <ele>163.206954</ele>
        <time>2026-05-06T12:01:18.155Z</time>
      </trkpt>
      <trkpt lat="48.075383" lon="16.912608">
        <ele>165.926962</ele>
        <time>2026-05-06T12:01:44.928Z</time>
      </trkpt>
      <trkpt lat="48.075669" lon="16.912643">
        <ele>166.987443</ele>
        <time>2026-05-06T12:01:56.228Z</time>
      </trkpt>
      <trkpt lat="48.075757" lon="16.912646">
        <ele>167.312744</ele>
        <time>2026-05-06T12:01:59.702Z</time>
      </trkpt>
      <trkpt lat="48.075786" lon="16.912642">
        <ele>167.420372</ele>
        <time>2026-05-06T12:02:00.923Z</time>
      </trkpt>
      <trkpt lat="48.075794" lon="16.912830">
        <ele>167.885528</ele>
        <time>2026-05-06T12:02:05.943Z</time>
      </trkpt>
      <trkpt lat="48.075814" lon="16.913240">
        <ele>169.041758</ele>
        <time>2026-05-06T12:02:17.189Z</time>
      </trkpt>
      <trkpt lat="48.076453" lon="16.913296">
        <ele>172.102997</ele>
        <time>2026-05-06T12:02:44.754Z</time>
      </trkpt>
      <trkpt lat="48.076701" lon="16.913345">
        <ele>173.299341</ele>
        <time>2026-05-06T12:02:55.532Z</time>
      </trkpt>
      <trkpt lat="48.077354" lon="16.913563">
        <ele>176.499044</ele>
        <time>2026-05-06T12:03:23.976Z</time>
      </trkpt>
      <trkpt lat="48.077358" lon="16.914946">
        <ele>178.474715</ele>
        <time>2026-05-06T12:03:57.672Z</time>
      </trkpt>
      <trkpt lat="48.077411" lon="16.915440">
        <ele>179.070640</ele>
        <time>2026-05-06T12:04:05.982Z</time>
      </trkpt>
      <trkpt lat="48.077487" lon="16.915848">
        <ele>179.575128</ele>
        <time>2026-05-06T12:04:12.275Z</time>
      </trkpt>
      <trkpt lat="48.077563" lon="16.916226">
        <ele>180.045294</ele>
        <time>2026-05-06T12:04:17.981Z</time>
      </trkpt>
      <trkpt lat="48.077610" lon="16.916606">
        <ele>180.228544</ele>
        <time>2026-05-06T12:04:23.455Z</time>
      </trkpt>
      <trkpt lat="48.077625" lon="16.917270">
        <ele>180.227082</ele>
        <time>2026-05-06T12:04:32.524Z</time>
      </trkpt>
      <trkpt lat="48.077606" lon="16.917591">
        <ele>180.226373</ele>
        <time>2026-05-06T12:04:36.815Z</time>
      </trkpt>
      <trkpt lat="48.077446" lon="16.918614">
        <ele>180.224060</ele>
        <time>2026-05-06T12:04:52.826Z</time>
      </trkpt>
      <trkpt lat="48.077396" lon="16.919100">
        <ele>180.233562</ele>
        <time>2026-05-06T12:05:01.215Z</time>
      </trkpt>
      <trkpt lat="48.077383" lon="16.919514">
        <ele>180.296119</ele>
        <time>2026-05-06T12:05:08.189Z</time>
      </trkpt>
      <trkpt lat="48.077418" lon="16.920043">
        <ele>180.376356</ele>
        <time>2026-05-06T12:05:16.802Z</time>
      </trkpt>
      <trkpt lat="48.077720" lon="16.921581">
        <ele>180.618317</ele>
        <time>2026-05-06T12:05:40.948Z</time>
      </trkpt>
      <trkpt lat="48.077804" lon="16.922286">
        <ele>180.529425</ele>
        <time>2026-05-06T12:05:51.125Z</time>
      </trkpt>
      <trkpt lat="48.077833" lon="16.923030">
        <ele>180.413336</ele>
        <time>2026-05-06T12:06:01.741Z</time>
      </trkpt>
      <trkpt lat="48.077793" lon="16.923919">
        <ele>180.274544</ele>
        <time>2026-05-06T12:06:14.405Z</time>
      </trkpt>
      <trkpt lat="48.077665" lon="16.925733">
        <ele>179.907041</ele>
        <time>2026-05-06T12:06:40.120Z</time>
      </trkpt>
      <trkpt lat="48.077207" lon="16.929005">
        <ele>179.212750</ele>
        <time>2026-05-06T12:07:27.146Z</time>
      </trkpt>
      <trkpt lat="48.076952" lon="16.931116">
        <ele>178.752771</ele>
        <time>2026-05-06T12:07:57.565Z</time>
      </trkpt>
      <trkpt lat="48.076600" lon="16.934161">
        <ele>178.091588</ele>
        <time>2026-05-06T12:08:40.801Z</time>
      </trkpt>
      <trkpt lat="48.076583" lon="16.934469">
        <ele>178.026440</ele>
        <time>2026-05-06T12:08:45.281Z</time>
      </trkpt>
      <trkpt lat="48.076601" lon="16.935296">
        <ele>177.788252</ele>
        <time>2026-05-06T12:08:57.180Z</time>
      </trkpt>
      <trkpt lat="48.076686" lon="16.935909">
        <ele>177.544547</ele>
        <time>2026-05-06T12:09:06.106Z</time>
      </trkpt>
      <trkpt lat="48.077672" lon="16.942222">
        <ele>174.992876</ele>
        <time>2026-05-06T12:10:33.218Z</time>
      </trkpt>
      <trkpt lat="48.077858" lon="16.943441">
        <ele>174.784097</ele>
        <time>2026-05-06T12:10:50.297Z</time>
      </trkpt>
      <trkpt lat="48.077883" lon="16.943974">
        <ele>174.814723</ele>
        <time>2026-05-06T12:10:58.272Z</time>
      </trkpt>
      <trkpt lat="48.077869" lon="16.944214">
        <ele>174.828531</ele>
        <time>2026-05-06T12:11:01.940Z</time>
      </trkpt>
      <trkpt lat="48.077787" lon="16.944707">
        <ele>174.857651</ele>
        <time>2026-05-06T12:11:09.877Z</time>
      </trkpt>
      <trkpt lat="48.077603" lon="16.945242">
        <ele>174.892140</ele>
        <time>2026-05-06T12:11:19.516Z</time>
      </trkpt>
      <trkpt lat="48.076959" lon="16.946279">
        <ele>174.943604</ele>
        <time>2026-05-06T12:11:42.870Z</time>
      </trkpt>
      <trkpt lat="48.076696" lon="16.946679">
        <ele>174.962437</ele>
        <time>2026-05-06T12:11:51.086Z</time>
      </trkpt>
      <trkpt lat="48.076580" lon="16.946869">
        <ele>174.971074</ele>
        <time>2026-05-06T12:11:54.715Z</time>
      </trkpt>
      <trkpt lat="48.076515" lon="16.946950">
        <ele>174.975322</ele>
        <time>2026-05-06T12:11:56.494Z</time>
      </trkpt>
      <trkpt lat="48.076453" lon="16.947117">
        <ele>174.981734</ele>
        <time>2026-05-06T12:11:59.113Z</time>
      </trkpt>
      <trkpt lat="48.076457" lon="16.947173">
        <ele>174.983624</ele>
        <time>2026-05-06T12:11:59.896Z</time>
      </trkpt>
      <trkpt lat="48.076312" lon="16.947257">
        <ele>174.991433</ele>
        <time>2026-05-06T12:12:03.081Z</time>
      </trkpt>
      <trkpt lat="48.075899" lon="16.947689">
        <ele>174.564385</ele>
        <time>2026-05-06T12:12:13.149Z</time>
      </trkpt>
      <trkpt lat="48.075658" lon="16.948014">
        <ele>174.282583</ele>
        <time>2026-05-06T12:12:19.445Z</time>
      </trkpt>
      <trkpt lat="48.075467" lon="16.948346">
        <ele>174.028295</ele>
        <time>2026-05-06T12:12:25.036Z</time>
      </trkpt>
      <trkpt lat="48.075318" lon="16.948649">
        <ele>173.809931</ele>
        <time>2026-05-06T12:12:29.817Z</time>
      </trkpt>
      <trkpt lat="48.075182" lon="16.949040">
        <ele>173.554077</ele>
        <time>2026-05-06T12:12:35.430Z</time>
      </trkpt>
      <trkpt lat="48.075105" lon="16.949329">
        <ele>173.395192</ele>
        <time>2026-05-06T12:12:39.485Z</time>
      </trkpt>
      <trkpt lat="48.074994" lon="16.949942">
        <ele>173.169271</ele>
        <time>2026-05-06T12:12:47.923Z</time>
      </trkpt>
      <trkpt lat="48.074966" lon="16.950591">
        <ele>172.937929</ele>
        <time>2026-05-06T12:12:56.728Z</time>
      </trkpt>
      <trkpt lat="48.074977" lon="16.951092">
        <ele>172.759618</ele>
        <time>2026-05-06T12:13:03.707Z</time>
      </trkpt>
      <trkpt lat="48.074981" lon="16.951629">
        <ele>172.568585</ele>
        <time>2026-05-06T12:13:11.196Z</time>
      </trkpt>
      <trkpt lat="48.074982" lon="16.951810">
        <ele>172.504198</ele>
        <time>2026-05-06T12:13:13.805Z</time>
      </trkpt>
      <trkpt lat="48.075000" lon="16.952423">
        <ele>172.651182</ele>
        <time>2026-05-06T12:13:22.885Z</time>
      </trkpt>
      <trkpt lat="48.075010" lon="16.952492">
        <ele>172.675375</ele>
        <time>2026-05-06T12:13:23.969Z</time>
      </trkpt>
      <trkpt lat="48.075048" lon="16.952763">
        <ele>172.770258</ele>
        <time>2026-05-06T12:13:28.042Z</time>
      </trkpt>
      <trkpt lat="48.075124" lon="16.953075">
        <ele>172.884051</ele>
        <time>2026-05-06T12:13:33.097Z</time>
      </trkpt>
      <trkpt lat="48.075279" lon="16.953599">
        <ele>173.080412</ele>
        <time>2026-05-06T12:13:42.348Z</time>
      </trkpt>
      <trkpt lat="48.075476" lon="16.954231">
        <ele>173.319378</ele>
        <time>2026-05-06T12:13:54.380Z</time>
      </trkpt>
      <trkpt lat="48.075837" lon="16.955328">
        <ele>174.251366</ele>
        <time>2026-05-06T12:14:17.965Z</time>
      </trkpt>
      <trkpt lat="48.075958" lon="16.955607">
        <ele>174.535301</ele>
        <time>2026-05-06T12:14:24.671Z</time>
      </trkpt>
      <trkpt lat="48.075984" lon="16.955677">
        <ele>174.603667</ele>
        <time>2026-05-06T12:14:26.308Z</time>
      </trkpt>
      <trkpt lat="48.076710" lon="16.956991">
        <ele>175.621536</ele>
        <time>2026-05-06T12:14:56.786Z</time>
      </trkpt>
      <trkpt lat="48.077483" lon="16.958368">
        <ele>175.325190</ele>
        <time>2026-05-06T12:15:21.144Z</time>
      </trkpt>
      <trkpt lat="48.077930" lon="16.959183">
        <ele>175.111301</ele>
        <time>2026-05-06T12:15:35.065Z</time>
      </trkpt>
      <trkpt lat="48.078349" lon="16.959936">
        <ele>174.883220</ele>
        <time>2026-05-06T12:15:48.692Z</time>
      </trkpt>
      <trkpt lat="48.079557" lon="16.962122">
        <ele>174.451779</ele>
        <time>2026-05-06T12:16:30.172Z</time>
      </trkpt>
      <trkpt lat="48.080005" lon="16.963152">
        <ele>174.233159</ele>
        <time>2026-05-06T12:16:48.152Z</time>
      </trkpt>
      <trkpt lat="48.080564" lon="16.964510">
        <ele>173.464223</ele>
        <time>2026-05-06T12:17:09.788Z</time>
      </trkpt>
      <trkpt lat="48.081271" lon="16.966206">
        <ele>171.674498</ele>
        <time>2026-05-06T12:17:34.790Z</time>
      </trkpt>
      <trkpt lat="48.081477" lon="16.966793">
        <ele>170.880293</ele>
        <time>2026-05-06T12:17:42.779Z</time>
      </trkpt>
      <trkpt lat="48.081639" lon="16.967488">
        <ele>169.998618</ele>
        <time>2026-05-06T12:17:51.289Z</time>
      </trkpt>
      <trkpt lat="48.081771" lon="16.967928">
        <ele>169.064609</ele>
        <time>2026-05-06T12:17:56.681Z</time>
      </trkpt>
      <trkpt lat="48.082016" lon="16.968507">
        <ele>167.532432</ele>
        <time>2026-05-06T12:18:04.133Z</time>
      </trkpt>
      <trkpt lat="48.082277" lon="16.968928">
        <ele>166.248461</ele>
        <time>2026-05-06T12:18:10.221Z</time>
      </trkpt>
      <trkpt lat="48.083209" lon="16.970092">
        <ele>162.593034</ele>
        <time>2026-05-06T12:18:29.436Z</time>
      </trkpt>
      <trkpt lat="48.084215" lon="16.971758">
        <ele>159.365253</ele>
        <time>2026-05-06T12:18:55.383Z</time>
      </trkpt>
      <trkpt lat="48.084234" lon="16.971790">
        <ele>159.375506</ele>
        <time>2026-05-06T12:18:55.945Z</time>
      </trkpt>
      <trkpt lat="48.084288" lon="16.971893">
        <ele>159.406861</ele>
        <time>2026-05-06T12:18:57.704Z</time>
      </trkpt>
      <trkpt lat="48.085154" lon="16.973816">
        <ele>160.055860</ele>
        <time>2026-05-06T12:19:37.501Z</time>
      </trkpt>
      <trkpt lat="48.085358" lon="16.974349">
        <ele>160.909488</ele>
        <time>2026-05-06T12:19:49.727Z</time>
      </trkpt>
      <trkpt lat="48.085487" lon="16.974687">
        <ele>161.450434</ele>
        <time>2026-05-06T12:19:57.565Z</time>
      </trkpt>
      <trkpt lat="48.086002" lon="16.976361">
        <ele>164.001890</ele>
        <time>2026-05-06T12:20:37.094Z</time>
      </trkpt>
      <trkpt lat="48.086048" lon="16.976331">
        <ele>164.103204</ele>
        <time>2026-05-06T12:20:38.717Z</time>
      </trkpt>
      <trkpt lat="48.086086" lon="16.976307">
        <ele>164.186483</ele>
        <time>2026-05-06T12:20:40.031Z</time>
      </trkpt>
      <trkpt lat="48.086227" lon="16.976305">
        <ele>164.471200</ele>
        <time>2026-05-06T12:20:44.511Z</time>
      </trkpt>
      <trkpt lat="48.086297" lon="16.976422">
        <ele>164.683055</ele>
        <time>2026-05-06T12:20:49.354Z</time>
      </trkpt>
      <trkpt lat="48.086586" lon="16.977302">
        <ele>166.005712</ele>
        <time>2026-05-06T12:21:18.987Z</time>
      </trkpt>
      <trkpt lat="48.086612" lon="16.977476">
        <ele>166.246208</ele>
        <time>2026-05-06T12:21:24.210Z</time>
      </trkpt>
      <trkpt lat="48.086629" lon="16.978154">
        <ele>167.161355</ele>
        <time>2026-05-06T12:21:43.662Z</time>
      </trkpt>
      <trkpt lat="48.086716" lon="16.978512">
        <ele>167.743925</ele>
        <time>2026-05-06T12:21:54.950Z</time>
      </trkpt>
      <trkpt lat="48.086793" lon="16.978591">
        <ele>167.968487</ele>
        <time>2026-05-06T12:21:59.164Z</time>
      </trkpt>
      <trkpt lat="48.086833" lon="16.978679">
        <ele>168.139534</ele>
        <time>2026-05-06T12:22:02.368Z</time>
      </trkpt>
      <trkpt lat="48.086816" lon="16.979284">
        <ele>169.112613</ele>
        <time>2026-05-06T12:22:20.785Z</time>
      </trkpt>
      <trkpt lat="48.086881" lon="16.979383">
        <ele>169.335683</ele>
        <time>2026-05-06T12:22:23.706Z</time>
      </trkpt>
      <trkpt lat="48.087034" lon="16.979619">
        <ele>169.864168</ele>
        <time>2026-05-06T12:22:30.686Z</time>
      </trkpt>
      <trkpt lat="48.087095" lon="16.979789">
        <ele>170.174270</ele>
        <time>2026-05-06T12:22:34.863Z</time>
      </trkpt>
      <trkpt lat="48.087157" lon="16.980178">
        <ele>170.816926</ele>
        <time>2026-05-06T12:22:43.700Z</time>
      </trkpt>
      <trkpt lat="48.087339" lon="16.980963">
        <ele>172.264191</ele>
        <time>2026-05-06T12:23:03.144Z</time>
      </trkpt>
      <trkpt lat="48.087380" lon="16.981275">
        <ele>172.887536</ele>
        <time>2026-05-06T12:23:10.488Z</time>
      </trkpt>
      <trkpt lat="48.087418" lon="16.981941">
        <ele>174.197867</ele>
        <time>2026-05-06T12:23:25.347Z</time>
      </trkpt>
      <trkpt lat="48.087592" lon="16.982858">
        <ele>176.066600</ele>
        <time>2026-05-06T12:23:46.947Z</time>
      </trkpt>
      <trkpt lat="48.087603" lon="16.983106">
        <ele>176.553829</ele>
        <time>2026-05-06T12:23:52.659Z</time>
      </trkpt>
      <trkpt lat="48.087783" lon="16.983773">
        <ele>178.233919</ele>
        <time>2026-05-06T12:24:09.132Z</time>
      </trkpt>
      <trkpt lat="48.087845" lon="16.984459">
        <ele>179.942195</ele>
        <time>2026-05-06T12:24:24.918Z</time>
      </trkpt>
      <trkpt lat="48.087850" lon="16.984631">
        <ele>180.367043</ele>
        <time>2026-05-06T12:24:29.130Z</time>
      </trkpt>
      <trkpt lat="48.087721" lon="16.985434">
        <ele>182.405116</ele>
        <time>2026-05-06T12:24:50.803Z</time>
      </trkpt>
      <trkpt lat="48.087692" lon="16.985518">
        <ele>182.638453</ele>
        <time>2026-05-06T12:24:54.298Z</time>
      </trkpt>
      <trkpt lat="48.087653" lon="16.985631">
        <ele>182.952326</ele>
        <time>2026-05-06T12:24:57.668Z</time>
      </trkpt>
      <trkpt lat="48.087844" lon="16.986370">
        <ele>184.798447</ele>
        <time>2026-05-06T12:25:19.023Z</time>
      </trkpt>
      <trkpt lat="48.087923" lon="16.986502">
        <ele>185.200186</ele>
        <time>2026-05-06T12:25:23.777Z</time>
      </trkpt>
      <trkpt lat="48.088340" lon="16.986947">
        <ele>186.937952</ele>
        <time>2026-05-06T12:25:44.432Z</time>
      </trkpt>
      <trkpt lat="48.088543" lon="16.987112">
        <ele>187.721796</ele>
        <time>2026-05-06T12:25:53.436Z</time>
      </trkpt>
      <trkpt lat="48.089228" lon="16.987458">
        <ele>189.551457</ele>
        <time>2026-05-06T12:26:15.261Z</time>
      </trkpt>
      <trkpt lat="48.089421" lon="16.987555">
        <ele>189.390222</ele>
        <time>2026-05-06T12:26:20.184Z</time>
      </trkpt>
      <trkpt lat="48.089402" lon="16.987653">
        <ele>189.336239</ele>
        <time>2026-05-06T12:26:21.674Z</time>
      </trkpt>
      <trkpt lat="48.091592" lon="16.988494">
        <ele>186.422299</ele>
        <time>2026-05-06T12:27:02.587Z</time>
      </trkpt>
      <trkpt lat="48.094181" lon="16.989439">
        <ele>180.491709</ele>
        <time>2026-05-06T12:27:47.913Z</time>
      </trkpt>
      <trkpt lat="48.094565" lon="16.989662">
        <ele>180.214077</ele>
        <time>2026-05-06T12:27:55.472Z</time>
      </trkpt>
      <trkpt lat="48.094850" lon="16.989686">
        <ele>180.085400</ele>
        <time>2026-05-06T12:28:01.046Z</time>
      </trkpt>
      <trkpt lat="48.095122" lon="16.989786">
        <ele>179.959143</ele>
        <time>2026-05-06T12:28:06.872Z</time>
      </trkpt>
      <trkpt lat="48.095206" lon="16.989821">
        <ele>179.919838</ele>
        <time>2026-05-06T12:28:08.791Z</time>
      </trkpt>
      <trkpt lat="48.095318" lon="16.989900">
        <ele>179.864028</ele>
        <time>2026-05-06T12:28:11.589Z</time>
      </trkpt>
      <trkpt lat="48.095926" lon="16.990482">
        <ele>179.569216</ele>
        <time>2026-05-06T12:28:29.240Z</time>
      </trkpt>
      <trkpt lat="48.096110" lon="16.990625">
        <ele>179.577835</ele>
        <time>2026-05-06T12:28:34.310Z</time>
      </trkpt>
      <trkpt lat="48.096454" lon="16.990815">
        <ele>179.593079</ele>
        <time>2026-05-06T12:28:43.098Z</time>
      </trkpt>
      <trkpt lat="48.096623" lon="16.990912">
        <ele>179.600603</ele>
        <time>2026-05-06T12:28:47.383Z</time>
      </trkpt>
      <trkpt lat="48.096734" lon="16.991035">
        <ele>179.606344</ele>
        <time>2026-05-06T12:28:50.554Z</time>
      </trkpt>
      <trkpt lat="48.096812" lon="16.991167">
        <ele>179.611238</ele>
        <time>2026-05-06T12:28:53.212Z</time>
      </trkpt>
      <trkpt lat="48.097083" lon="16.991786">
        <ele>179.631789</ele>
        <time>2026-05-06T12:29:04.019Z</time>
      </trkpt>
      <trkpt lat="48.097153" lon="16.992117">
        <ele>179.641098</ele>
        <time>2026-05-06T12:29:08.778Z</time>
      </trkpt>
      <trkpt lat="48.097163" lon="16.992195">
        <ele>179.574271</ele>
        <time>2026-05-06T12:29:09.837Z</time>
      </trkpt>
      <trkpt lat="48.097163" lon="16.992659">
        <ele>179.183863</ele>
        <time>2026-05-06T12:29:15.789Z</time>
      </trkpt>
      <trkpt lat="48.097159" lon="16.992956">
        <ele>178.933918</ele>
        <time>2026-05-06T12:29:19.512Z</time>
      </trkpt>
      <trkpt lat="48.097081" lon="16.993580">
        <ele>178.399770</ele>
        <time>2026-05-06T12:29:27.521Z</time>
      </trkpt>
      <trkpt lat="48.096983" lon="16.993892">
        <ele>178.109671</ele>
        <time>2026-05-06T12:29:31.812Z</time>
      </trkpt>
      <trkpt lat="48.096196" lon="16.995485">
        <ele>176.268989</ele>
        <time>2026-05-06T12:29:55.579Z</time>
      </trkpt>
      <trkpt lat="48.096042" lon="16.995634">
        <ele>175.995045</ele>
        <time>2026-05-06T12:29:58.923Z</time>
      </trkpt>
      <trkpt lat="48.096004" lon="16.995623">
        <ele>175.937220</ele>
        <time>2026-05-06T12:29:59.627Z</time>
      </trkpt>
      <trkpt lat="48.095943" lon="16.995645">
        <ele>175.843475</ele>
        <time>2026-05-06T12:30:00.785Z</time>
      </trkpt>
      <trkpt lat="48.095898" lon="16.995711">
        <ele>175.749361</ele>
        <time>2026-05-06T12:30:01.943Z</time>
      </trkpt>
      <trkpt lat="48.095882" lon="16.995822">
        <ele>175.636048</ele>
        <time>2026-05-06T12:30:03.351Z</time>
      </trkpt>
      <trkpt lat="48.095903" lon="16.995903">
        <ele>175.549345</ele>
        <time>2026-05-06T12:30:04.413Z</time>
      </trkpt>
      <trkpt lat="48.095865" lon="16.996198">
        <ele>175.249551</ele>
        <time>2026-05-06T12:30:08.147Z</time>
      </trkpt>
      <trkpt lat="48.095391" lon="16.997132">
        <ele>174.096137</ele>
        <time>2026-05-06T12:30:23.035Z</time>
      </trkpt>
      <trkpt lat="48.095081" lon="16.997684">
        <ele>173.396699</ele>
        <time>2026-05-06T12:30:32.025Z</time>
      </trkpt>
      <trkpt lat="48.094776" lon="16.998202">
        <ele>172.726986</ele>
        <time>2026-05-06T12:30:40.475Z</time>
      </trkpt>
      <trkpt lat="48.094448" lon="16.998777">
        <ele>171.977106</ele>
        <time>2026-05-06T12:30:49.561Z</time>
      </trkpt>
      <trkpt lat="48.094236" lon="16.999131">
        <ele>171.423986</ele>
        <time>2026-05-06T12:30:55.205Z</time>
      </trkpt>
      <trkpt lat="48.093333" lon="17.000682">
        <ele>169.030378</ele>
        <time>2026-05-06T12:31:19.798Z</time>
      </trkpt>
      <trkpt lat="48.092920" lon="17.001603">
        <ele>167.625298</ele>
        <time>2026-05-06T12:31:33.292Z</time>
      </trkpt>
      <trkpt lat="48.092779" lon="17.001881">
        <ele>167.180564</ele>
        <time>2026-05-06T12:31:37.516Z</time>
      </trkpt>
      <trkpt lat="48.092751" lon="17.001891">
        <ele>167.125655</ele>
        <time>2026-05-06T12:31:38.017Z</time>
      </trkpt>
      <trkpt lat="48.092685" lon="17.001964">
        <ele>166.969131</ele>
        <time>2026-05-06T12:31:39.501Z</time>
      </trkpt>
      <trkpt lat="48.092662" lon="17.002046">
        <ele>166.855819</ele>
        <time>2026-05-06T12:31:40.567Z</time>
      </trkpt>
      <trkpt lat="48.092675" lon="17.002177">
        <ele>166.687084</ele>
        <time>2026-05-06T12:31:42.155Z</time>
      </trkpt>
      <trkpt lat="48.092611" lon="17.002570">
        <ele>166.171706</ele>
        <time>2026-05-06T12:31:46.933Z</time>
      </trkpt>
      <trkpt lat="48.092140" lon="17.004384">
        <ele>163.068942</ele>
        <time>2026-05-06T12:32:09.041Z</time>
      </trkpt>
      <trkpt lat="48.091656" lon="17.006258">
        <ele>160.111657</ele>
        <time>2026-05-06T12:32:31.418Z</time>
      </trkpt>
      <trkpt lat="48.091434" lon="17.007107">
        <ele>159.138020</ele>
        <time>2026-05-06T12:32:42.233Z</time>
      </trkpt>
      <trkpt lat="48.089768" lon="17.013114">
        <ele>156.319444</ele>
        <time>2026-05-06T12:34:12.568Z</time>
      </trkpt>
      <trkpt lat="48.088534" lon="17.018124">
        <ele>152.204925</ele>
        <time>2026-05-06T12:35:20.243Z</time>
      </trkpt>
      <trkpt lat="48.088494" lon="17.018289">
        <ele>151.980288</ele>
        <time>2026-05-06T12:35:22.354Z</time>
      </trkpt>
      <trkpt lat="48.087890" lon="17.020887">
        <ele>148.523269</ele>
        <time>2026-05-06T12:35:54.455Z</time>
      </trkpt>
      <trkpt lat="48.087773" lon="17.021418">
        <ele>147.938507</ele>
        <time>2026-05-06T12:36:01.073Z</time>
      </trkpt>
      <trkpt lat="48.087609" lon="17.022153">
        <ele>147.128076</ele>
        <time>2026-05-06T12:36:10.455Z</time>
      </trkpt>
      <trkpt lat="48.087122" lon="17.024303">
        <ele>145.093610</ele>
        <time>2026-05-06T12:36:39.250Z</time>
      </trkpt>
      <trkpt lat="48.086461" lon="17.026470">
        <ele>143.159757</ele>
        <time>2026-05-06T12:37:09.530Z</time>
      </trkpt>
      <trkpt lat="48.086346" lon="17.026931">
        <ele>142.714952</ele>
        <time>2026-05-06T12:37:15.643Z</time>
      </trkpt>
      <trkpt lat="48.085752" lon="17.029792">
        <ele>140.115403</ele>
        <time>2026-05-06T12:37:52.447Z</time>
      </trkpt>
      <trkpt lat="48.084891" lon="17.033346">
        <ele>137.650247</ele>
        <time>2026-05-06T12:38:41.533Z</time>
      </trkpt>
      <trkpt lat="48.084432" lon="17.035352">
        <ele>137.248942</ele>
        <time>2026-05-06T12:39:11.287Z</time>
      </trkpt>
      <trkpt lat="48.084348" lon="17.035544">
        <ele>137.205506</ele>
        <time>2026-05-06T12:39:14.719Z</time>
      </trkpt>
      <trkpt lat="48.084233" lon="17.035663">
        <ele>137.165899</ele>
        <time>2026-05-06T12:39:17.894Z</time>
      </trkpt>
      <trkpt lat="48.084064" lon="17.035713">
        <ele>137.208274</ele>
        <time>2026-05-06T12:39:21.867Z</time>
      </trkpt>
      <trkpt lat="48.083931" lon="17.035686">
        <ele>137.267597</ele>
        <time>2026-05-06T12:39:25.023Z</time>
      </trkpt>
      <trkpt lat="48.083969" lon="17.035881">
        <ele>137.327575</ele>
        <time>2026-05-06T12:39:28.271Z</time>
      </trkpt>
      <trkpt lat="48.084134" lon="17.036846">
        <ele>137.621695</ele>
        <time>2026-05-06T12:39:44.709Z</time>
      </trkpt>
      <trkpt lat="48.084044" lon="17.036908">
        <ele>137.665485</ele>
        <time>2026-05-06T12:39:47.154Z</time>
      </trkpt>
      <trkpt lat="48.083773" lon="17.037869">
        <ele>137.927193</ele>
        <time>2026-05-06T12:40:04.573Z</time>
      </trkpt>
      <trkpt lat="48.083461" lon="17.038692">
        <ele>137.704982</ele>
        <time>2026-05-06T12:40:18.865Z</time>
      </trkpt>
      <trkpt lat="48.083203" lon="17.039278">
        <ele>137.540177</ele>
        <time>2026-05-06T12:40:28.510Z</time>
      </trkpt>
      <trkpt lat="48.081770" lon="17.042805">
        <ele>135.697071</ele>
        <time>2026-05-06T12:41:22.111Z</time>
      </trkpt>
      <trkpt lat="48.081672" lon="17.043091">
        <ele>135.661243</ele>
        <time>2026-05-06T12:41:26.774Z</time>
      </trkpt>
      <trkpt lat="48.081685" lon="17.043325">
        <ele>135.635070</ele>
        <time>2026-05-06T12:41:30.227Z</time>
      </trkpt>
      <trkpt lat="48.081389" lon="17.044053">
        <ele>135.540075</ele>
        <time>2026-05-06T12:41:43.173Z</time>
      </trkpt>
      <trkpt lat="48.081020" lon="17.044991">
        <ele>135.450076</ele>
        <time>2026-05-06T12:41:59.913Z</time>
      </trkpt>
      <trkpt lat="48.080861" lon="17.045580">
        <ele>135.449491</ele>
        <time>2026-05-06T12:42:09.198Z</time>
      </trkpt>
      <trkpt lat="48.080480" lon="17.046567">
        <ele>135.448442</ele>
        <time>2026-05-06T12:42:25.668Z</time>
      </trkpt>
      <trkpt lat="48.076628" lon="17.055974">
        <ele>135.938468</ele>
        <time>2026-05-06T12:45:12.074Z</time>
      </trkpt>
      <trkpt lat="48.076219" lon="17.057077">
        <ele>135.911912</ele>
        <time>2026-05-06T12:45:30.629Z</time>
      </trkpt>
      <trkpt lat="48.075330" lon="17.059610">
        <ele>135.701868</ele>
        <time>2026-05-06T12:46:12.656Z</time>
      </trkpt>
      <trkpt lat="48.075342" lon="17.059857">
        <ele>135.670202</ele>
        <time>2026-05-06T12:46:16.200Z</time>
      </trkpt>
      <trkpt lat="48.075414" lon="17.060015">
        <ele>135.645747</ele>
        <time>2026-05-06T12:46:18.932Z</time>
      </trkpt>
      <trkpt lat="48.075540" lon="17.060099">
        <ele>135.619350</ele>
        <time>2026-05-06T12:46:21.857Z</time>
      </trkpt>
      <trkpt lat="48.075732" lon="17.060101">
        <ele>135.582606</ele>
        <time>2026-05-06T12:46:25.904Z</time>
      </trkpt>
      <trkpt lat="48.075765" lon="17.060138">
        <ele>135.574715</ele>
        <time>2026-05-06T12:46:26.769Z</time>
      </trkpt>
      <trkpt lat="48.075781" lon="17.060325">
        <ele>135.550609</ele>
        <time>2026-05-06T12:46:29.415Z</time>
      </trkpt>
      <trkpt lat="48.075716" lon="17.060477">
        <ele>135.527533</ele>
        <time>2026-05-06T12:46:31.946Z</time>
      </trkpt>
      <trkpt lat="48.077809" lon="17.062553">
        <ele>134.777170</ele>
        <time>2026-05-06T12:47:24.099Z</time>
      </trkpt>
      <trkpt lat="48.080469" lon="17.065142">
        <ele>135.417579</ele>
        <time>2026-05-06T12:48:38.084Z</time>
      </trkpt>
      <trkpt lat="48.081137" lon="17.065786">
        <ele>135.838040</ele>
        <time>2026-05-06T12:48:57.883Z</time>
      </trkpt>
      <trkpt lat="48.081412" lon="17.066053">
        <ele>136.011494</ele>
        <time>2026-05-06T12:49:06.106Z</time>
      </trkpt>
      <trkpt lat="48.081796" lon="17.066426">
        <ele>136.253732</ele>
        <time>2026-05-06T12:49:17.541Z</time>
      </trkpt>
      <trkpt lat="48.082787" lon="17.067409">
        <ele>136.345231</ele>
        <time>2026-05-06T12:49:44.297Z</time>
      </trkpt>
      <trkpt lat="48.082961" lon="17.067617">
        <ele>136.352222</ele>
        <time>2026-05-06T12:49:48.985Z</time>
      </trkpt>
      <trkpt lat="48.083176" lon="17.067984">
        <ele>136.362460</ele>
        <time>2026-05-06T12:49:56.006Z</time>
      </trkpt>
      <trkpt lat="48.083360" lon="17.068307">
        <ele>136.381147</ele>
        <time>2026-05-06T12:50:02.213Z</time>
      </trkpt>
      <trkpt lat="48.083399" lon="17.068392">
        <ele>136.389238</ele>
        <time>2026-05-06T12:50:03.732Z</time>
      </trkpt>
      <trkpt lat="48.083843" lon="17.068214">
        <ele>136.443219</ele>
        <time>2026-05-06T12:50:13.854Z</time>
      </trkpt>
      <trkpt lat="48.084305" lon="17.068055">
        <ele>136.498892</ele>
        <time>2026-05-06T12:50:24.585Z</time>
      </trkpt>
      <trkpt lat="48.084984" lon="17.067854">
        <ele>136.581150</ele>
        <time>2026-05-06T12:50:41.149Z</time>
      </trkpt>
      <trkpt lat="48.085273" lon="17.067821">
        <ele>136.643898</ele>
        <time>2026-05-06T12:50:47.698Z</time>
      </trkpt>
      <trkpt lat="48.085598" lon="17.067827">
        <ele>136.714263</ele>
        <time>2026-05-06T12:50:54.790Z</time>
      </trkpt>
      <trkpt lat="48.085928" lon="17.067834">
        <ele>136.785712</ele>
        <time>2026-05-06T12:51:02.080Z</time>
      </trkpt>
      <trkpt lat="48.086471" lon="17.067771">
        <ele>136.903620</ele>
        <time>2026-05-06T12:51:15.010Z</time>
      </trkpt>
      <trkpt lat="48.086764" lon="17.067702">
        <ele>136.967832</ele>
        <time>2026-05-06T12:51:22.121Z</time>
      </trkpt>
      <trkpt lat="48.086863" lon="17.067669">
        <ele>137.006942</ele>
        <time>2026-05-06T12:51:24.568Z</time>
      </trkpt>
      <trkpt lat="48.087279" lon="17.067531">
        <ele>137.173220</ele>
        <time>2026-05-06T12:51:34.809Z</time>
      </trkpt>
      <trkpt lat="48.087786" lon="17.067398">
        <ele>137.374088</ele>
        <time>2026-05-06T12:51:47.322Z</time>
      </trkpt>
      <trkpt lat="48.087924" lon="17.067187">
        <ele>137.451065</ele>
        <time>2026-05-06T12:51:52.178Z</time>
      </trkpt>
      <trkpt lat="48.089234" lon="17.066632">
        <ele>137.811345</ele>
        <time>2026-05-06T12:52:23.332Z</time>
      </trkpt>
      <trkpt lat="48.089347" lon="17.066583">
        <ele>137.832094</ele>
        <time>2026-05-06T12:52:26.042Z</time>
      </trkpt>
      <trkpt lat="48.091140" lon="17.065736">
        <ele>138.098746</ele>
        <time>2026-05-06T12:53:09.286Z</time>
      </trkpt>
      <trkpt lat="48.091187" lon="17.065708">
        <ele>138.104378</ele>
        <time>2026-05-06T12:53:10.486Z</time>
      </trkpt>
      <trkpt lat="48.091327" lon="17.065986">
        <ele>138.130271</ele>
        <time>2026-05-06T12:53:15.966Z</time>
      </trkpt>
      <trkpt lat="48.091439" lon="17.066255">
        <ele>138.153845</ele>
        <time>2026-05-06T12:53:20.859Z</time>
      </trkpt>
      <trkpt lat="48.091599" lon="17.066641">
        <ele>138.187631</ele>
        <time>2026-05-06T12:53:27.571Z</time>
      </trkpt>
      <trkpt lat="48.091752" lon="17.067048">
        <ele>137.933596</ele>
        <time>2026-05-06T12:53:34.255Z</time>
      </trkpt>
      <trkpt lat="48.091824" lon="17.067377">
        <ele>137.744173</ele>
        <time>2026-05-06T12:53:39.005Z</time>
      </trkpt>
      <trkpt lat="48.091831" lon="17.067438">
        <ele>137.710309</ele>
        <time>2026-05-06T12:53:39.855Z</time>
      </trkpt>
      <trkpt lat="48.091977" lon="17.068417">
        <ele>137.161477</ele>
        <time>2026-05-06T12:53:52.648Z</time>
      </trkpt>
      <trkpt lat="48.092005" lon="17.068575">
        <ele>137.072040</ele>
        <time>2026-05-06T12:53:54.722Z</time>
      </trkpt>
      <trkpt lat="48.092065" lon="17.068879">
        <ele>136.898602</ele>
        <time>2026-05-06T12:53:58.644Z</time>
      </trkpt>
      <trkpt lat="48.092172" lon="17.069358">
        <ele>136.626131</ele>
        <time>2026-05-06T12:54:04.924Z</time>
      </trkpt>
      <trkpt lat="48.092335" lon="17.069876">
        <ele>136.325998</ele>
        <time>2026-05-06T12:54:12.260Z</time>
      </trkpt>
      <trkpt lat="48.092552" lon="17.070448">
        <ele>135.981199</ele>
        <time>2026-05-06T12:54:20.833Z</time>
      </trkpt>
      <trkpt lat="48.092834" lon="17.071106">
        <ele>135.571417</ele>
        <time>2026-05-06T12:54:31.430Z</time>
      </trkpt>
      <trkpt lat="48.093129" lon="17.071871">
        <ele>135.311555</ele>
        <time>2026-05-06T12:54:43.596Z</time>
      </trkpt>
      <trkpt lat="48.093704" lon="17.073203">
        <ele>135.348062</ele>
        <time>2026-05-06T12:55:07.450Z</time>
      </trkpt>
      <trkpt lat="48.094191" lon="17.074291">
        <ele>135.429854</ele>
        <time>2026-05-06T12:55:27.970Z</time>
      </trkpt>
      <trkpt lat="48.094624" lon="17.075142">
        <ele>135.550722</ele>
        <time>2026-05-06T12:55:44.620Z</time>
      </trkpt>
      <trkpt lat="48.095059" lon="17.075873">
        <ele>135.661336</ele>
        <time>2026-05-06T12:55:59.194Z</time>
      </trkpt>
      <trkpt lat="48.095278" lon="17.076180">
        <ele>135.666286</ele>
        <time>2026-05-06T12:56:05.888Z</time>
      </trkpt>
      <trkpt lat="48.096543" lon="17.077442">
        <ele>135.648492</ele>
        <time>2026-05-06T12:56:39.805Z</time>
      </trkpt>
      <trkpt lat="48.097029" lon="17.077915">
        <ele>135.552130</ele>
        <time>2026-05-06T12:56:52.192Z</time>
      </trkpt>
      <trkpt lat="48.097172" lon="17.078073">
        <ele>135.521330</ele>
        <time>2026-05-06T12:56:55.985Z</time>
      </trkpt>
      <trkpt lat="48.097459" lon="17.078352">
        <ele>135.462028</ele>
        <time>2026-05-06T12:57:03.220Z</time>
      </trkpt>
      <trkpt lat="48.100244" lon="17.081088">
        <ele>135.312704</ele>
        <time>2026-05-06T12:58:16.197Z</time>
      </trkpt>
      <trkpt lat="48.101715" lon="17.082669">
        <ele>135.806883</ele>
        <time>2026-05-06T12:58:59.057Z</time>
      </trkpt>
      <trkpt lat="48.102463" lon="17.083300">
        <ele>136.146053</ele>
        <time>2026-05-06T12:59:19.551Z</time>
      </trkpt>
      <trkpt lat="48.102969" lon="17.083706">
        <ele>136.301507</ele>
        <time>2026-05-06T12:59:33.458Z</time>
      </trkpt>
      <trkpt lat="48.103002" lon="17.083734">
        <ele>136.310529</ele>
        <time>2026-05-06T12:59:34.387Z</time>
      </trkpt>
      <trkpt lat="48.103242" lon="17.083941">
        <ele>136.376413</ele>
        <time>2026-05-06T12:59:41.147Z</time>
      </trkpt>
      <trkpt lat="48.104261" lon="17.084788">
        <ele>136.613687</ele>
        <time>2026-05-06T13:00:07.385Z</time>
      </trkpt>
      <trkpt lat="48.104331" lon="17.084942">
        <ele>136.606599</ele>
        <time>2026-05-06T13:00:10.071Z</time>
      </trkpt>
      <trkpt lat="48.104477" lon="17.085066">
        <ele>136.597036</ele>
        <time>2026-05-06T13:00:13.674Z</time>
      </trkpt>
      <trkpt lat="48.104665" lon="17.085220">
        <ele>136.584826</ele>
        <time>2026-05-06T13:00:18.250Z</time>
      </trkpt>
      <trkpt lat="48.104697" lon="17.085282">
        <ele>136.581845</ele>
        <time>2026-05-06T13:00:19.404Z</time>
      </trkpt>
      <trkpt lat="48.104751" lon="17.085372">
        <ele>136.577242</ele>
        <time>2026-05-06T13:00:21.105Z</time>
      </trkpt>
      <trkpt lat="48.105064" lon="17.085630">
        <ele>136.556885</ele>
        <time>2026-05-06T13:00:28.793Z</time>
      </trkpt>
      <trkpt lat="48.105202" lon="17.085649">
        <ele>136.548989</ele>
        <time>2026-05-06T13:00:31.756Z</time>
      </trkpt>
      <trkpt lat="48.107358" lon="17.087446">
        <ele>136.660720</ele>
        <time>2026-05-06T13:01:28.562Z</time>
      </trkpt>
      <trkpt lat="48.108740" lon="17.088614">
        <ele>135.901627</ele>
        <time>2026-05-06T13:02:00.412Z</time>
      </trkpt>
      <trkpt lat="48.108800" lon="17.088575">
        <ele>135.870339</ele>
        <time>2026-05-06T13:02:01.749Z</time>
      </trkpt>
      <trkpt lat="48.108864" lon="17.088536">
        <ele>135.862603</ele>
        <time>2026-05-06T13:02:03.173Z</time>
      </trkpt>
      <trkpt lat="48.108997" lon="17.088645">
        <ele>135.850109</ele>
        <time>2026-05-06T13:02:06.320Z</time>
      </trkpt>
      <trkpt lat="48.109492" lon="17.089059">
        <ele>135.803388</ele>
        <time>2026-05-06T13:02:18.405Z</time>
      </trkpt>
      <trkpt lat="48.109812" lon="17.089314">
        <ele>135.773517</ele>
        <time>2026-05-06T13:02:26.451Z</time>
      </trkpt>
      <trkpt lat="48.111284" lon="17.090530">
        <ele>135.952851</ele>
        <time>2026-05-06T13:03:05.200Z</time>
      </trkpt>
      <trkpt lat="48.111619" lon="17.090805">
        <ele>136.039561</ele>
        <time>2026-05-06T13:03:14.215Z</time>
      </trkpt>
      <trkpt lat="48.111747" lon="17.090912">
        <ele>136.072834</ele>
        <time>2026-05-06T13:03:17.683Z</time>
      </trkpt>
      <trkpt lat="48.112224" lon="17.091305">
        <ele>136.196721</ele>
        <time>2026-05-06T13:03:30.376Z</time>
      </trkpt>
      <trkpt lat="48.112319" lon="17.091332">
        <ele>136.218771</ele>
        <time>2026-05-06T13:03:32.663Z</time>
      </trkpt>
      <trkpt lat="48.112376" lon="17.091384">
        <ele>136.233990</ele>
        <time>2026-05-06T13:03:34.238Z</time>
      </trkpt>
      <trkpt lat="48.112540" lon="17.091584">
        <ele>136.282217</ele>
        <time>2026-05-06T13:03:39.227Z</time>
      </trkpt>
      <trkpt lat="48.112820" lon="17.091792">
        <ele>136.353488</ele>
        <time>2026-05-06T13:03:46.180Z</time>
      </trkpt>
      <trkpt lat="48.113117" lon="17.092058">
        <ele>136.432399</ele>
        <time>2026-05-06T13:03:53.946Z</time>
      </trkpt>
      <trkpt lat="48.113513" lon="17.092384">
        <ele>136.535442</ele>
        <time>2026-05-06T13:04:04.391Z</time>
      </trkpt>
      <trkpt lat="48.113710" lon="17.092517">
        <ele>136.585088</ele>
        <time>2026-05-06T13:04:09.487Z</time>
      </trkpt>
      <trkpt lat="48.113977" lon="17.092721">
        <ele>136.653979</ele>
        <time>2026-05-06T13:04:30.335Z</time>
      </trkpt>
      <trkpt lat="48.114369" lon="17.093053">
        <ele>136.757484</ele>
        <time>2026-05-06T13:04:41.345Z</time>
      </trkpt>
      <trkpt lat="48.114426" lon="17.093097">
        <ele>136.772222</ele>
        <time>2026-05-06T13:04:42.883Z</time>
      </trkpt>
      <trkpt lat="48.114398" lon="17.093189">
        <ele>136.787738</ele>
        <time>2026-05-06T13:04:44.390Z</time>
      </trkpt>
      <trkpt lat="48.114375" lon="17.093259">
        <ele>136.799710</ele>
        <time>2026-05-06T13:04:45.591Z</time>
      </trkpt>
      <trkpt lat="48.114897" lon="17.093703">
        <ele>136.937683</ele>
        <time>2026-05-06T13:05:03.237Z</time>
      </trkpt>
      <trkpt lat="48.115169" lon="17.093984">
        <ele>136.891090</ele>
        <time>2026-05-06T13:05:12.894Z</time>
      </trkpt>
      <trkpt lat="48.115388" lon="17.094157">
        <ele>136.835830</ele>
        <time>2026-05-06T13:05:19.884Z</time>
      </trkpt>
      <trkpt lat="48.115953" lon="17.094498">
        <ele>136.699874</ele>
        <time>2026-05-06T13:05:36.633Z</time>
      </trkpt>
      <trkpt lat="48.116047" lon="17.094516">
        <ele>136.678723</ele>
        <time>2026-05-06T13:05:39.234Z</time>
      </trkpt>
      <trkpt lat="48.116884" lon="17.094975">
        <ele>136.629897</ele>
        <time>2026-05-06T13:06:04.810Z</time>
      </trkpt>
      <trkpt lat="48.117504" lon="17.095320">
        <ele>136.797795</ele>
        <time>2026-05-06T13:06:25.570Z</time>
      </trkpt>
      <trkpt lat="48.117722" lon="17.095441">
        <ele>136.856812</ele>
        <time>2026-05-06T13:06:32.770Z</time>
      </trkpt>
      <trkpt lat="48.118211" lon="17.095713">
        <ele>136.989228</ele>
        <time>2026-05-06T13:06:48.315Z</time>
      </trkpt>
      <trkpt lat="48.118268" lon="17.095749">
        <ele>137.004931</ele>
        <time>2026-05-06T13:06:50.111Z</time>
      </trkpt>
      <trkpt lat="48.118508" lon="17.095895">
        <ele>137.140407</ele>
        <time>2026-05-06T13:06:57.851Z</time>
      </trkpt>
      <trkpt lat="48.118623" lon="17.095960">
        <ele>137.205556</ele>
        <time>2026-05-06T13:07:01.606Z</time>
      </trkpt>
      <trkpt lat="48.118893" lon="17.096093">
        <ele>137.356204</ele>
        <time>2026-05-06T13:07:10.529Z</time>
      </trkpt>
      <trkpt lat="48.119277" lon="17.096359">
        <ele>137.580447</ele>
        <time>2026-05-06T13:07:23.907Z</time>
      </trkpt>
      <trkpt lat="48.119397" lon="17.096453">
        <ele>137.652223</ele>
        <time>2026-05-06T13:07:28.172Z</time>
      </trkpt>
      <trkpt lat="48.120953" lon="17.097754">
        <ele>138.401461</ele>
        <time>2026-05-06T13:08:26.000Z</time>
      </trkpt>
      <trkpt lat="48.121112" lon="17.097949">
        <ele>138.476979</ele>
        <time>2026-05-06T13:08:32.231Z</time>
      </trkpt>
      <trkpt lat="48.121178" lon="17.098036">
        <ele>138.509287</ele>
        <time>2026-05-06T13:08:34.904Z</time>
      </trkpt>
      <trkpt lat="48.121262" lon="17.098107">
        <ele>138.544732</ele>
        <time>2026-05-06T13:08:37.654Z</time>
      </trkpt>
      <trkpt lat="48.121311" lon="17.098051">
        <ele>138.567382</ele>
        <time>2026-05-06T13:08:39.461Z</time>
      </trkpt>
      <trkpt lat="48.121754" lon="17.098410">
        <ele>138.366074</ele>
        <time>2026-05-06T13:08:52.626Z</time>
      </trkpt>
      <trkpt lat="48.121785" lon="17.098432">
        <ele>138.341647</ele>
        <time>2026-05-06T13:08:53.448Z</time>
      </trkpt>
      <trkpt lat="48.122127" lon="17.098723">
        <ele>138.061560</ele>
        <time>2026-05-06T13:09:03.401Z</time>
      </trkpt>
      <trkpt lat="48.122157" lon="17.098760">
        <ele>138.033888</ele>
        <time>2026-05-06T13:09:04.512Z</time>
      </trkpt>
      <trkpt lat="48.122201" lon="17.098760">
        <ele>138.002555</ele>
        <time>2026-05-06T13:09:05.403Z</time>
      </trkpt>
      <trkpt lat="48.122241" lon="17.098765">
        <ele>137.973972</ele>
        <time>2026-05-06T13:09:06.274Z</time>
      </trkpt>
      <trkpt lat="48.122458" lon="17.098951">
        <ele>137.795936</ele>
        <time>2026-05-06T13:09:13.257Z</time>
      </trkpt>
      <trkpt lat="48.122538" lon="17.099015">
        <ele>137.731352</ele>
        <time>2026-05-06T13:09:15.713Z</time>
      </trkpt>
      <trkpt lat="48.122568" lon="17.099085">
        <ele>137.691809</ele>
        <time>2026-05-06T13:09:17.205Z</time>
      </trkpt>
      <trkpt lat="48.122625" lon="17.099099">
        <ele>137.650677</ele>
        <time>2026-05-06T13:09:21.209Z</time>
      </trkpt>
      <trkpt lat="48.122716" lon="17.099118">
        <ele>137.585249</ele>
        <time>2026-05-06T13:09:27.614Z</time>
      </trkpt>
      <trkpt lat="48.122770" lon="17.099126">
        <ele>137.546607</ele>
        <time>2026-05-06T13:09:28.698Z</time>
      </trkpt>
      <trkpt lat="48.123620" lon="17.099211">
        <ele>137.524960</ele>
        <time>2026-05-06T13:09:46.594Z</time>
      </trkpt>
      <trkpt lat="48.123782" lon="17.099221">
        <ele>137.578297</ele>
        <time>2026-05-06T13:09:50.609Z</time>
      </trkpt>
      <trkpt lat="48.124026" lon="17.099242">
        <ele>137.658696</ele>
        <time>2026-05-06T13:09:56.944Z</time>
      </trkpt>
      <trkpt lat="48.124293" lon="17.099266">
        <ele>137.746686</ele>
        <time>2026-05-06T13:10:03.811Z</time>
      </trkpt>
      <trkpt lat="48.124423" lon="17.099282">
        <ele>137.789595</ele>
        <time>2026-05-06T13:10:07.310Z</time>
      </trkpt>
      <trkpt lat="48.124535" lon="17.099297">
        <ele>137.826586</ele>
        <time>2026-05-06T13:10:10.598Z</time>
      </trkpt>
      <trkpt lat="48.124562" lon="17.099301">
        <ele>137.835511</ele>
        <time>2026-05-06T13:10:11.441Z</time>
      </trkpt>
      <trkpt lat="48.124577" lon="17.099301">
        <ele>137.840445</ele>
        <time>2026-05-06T13:10:11.874Z</time>
      </trkpt>
      <trkpt lat="48.124677" lon="17.099311">
        <ele>137.873415</ele>
        <time>2026-05-06T13:10:14.626Z</time>
      </trkpt>
      <trkpt lat="48.124879" lon="17.099326">
        <ele>137.937789</ele>
        <time>2026-05-06T13:10:20.015Z</time>
      </trkpt>
      <trkpt lat="48.125254" lon="17.099354">
        <ele>138.028615</ele>
        <time>2026-05-06T13:10:29.877Z</time>
      </trkpt>
      <trkpt lat="48.125368" lon="17.099360">
        <ele>138.056209</ele>
        <time>2026-05-06T13:10:33.086Z</time>
      </trkpt>
      <trkpt lat="48.125469" lon="17.099368">
        <ele>138.080675</ele>
        <time>2026-05-06T13:10:35.953Z</time>
      </trkpt>
      <trkpt lat="48.125640" lon="17.099385">
        <ele>138.122132</ele>
        <time>2026-05-06T13:10:40.495Z</time>
      </trkpt>
      <trkpt lat="48.126011" lon="17.099420">
        <ele>138.212056</ele>
        <time>2026-05-06T13:10:49.344Z</time>
      </trkpt>
      <trkpt lat="48.126043" lon="17.099422">
        <ele>138.219803</ele>
        <time>2026-05-06T13:10:50.104Z</time>
      </trkpt>
      <trkpt lat="48.126384" lon="17.099454">
        <ele>138.302454</ele>
        <time>2026-05-06T13:10:57.504Z</time>
      </trkpt>
      <trkpt lat="48.126419" lon="17.099457">
        <ele>138.310934</ele>
        <time>2026-05-06T13:10:58.261Z</time>
      </trkpt>
      <trkpt lat="48.126476" lon="17.099463">
        <ele>138.324757</ele>
        <time>2026-05-06T13:10:59.437Z</time>
      </trkpt>
      <trkpt lat="48.126567" lon="17.099471">
        <ele>138.346808</ele>
        <time>2026-05-06T13:11:01.480Z</time>
      </trkpt>
      <trkpt lat="48.126706" lon="17.099484">
        <ele>138.360529</ele>
        <time>2026-05-06T13:11:04.375Z</time>
      </trkpt>
      <trkpt lat="48.126838" lon="17.099496">
        <ele>138.345568</ele>
        <time>2026-05-06T13:11:06.926Z</time>
      </trkpt>
      <trkpt lat="48.126867" lon="17.099499">
        <ele>138.342280</ele>
        <time>2026-05-06T13:11:07.487Z</time>
      </trkpt>
      <trkpt lat="48.127125" lon="17.099523">
        <ele>138.313037</ele>
        <time>2026-05-06T13:11:12.862Z</time>
      </trkpt>
      <trkpt lat="48.127150" lon="17.099525">
        <ele>138.310205</ele>
        <time>2026-05-06T13:11:13.412Z</time>
      </trkpt>
      <trkpt lat="48.127281" lon="17.099537">
        <ele>138.295358</ele>
        <time>2026-05-06T13:11:16.363Z</time>
      </trkpt>
      <trkpt lat="48.127491" lon="17.099557">
        <ele>138.271553</ele>
        <time>2026-05-06T13:11:21.007Z</time>
      </trkpt>
      <trkpt lat="48.127742" lon="17.099585">
        <ele>138.243079</ele>
        <time>2026-05-06T13:11:26.443Z</time>
      </trkpt>
      <trkpt lat="48.127846" lon="17.099601">
        <ele>138.231252</ele>
        <time>2026-05-06T13:11:28.813Z</time>
      </trkpt>
      <trkpt lat="48.127866" lon="17.099604">
        <ele>138.228979</ele>
        <time>2026-05-06T13:11:29.293Z</time>
      </trkpt>
      <trkpt lat="48.128004" lon="17.099627">
        <ele>138.213271</ele>
        <time>2026-05-06T13:11:32.621Z</time>
      </trkpt>
      <trkpt lat="48.128094" lon="17.099633">
        <ele>138.203079</ele>
        <time>2026-05-06T13:11:34.837Z</time>
      </trkpt>
      <trkpt lat="48.128212" lon="17.099636">
        <ele>138.189728</ele>
        <time>2026-05-06T13:11:37.751Z</time>
      </trkpt>
      <trkpt lat="48.128218" lon="17.099636">
        <ele>138.189050</ele>
        <time>2026-05-06T13:11:37.905Z</time>
      </trkpt>
      <trkpt lat="48.128327" lon="17.099639">
        <ele>138.176717</ele>
        <time>2026-05-06T13:11:40.628Z</time>
      </trkpt>
      <trkpt lat="48.128401" lon="17.099643">
        <ele>138.168340</ele>
        <time>2026-05-06T13:11:42.514Z</time>
      </trkpt>
      <trkpt lat="48.128616" lon="17.099662">
        <ele>138.267297</ele>
        <time>2026-05-06T13:11:48.090Z</time>
      </trkpt>
      <trkpt lat="48.128672" lon="17.099747">
        <ele>138.315483</ele>
        <time>2026-05-06T13:11:50.224Z</time>
      </trkpt>
      <trkpt lat="48.128795" lon="17.099933">
        <ele>138.421121</ele>
        <time>2026-05-06T13:11:55.118Z</time>
      </trkpt>
      <trkpt lat="48.129192" lon="17.100086">
        <ele>138.668906</ele>
        <time>2026-05-06T13:12:07.037Z</time>
      </trkpt>
      <trkpt lat="48.129280" lon="17.100168">
        <ele>138.731548</ele>
        <time>2026-05-06T13:12:10.028Z</time>
      </trkpt>
      <trkpt lat="48.129505" lon="17.100230">
        <ele>138.869834</ele>
        <time>2026-05-06T13:12:16.303Z</time>
      </trkpt>
      <trkpt lat="48.129586" lon="17.100217">
        <ele>138.919076</ele>
        <time>2026-05-06T13:12:18.812Z</time>
      </trkpt>
      <trkpt lat="48.129619" lon="17.100172">
        <ele>138.946048</ele>
        <time>2026-05-06T13:12:20.185Z</time>
      </trkpt>
      <trkpt lat="48.129627" lon="17.100103">
        <ele>138.974303</ele>
        <time>2026-05-06T13:12:21.600Z</time>
      </trkpt>
      <trkpt lat="48.129622" lon="17.099897">
        <ele>139.057469</ele>
        <time>2026-05-06T13:12:25.575Z</time>
      </trkpt>
      <trkpt lat="48.129617" lon="17.099675">
        <ele>139.147086</ele>
        <time>2026-05-06T13:12:29.806Z</time>
      </trkpt>
      <trkpt lat="48.129623" lon="17.099519">
        <ele>139.210128</ele>
        <time>2026-05-06T13:12:32.734Z</time>
      </trkpt>
      <trkpt lat="48.129898" lon="17.099137">
        <ele>138.992858</ele>
        <time>2026-05-06T13:12:40.521Z</time>
      </trkpt>
      <trkpt lat="48.130109" lon="17.099154">
        <ele>138.816005</ele>
        <time>2026-05-06T13:12:44.851Z</time>
      </trkpt>
      <trkpt lat="48.130296" lon="17.099175">
        <ele>138.659055</ele>
        <time>2026-05-06T13:12:48.718Z</time>
      </trkpt>
      <trkpt lat="48.130309" lon="17.099184">
        <ele>138.647069</ele>
        <time>2026-05-06T13:12:49.020Z</time>
      </trkpt>
      <trkpt lat="48.130347" lon="17.099214">
        <ele>138.611119</ele>
        <time>2026-05-06T13:12:50.186Z</time>
      </trkpt>
      <trkpt lat="48.130569" lon="17.099230">
        <ele>138.425100</ele>
        <time>2026-05-06T13:12:55.851Z</time>
      </trkpt>
      <trkpt lat="48.130654" lon="17.099236">
        <ele>138.353880</ele>
        <time>2026-05-06T13:12:58.030Z</time>
      </trkpt>
      <trkpt lat="48.130744" lon="17.099243">
        <ele>138.278452</ele>
        <time>2026-05-06T13:13:00.272Z</time>
      </trkpt>
      <trkpt lat="48.130795" lon="17.099246">
        <ele>138.235734</ele>
        <time>2026-05-06T13:13:01.571Z</time>
      </trkpt>
      <trkpt lat="48.130838" lon="17.099250">
        <ele>138.199676</ele>
        <time>2026-05-06T13:13:02.636Z</time>
      </trkpt>
      <trkpt lat="48.130865" lon="17.099344">
        <ele>138.142510</ele>
        <time>2026-05-06T13:13:03.962Z</time>
      </trkpt>
      <trkpt lat="48.130942" lon="17.099411">
        <ele>138.067985</ele>
        <time>2026-05-06T13:13:05.660Z</time>
      </trkpt>
      <trkpt lat="48.130939" lon="17.099490">
        <ele>138.023783</ele>
        <time>2026-05-06T13:13:06.620Z</time>
      </trkpt>
      <trkpt lat="48.130937" lon="17.099563">
        <ele>137.982970</ele>
        <time>2026-05-06T13:13:07.536Z</time>
      </trkpt>
      <trkpt lat="48.130995" lon="17.099585">
        <ele>137.932895</ele>
        <time>2026-05-06T13:13:08.617Z</time>
      </trkpt>
      <trkpt lat="48.131500" lon="17.099610">
        <ele>137.598953</ele>
        <time>2026-05-06T13:13:18.497Z</time>
      </trkpt>
      <trkpt lat="48.131593" lon="17.099685">
        <ele>137.543981</ele>
        <time>2026-05-06T13:13:21.354Z</time>
      </trkpt>
      <trkpt lat="48.131579" lon="17.099876">
        <ele>137.477232</ele>
        <time>2026-05-06T13:13:24.864Z</time>
      </trkpt>
      <trkpt lat="48.131568" lon="17.099874">
        <ele>137.471465</ele>
        <time>2026-05-06T13:13:25.156Z</time>
      </trkpt>
      <trkpt lat="48.131552" lon="17.099811">
        <ele>137.448049</ele>
        <time>2026-05-06T13:13:26.412Z</time>
      </trkpt>
      <trkpt lat="48.132221" lon="17.099846">
        <ele>137.099631</ele>
        <time>2026-05-06T13:13:40.331Z</time>
      </trkpt>
      <trkpt lat="48.132291" lon="17.099875">
        <ele>137.061830</ele>
        <time>2026-05-06T13:13:41.830Z</time>
      </trkpt>
      <trkpt lat="48.132347" lon="17.099898">
        <ele>137.031608</ele>
        <time>2026-05-06T13:13:43.116Z</time>
      </trkpt>
      <trkpt lat="48.132348" lon="17.100006">
        <ele>136.994087</ele>
        <time>2026-05-06T13:13:44.652Z</time>
      </trkpt>
      <trkpt lat="48.132273" lon="17.100202">
        <ele>136.915604</ele>
        <time>2026-05-06T13:13:47.877Z</time>
      </trkpt>
      <trkpt lat="48.132259" lon="17.100517">
        <ele>136.809356</ele>
        <time>2026-05-06T13:13:52.353Z</time>
      </trkpt>
      <trkpt lat="48.132244" lon="17.100894">
        <ele>136.820884</ele>
        <time>2026-05-06T13:13:57.703Z</time>
      </trkpt>
      <trkpt lat="48.132206" lon="17.100994">
        <ele>136.824397</ele>
        <time>2026-05-06T13:14:03.032Z</time>
      </trkpt>
      <trkpt lat="48.132202" lon="17.101129">
        <ele>136.828522</ele>
        <time>2026-05-06T13:14:09.301Z</time>
      </trkpt>
      <trkpt lat="48.132160" lon="17.102421">
        <ele>136.868007</ele>
        <time>2026-05-06T13:14:28.199Z</time>
      </trkpt>
      <trkpt lat="48.132167" lon="17.102556">
        <ele>136.872140</ele>
        <time>2026-05-06T13:14:30.282Z</time>
      </trkpt>
      <trkpt lat="48.132250" lon="17.102807">
        <ele>136.880691</ele>
        <time>2026-05-06T13:14:34.696Z</time>
      </trkpt>
      <trkpt lat="48.132306" lon="17.102943">
        <ele>136.885569</ele>
        <time>2026-05-06T13:14:37.279Z</time>
      </trkpt>
      <trkpt lat="48.132528" lon="17.103291">
        <ele>137.016051</ele>
        <time>2026-05-06T13:14:45.214Z</time>
      </trkpt>
      <trkpt lat="48.133200" lon="17.103914">
        <ele>137.521321</ele>
        <time>2026-05-06T13:15:05.212Z</time>
      </trkpt>
      <trkpt lat="48.133526" lon="17.104128">
        <ele>137.748891</ele>
        <time>2026-05-06T13:15:14.244Z</time>
      </trkpt>
      <trkpt lat="48.133819" lon="17.104278">
        <ele>137.946866</ele>
        <time>2026-05-06T13:15:21.891Z</time>
      </trkpt>
      <trkpt lat="48.134197" lon="17.104389">
        <ele>138.191282</ele>
        <time>2026-05-06T13:15:31.109Z</time>
      </trkpt>
      <trkpt lat="48.134540" lon="17.104432">
        <ele>138.408645</ele>
        <time>2026-05-06T13:15:39.248Z</time>
      </trkpt>
      <trkpt lat="48.135212" lon="17.104338">
        <ele>138.834861</ele>
        <time>2026-05-06T13:15:55.818Z</time>
      </trkpt>
      <trkpt lat="48.135311" lon="17.104366">
        <ele>138.898484</ele>
        <time>2026-05-06T13:15:58.401Z</time>
      </trkpt>
      <trkpt lat="48.135403" lon="17.104449">
        <ele>138.966301</ele>
        <time>2026-05-06T13:16:01.233Z</time>
      </trkpt>
      <trkpt lat="48.135487" lon="17.104482">
        <ele>139.021140</ele>
        <time>2026-05-06T13:16:03.508Z</time>
      </trkpt>
      <trkpt lat="48.136224" lon="17.104448">
        <ele>139.422793</ele>
        <time>2026-05-06T13:16:22.917Z</time>
      </trkpt>
      <trkpt lat="48.136470" lon="17.104416">
        <ele>139.546494</ele>
        <time>2026-05-06T13:16:29.327Z</time>
      </trkpt>
      <trkpt lat="48.136524" lon="17.104406">
        <ele>139.573752</ele>
        <time>2026-05-06T13:16:30.656Z</time>
      </trkpt>
      <trkpt lat="48.136541" lon="17.104403">
        <ele>139.582328</ele>
        <time>2026-05-06T13:16:31.117Z</time>
      </trkpt>
      <trkpt lat="48.136548" lon="17.104473">
        <ele>139.605991</ele>
        <time>2026-05-06T13:16:32.256Z</time>
      </trkpt>
      <trkpt lat="48.136572" lon="17.104709">
        <ele>139.685803</ele>
        <time>2026-05-06T13:16:36.085Z</time>
      </trkpt>
      <trkpt lat="48.136593" lon="17.104708">
        <ele>139.696328</ele>
        <time>2026-05-06T13:16:37.601Z</time>
      </trkpt>
      <trkpt lat="48.136646" lon="17.104706">
        <ele>139.722888</ele>
        <time>2026-05-06T13:16:41.258Z</time>
      </trkpt>
      <trkpt lat="48.136664" lon="17.104571">
        <ele>139.768913</ele>
        <time>2026-05-06T13:16:47.612Z</time>
      </trkpt>
      <trkpt lat="48.136658" lon="17.104467">
        <ele>139.803812</ele>
        <time>2026-05-06T13:16:49.300Z</time>
      </trkpt>
      <trkpt lat="48.136655" lon="17.104422">
        <ele>139.818932</ele>
        <time>2026-05-06T13:16:50.058Z</time>
      </trkpt>
      <trkpt lat="48.136710" lon="17.104419">
        <ele>139.846503</ele>
        <time>2026-05-06T13:16:51.355Z</time>
      </trkpt>
      <trkpt lat="48.136778" lon="17.104414">
        <ele>139.880610</ele>
        <time>2026-05-06T13:16:53.158Z</time>
      </trkpt>
      <trkpt lat="48.136797" lon="17.104252">
        <ele>139.935600</ele>
        <time>2026-05-06T13:16:56.128Z</time>
      </trkpt>
      <trkpt lat="48.136778" lon="17.104414">
        <ele>139.990590</ele>
        <time>2026-05-06T13:16:58.921Z</time>
      </trkpt>
      <trkpt lat="48.136710" lon="17.104419">
        <ele>140.024697</ele>
        <time>2026-05-06T13:17:00.636Z</time>
      </trkpt>
      <trkpt lat="48.136655" lon="17.104422">
        <ele>140.052268</ele>
        <time>2026-05-06T13:17:01.882Z</time>
      </trkpt>
      <trkpt lat="48.136658" lon="17.104467">
        <ele>140.067387</ele>
        <time>2026-05-06T13:17:02.500Z</time>
      </trkpt>
      <trkpt lat="48.136664" lon="17.104571">
        <ele>140.084134</ele>
        <time>2026-05-06T13:17:04.016Z</time>
      </trkpt>
      <trkpt lat="48.136674" lon="17.104744">
        <ele>140.098261</ele>
        <time>2026-05-06T13:17:06.560Z</time>
      </trkpt>
      <trkpt lat="48.136679" lon="17.104848">
        <ele>140.106744</ele>
        <time>2026-05-06T13:17:08.058Z</time>
      </trkpt>
      <trkpt lat="48.136681" lon="17.104904">
        <ele>140.111307</ele>
        <time>2026-05-06T13:17:08.905Z</time>
      </trkpt>
      <trkpt lat="48.136749" lon="17.105667">
        <ele>140.173934</ele>
        <time>2026-05-06T13:17:20.839Z</time>
      </trkpt>
      <trkpt lat="48.136938" lon="17.105382">
        <ele>140.206622</ele>
        <time>2026-05-06T13:17:39.511Z</time>
      </trkpt>
      <trkpt lat="48.136937" lon="17.105267">
        <ele>140.215979</ele>
        <time>2026-05-06T13:17:44.850Z</time>
      </trkpt>
      <trkpt lat="48.136938" lon="17.105382">
        <ele>140.225336</ele>
        <time>2026-05-06T13:17:50.189Z</time>
      </trkpt>
      <trkpt lat="48.136749" lon="17.105667">
        <ele>140.258025</ele>
        <time>2026-05-06T13:18:08.861Z</time>
      </trkpt>
      <trkpt lat="48.136691" lon="17.105880">
        <ele>140.276741</ele>
        <time>2026-05-06T13:18:12.235Z</time>
      </trkpt>
      <trkpt lat="48.136674" lon="17.105923">
        <ele>140.280807</ele>
        <time>2026-05-06T13:18:12.955Z</time>
      </trkpt>
      <trkpt lat="48.136766" lon="17.107211">
        <ele>140.298554</ele>
        <time>2026-05-06T13:18:32.353Z</time>
      </trkpt>
      <trkpt lat="48.136760" lon="17.107535">
        <ele>140.298847</ele>
        <time>2026-05-06T13:18:37.127Z</time>
      </trkpt>
      <trkpt lat="48.136711" lon="17.107938">
        <ele>140.299218</ele>
        <time>2026-05-06T13:18:43.241Z</time>
      </trkpt>
      <trkpt lat="48.136376" lon="17.109514">
        <ele>140.399034</ele>
        <time>2026-05-06T13:19:07.792Z</time>
      </trkpt>
      <trkpt lat="48.136353" lon="17.109631">
        <ele>140.414481</ele>
        <time>2026-05-06T13:19:09.588Z</time>
      </trkpt>
      <trkpt lat="48.136209" lon="17.110310">
        <ele>140.504713</ele>
        <time>2026-05-06T13:19:20.238Z</time>
      </trkpt>
      <trkpt lat="48.135768" lon="17.112414">
        <ele>140.572276</ele>
        <time>2026-05-06T13:19:55.645Z</time>
      </trkpt>
      <trkpt lat="48.135401" lon="17.114167">
        <ele>140.370167</ele>
        <time>2026-05-06T13:20:21.116Z</time>
      </trkpt>
      <trkpt lat="48.135261" lon="17.114862">
        <ele>140.083863</ele>
        <time>2026-05-06T13:20:30.461Z</time>
      </trkpt>
      <trkpt lat="48.135208" lon="17.115150">
        <ele>139.966044</ele>
        <time>2026-05-06T13:20:34.253Z</time>
      </trkpt>
      <trkpt lat="48.135171" lon="17.115325">
        <ele>139.893648</ele>
        <time>2026-05-06T13:20:36.573Z</time>
      </trkpt>
      <trkpt lat="48.135114" lon="17.115667">
        <ele>139.754629</ele>
        <time>2026-05-06T13:20:41.183Z</time>
      </trkpt>
      <trkpt lat="48.135115" lon="17.116136">
        <ele>139.569666</ele>
        <time>2026-05-06T13:20:47.571Z</time>
      </trkpt>
      <trkpt lat="48.135200" lon="17.116443">
        <ele>139.438586</ele>
        <time>2026-05-06T13:20:52.485Z</time>
      </trkpt>
      <trkpt lat="48.135297" lon="17.116641">
        <ele>139.432653</ele>
        <time>2026-05-06T13:20:56.346Z</time>
      </trkpt>
      <trkpt lat="48.135409" lon="17.116790">
        <ele>139.456701</ele>
        <time>2026-05-06T13:21:00.052Z</time>
      </trkpt>
      <trkpt lat="48.135580" lon="17.116908">
        <ele>139.486929</ele>
        <time>2026-05-06T13:21:04.735Z</time>
      </trkpt>
      <trkpt lat="48.135822" lon="17.116940">
        <ele>139.525936</ele>
        <time>2026-05-06T13:21:10.535Z</time>
      </trkpt>
      <trkpt lat="48.135842" lon="17.116940">
        <ele>139.529147</ele>
        <time>2026-05-06T13:21:10.996Z</time>
      </trkpt>
      <trkpt lat="48.135841" lon="17.116995">
        <ele>139.535042</ele>
        <time>2026-05-06T13:21:11.847Z</time>
      </trkpt>
      <trkpt lat="48.135840" lon="17.117041">
        <ele>139.539974</ele>
        <time>2026-05-06T13:21:12.564Z</time>
      </trkpt>
      <trkpt lat="48.135838" lon="17.117102">
        <ele>139.546518</ele>
        <time>2026-05-06T13:21:13.520Z</time>
      </trkpt>
      <trkpt lat="48.135829" lon="17.117107">
        <ele>139.548060</ele>
        <time>2026-05-06T13:21:13.755Z</time>
      </trkpt>
      <trkpt lat="48.135762" lon="17.117158">
        <ele>139.560126</ele>
        <time>2026-05-06T13:21:15.491Z</time>
      </trkpt>
      <trkpt lat="48.135729" lon="17.117768">
        <ele>139.625704</ele>
        <time>2026-05-06T13:21:24.879Z</time>
      </trkpt>
      <trkpt lat="48.135724" lon="17.118116">
        <ele>139.663002</ele>
        <time>2026-05-06T13:21:30.197Z</time>
      </trkpt>
      <trkpt lat="48.135783" lon="17.118325">
        <ele>139.687318</ele>
        <time>2026-05-06T13:21:33.498Z</time>
      </trkpt>
      <trkpt lat="48.135686" lon="17.120127">
        <ele>139.392991</ele>
        <time>2026-05-06T13:21:59.253Z</time>
      </trkpt>
      <trkpt lat="48.135602" lon="17.122213">
        <ele>138.932346</ele>
        <time>2026-05-06T13:22:28.165Z</time>
      </trkpt>
      <trkpt lat="48.135518" lon="17.123590">
        <ele>138.580410</ele>
        <time>2026-05-06T13:22:47.338Z</time>
      </trkpt>
      <trkpt lat="48.135446" lon="17.124211">
        <ele>138.506870</ele>
        <time>2026-05-06T13:22:56.390Z</time>
      </trkpt>
      <trkpt lat="48.135290" lon="17.125174">
        <ele>138.479303</ele>
        <time>2026-05-06T13:23:11.243Z</time>
      </trkpt>
      <trkpt lat="48.135149" lon="17.125763">
        <ele>138.461895</ele>
        <time>2026-05-06T13:23:20.940Z</time>
      </trkpt>
      <trkpt lat="48.134681" lon="17.127462">
        <ele>138.296777</ele>
        <time>2026-05-06T13:23:47.645Z</time>
      </trkpt>
      <trkpt lat="48.134616" lon="17.127688">
        <ele>138.265387</ele>
        <time>2026-05-06T13:23:51.103Z</time>
      </trkpt>
      <trkpt lat="48.134469" lon="17.128181">
        <ele>138.196512</ele>
        <time>2026-05-06T13:23:58.710Z</time>
      </trkpt>
      <trkpt lat="48.134391" lon="17.128222">
        <ele>138.180713</ele>
        <time>2026-05-06T13:24:00.446Z</time>
      </trkpt>
      <trkpt lat="48.134362" lon="17.128295">
        <ele>138.169877</ele>
        <time>2026-05-06T13:24:01.637Z</time>
      </trkpt>
      <trkpt lat="48.134260" lon="17.128601">
        <ele>138.126248</ele>
        <time>2026-05-06T13:24:06.469Z</time>
      </trkpt>
      <trkpt lat="48.134192" lon="17.128626">
        <ele>138.112866</ele>
        <time>2026-05-06T13:24:07.935Z</time>
      </trkpt>
      <trkpt lat="48.134130" lon="17.128583">
        <ele>138.099808</ele>
        <time>2026-05-06T13:24:09.395Z</time>
      </trkpt>
      <trkpt lat="48.134104" lon="17.128488">
        <ele>138.108022</ele>
        <time>2026-05-06T13:24:10.841Z</time>
      </trkpt>
      <trkpt lat="48.134136" lon="17.128381">
        <ele>138.119452</ele>
        <time>2026-05-06T13:24:12.496Z</time>
      </trkpt>
      <trkpt lat="48.134332" lon="17.128232">
        <ele>138.151555</ele>
        <time>2026-05-06T13:24:17.249Z</time>
      </trkpt>
      <trkpt lat="48.134597" lon="17.128112">
        <ele>138.191992</ele>
        <time>2026-05-06T13:24:23.451Z</time>
      </trkpt>
      <trkpt lat="48.135114" lon="17.127993">
        <ele>138.268394</ele>
        <time>2026-05-06T13:24:35.629Z</time>
      </trkpt>
      <trkpt lat="48.135518" lon="17.127987">
        <ele>138.327408</ele>
        <time>2026-05-06T13:24:45.155Z</time>
      </trkpt>
      <trkpt lat="48.138554" lon="17.128512">
        <ele>139.330940</ele>
        <time>2026-05-06T13:25:57.416Z</time>
      </trkpt>
      <trkpt lat="48.138940" lon="17.128624">
        <ele>139.471465</ele>
        <time>2026-05-06T13:26:06.694Z</time>
      </trkpt>
      <trkpt lat="48.139549" lon="17.128878">
        <ele>139.623777</ele>
        <time>2026-05-06T13:26:21.510Z</time>
      </trkpt>
      <trkpt lat="48.140138" lon="17.129167">
        <ele>139.663269</ele>
        <time>2026-05-06T13:26:36.138Z</time>
      </trkpt>
      <trkpt lat="48.140185" lon="17.129245">
        <ele>139.667737</ele>
        <time>2026-05-06T13:26:37.774Z</time>
      </trkpt>
      <trkpt lat="48.140191" lon="17.129360">
        <ele>139.672642</ele>
        <time>2026-05-06T13:26:39.547Z</time>
      </trkpt>
      <trkpt lat="48.140146" lon="17.129452">
        <ele>139.677493</ele>
        <time>2026-05-06T13:26:41.284Z</time>
      </trkpt>
      <trkpt lat="48.140084" lon="17.129483">
        <ele>139.681657</ele>
        <time>2026-05-06T13:26:42.755Z</time>
      </trkpt>
      <trkpt lat="48.140020" lon="17.129453">
        <ele>139.685930</ele>
        <time>2026-05-06T13:26:44.251Z</time>
      </trkpt>
      <trkpt lat="48.139974" lon="17.129365">
        <ele>139.690683</ele>
        <time>2026-05-06T13:26:45.884Z</time>
      </trkpt>
      <trkpt lat="48.139972" lon="17.129266">
        <ele>139.694895</ele>
        <time>2026-05-06T13:26:47.341Z</time>
      </trkpt>
      <trkpt lat="48.140013" lon="17.129176">
        <ele>139.699529</ele>
        <time>2026-05-06T13:26:48.899Z</time>
      </trkpt>
      <trkpt lat="48.140243" lon="17.129017">
        <ele>139.715668</ele>
        <time>2026-05-06T13:26:56.080Z</time>
      </trkpt>
      <trkpt lat="48.140269" lon="17.128954">
        <ele>139.718818</ele>
        <time>2026-05-06T13:26:57.434Z</time>
      </trkpt>
      <trkpt lat="48.140280" lon="17.128836">
        <ele>139.713384</ele>
        <time>2026-05-06T13:26:59.099Z</time>
      </trkpt>
      <trkpt lat="48.140312" lon="17.128834">
        <ele>139.700867</ele>
        <time>2026-05-06T13:26:59.768Z</time>
      </trkpt>
      <trkpt lat="48.140374" lon="17.128865">
        <ele>139.675323</ele>
        <time>2026-05-06T13:27:01.136Z</time>
      </trkpt>
      <trkpt lat="48.140464" lon="17.127418">
        <ele>139.296322</ele>
        <time>2026-05-06T13:27:21.313Z</time>
      </trkpt>
      <trkpt lat="48.140435" lon="17.127360">
        <ele>139.277421</ele>
        <time>2026-05-06T13:27:22.265Z</time>
      </trkpt>
      <trkpt lat="48.140418" lon="17.127326">
        <ele>139.266342</ele>
        <time>2026-05-06T13:27:22.826Z</time>
      </trkpt>
      <trkpt lat="48.140452" lon="17.126971">
        <ele>139.172812</ele>
        <time>2026-05-06T13:27:27.793Z</time>
      </trkpt>
      <trkpt lat="48.140505" lon="17.126273">
        <ele>138.959308</ele>
        <time>2026-05-06T13:27:37.820Z</time>
      </trkpt>
      <trkpt lat="48.140567" lon="17.126283">
        <ele>138.910224</ele>
        <time>2026-05-06T13:27:42.140Z</time>
      </trkpt>
      <trkpt lat="48.140630" lon="17.126077">
        <ele>138.791200</ele>
        <time>2026-05-06T13:27:45.166Z</time>
      </trkpt>
      <trkpt lat="48.140691" lon="17.125982">
        <ele>138.721951</ele>
        <time>2026-05-06T13:27:46.919Z</time>
      </trkpt>
      <trkpt lat="48.140740" lon="17.125936">
        <ele>138.676439</ele>
        <time>2026-05-06T13:27:48.055Z</time>
      </trkpt>
      <trkpt lat="48.140814" lon="17.125878">
        <ele>138.610706</ele>
        <time>2026-05-06T13:27:49.742Z</time>
      </trkpt>
      <trkpt lat="48.140945" lon="17.125782">
        <ele>138.495923</ele>
        <time>2026-05-06T13:27:52.650Z</time>
      </trkpt>
      <trkpt lat="48.141146" lon="17.125654">
        <ele>138.324018</ele>
        <time>2026-05-06T13:27:56.869Z</time>
      </trkpt>
      <trkpt lat="48.141510" lon="17.125375">
        <ele>138.002202</ele>
        <time>2026-05-06T13:28:04.804Z</time>
      </trkpt>
      <trkpt lat="48.141608" lon="17.125297">
        <ele>137.914858</ele>
        <time>2026-05-06T13:28:06.953Z</time>
      </trkpt>
      <trkpt lat="48.141675" lon="17.125238">
        <ele>137.853690</ele>
        <time>2026-05-06T13:28:08.451Z</time>
      </trkpt>
      <trkpt lat="48.141884" lon="17.125068">
        <ele>137.666510</ele>
        <time>2026-05-06T13:28:13.073Z</time>
      </trkpt>
      <trkpt lat="48.141991" lon="17.125010">
        <ele>137.610242</ele>
        <time>2026-05-06T13:28:15.286Z</time>
      </trkpt>
      <trkpt lat="48.142128" lon="17.124908">
        <ele>137.639582</ele>
        <time>2026-05-06T13:28:18.224Z</time>
      </trkpt>
      <trkpt lat="48.142206" lon="17.124869">
        <ele>137.655353</ele>
        <time>2026-05-06T13:28:19.813Z</time>
      </trkpt>
      <trkpt lat="48.142301" lon="17.124820">
        <ele>137.674622</ele>
        <time>2026-05-06T13:28:21.762Z</time>
      </trkpt>
      <trkpt lat="48.142401" lon="17.124754">
        <ele>137.695579</ele>
        <time>2026-05-06T13:28:23.985Z</time>
      </trkpt>
      <trkpt lat="48.142489" lon="17.124681">
        <ele>137.714871</ele>
        <time>2026-05-06T13:28:26.186Z</time>
      </trkpt>
      <trkpt lat="48.142606" lon="17.124600">
        <ele>137.739589</ele>
        <time>2026-05-06T13:28:29.163Z</time>
      </trkpt>
      <trkpt lat="48.142617" lon="17.124443">
        <ele>137.759793</ele>
        <time>2026-05-06T13:28:31.845Z</time>
      </trkpt>
      <trkpt lat="48.142629" lon="17.124259">
        <ele>137.783453</ele>
        <time>2026-05-06T13:28:35.174Z</time>
      </trkpt>
      <trkpt lat="48.142703" lon="17.123359">
        <ele>137.899507</ele>
        <time>2026-05-06T13:28:50.076Z</time>
      </trkpt>
      <trkpt lat="48.142790" lon="17.122698">
        <ele>138.033506</ele>
        <time>2026-05-06T13:29:01.316Z</time>
      </trkpt>
      <trkpt lat="48.142701" lon="17.122630">
        <ele>138.077377</ele>
        <time>2026-05-06T13:29:04.006Z</time>
      </trkpt>
      <trkpt lat="48.142592" lon="17.122541">
        <ele>138.131889</ele>
        <time>2026-05-06T13:29:07.240Z</time>
      </trkpt>
      <trkpt lat="48.142344" lon="17.122350">
        <ele>138.254340</ele>
        <time>2026-05-06T13:29:14.375Z</time>
      </trkpt>
      <trkpt lat="48.142106" lon="17.122280">
        <ele>138.360853</ele>
        <time>2026-05-06T13:29:20.439Z</time>
      </trkpt>
      <trkpt lat="48.141937" lon="17.122256">
        <ele>138.435402</ele>
        <time>2026-05-06T13:29:24.521Z</time>
      </trkpt>
      <trkpt lat="48.141662" lon="17.122178">
        <ele>138.558314</ele>
        <time>2026-05-06T13:29:30.686Z</time>
      </trkpt>
      <trkpt lat="48.141632" lon="17.122172">
        <ele>138.571606</ele>
        <time>2026-05-06T13:29:31.312Z</time>
      </trkpt>
      <trkpt lat="48.141588" lon="17.122163">
        <ele>138.591108</ele>
        <time>2026-05-06T13:29:32.272Z</time>
      </trkpt>
      <trkpt lat="48.141596" lon="17.122121">
        <ele>138.603907</ele>
        <time>2026-05-06T13:29:32.868Z</time>
      </trkpt>
      <trkpt lat="48.141601" lon="17.122088">
        <ele>138.613824</ele>
        <time>2026-05-06T13:29:33.308Z</time>
      </trkpt>
      <trkpt lat="48.141386" lon="17.122041">
        <ele>138.709241</ele>
        <time>2026-05-06T13:29:48.385Z</time>
      </trkpt>
      <trkpt lat="48.141209" lon="17.121949">
        <ele>138.747560</ele>
        <time>2026-05-06T13:30:01.400Z</time>
      </trkpt>
      <trkpt lat="48.141044" lon="17.121773">
        <ele>138.762659</ele>
        <time>2026-05-06T13:30:15.512Z</time>
      </trkpt>
      <trkpt lat="48.141018" lon="17.121640">
        <ele>138.769554</ele>
        <time>2026-05-06T13:30:21.918Z</time>
      </trkpt>
      <trkpt lat="48.140992" lon="17.121504">
        <ele>138.776592</ele>
        <time>2026-05-06T13:30:28.482Z</time>
      </trkpt>
      <trkpt lat="48.141078" lon="17.120232">
        <ele>138.840197</ele>
        <time>2026-05-06T13:31:27.753Z</time>
      </trkpt>
      <trkpt lat="48.141025" lon="17.120224">
        <ele>138.844168</ele>
        <time>2026-05-06T13:31:31.449Z</time>
      </trkpt>
      <trkpt lat="48.141028" lon="17.120183">
        <ele>138.846220</ele>
        <time>2026-05-06T13:31:32.041Z</time>
      </trkpt>
      <trkpt lat="48.141044" lon="17.119962">
        <ele>138.857280</ele>
        <time>2026-05-06T13:31:35.354Z</time>
      </trkpt>
      <trkpt lat="48.141059" lon="17.119750">
        <ele>138.867885</ele>
        <time>2026-05-06T13:31:38.468Z</time>
      </trkpt>
      <trkpt lat="48.141064" lon="17.119673">
        <ele>138.871734</ele>
        <time>2026-05-06T13:31:39.557Z</time>
      </trkpt>
      <trkpt lat="48.141091" lon="17.119298">
        <ele>139.065951</ele>
        <time>2026-05-06T13:31:45.224Z</time>
      </trkpt>
      <trkpt lat="48.141098" lon="17.119196">
        <ele>139.121245</ele>
        <time>2026-05-06T13:31:46.818Z</time>
      </trkpt>
      <trkpt lat="48.141141" lon="17.118605">
        <ele>139.441831</ele>
        <time>2026-05-06T13:31:56.621Z</time>
      </trkpt>
      <trkpt lat="48.141208" lon="17.118167">
        <ele>139.684150</ele>
        <time>2026-05-06T13:32:04.308Z</time>
      </trkpt>
      <trkpt lat="48.141269" lon="17.118015">
        <ele>139.779797</ele>
        <time>2026-05-06T13:32:07.095Z</time>
      </trkpt>
      <trkpt lat="48.141341" lon="17.117920">
        <ele>139.857319</ele>
        <time>2026-05-06T13:32:09.521Z</time>
      </trkpt>
      <trkpt lat="48.141396" lon="17.117866">
        <ele>139.910455</ele>
        <time>2026-05-06T13:32:11.233Z</time>
      </trkpt>
      <trkpt lat="48.141472" lon="17.117816">
        <ele>139.977529</ele>
        <time>2026-05-06T13:32:13.486Z</time>
      </trkpt>
      <trkpt lat="48.141246" lon="17.117079">
        <ele>140.570146</ele>
        <time>2026-05-06T13:32:28.869Z</time>
      </trkpt>
      <trkpt lat="48.141322" lon="17.116769">
        <ele>141.059781</ele>
        <time>2026-05-06T13:32:35.398Z</time>
      </trkpt>
      <trkpt lat="48.141353" lon="17.116714">
        <ele>141.166518</ele>
        <time>2026-05-06T13:32:36.790Z</time>
      </trkpt>
      <trkpt lat="48.141975" lon="17.116203">
        <ele>142.742494</ele>
        <time>2026-05-06T13:32:57.407Z</time>
      </trkpt>
      <trkpt lat="48.142016" lon="17.116170">
        <ele>142.845893</ele>
        <time>2026-05-06T13:32:58.733Z</time>
      </trkpt>
      <trkpt lat="48.142101" lon="17.116111">
        <ele>143.054017</ele>
        <time>2026-05-06T13:33:01.577Z</time>
      </trkpt>
      <trkpt lat="48.141924" lon="17.115594">
        <ele>143.915493</ele>
        <time>2026-05-06T13:33:14.845Z</time>
      </trkpt>
      <trkpt lat="48.141901" lon="17.115519">
        <ele>144.037865</ele>
        <time>2026-05-06T13:33:16.862Z</time>
      </trkpt>
      <trkpt lat="48.141895" lon="17.115498">
        <ele>144.071732</ele>
        <time>2026-05-06T13:33:17.401Z</time>
      </trkpt>
      <trkpt lat="48.142161" lon="17.115101">
        <ele>145.217969</ele>
        <time>2026-05-06T13:33:31.241Z</time>
      </trkpt>
      <trkpt lat="48.143160" lon="17.113589">
        <ele>150.060179</ele>
        <time>2026-05-06T13:34:25.199Z</time>
      </trkpt>
      <trkpt lat="48.143228" lon="17.113490">
        <ele>150.383500</ele>
        <time>2026-05-06T13:34:28.249Z</time>
      </trkpt>
      <trkpt lat="48.143410" lon="17.113240">
        <ele>150.488511</ele>
        <time>2026-05-06T13:34:35.862Z</time>
      </trkpt>
      <trkpt lat="48.143518" lon="17.113153">
        <ele>150.505951</ele>
        <time>2026-05-06T13:34:39.350Z</time>
      </trkpt>
      <trkpt lat="48.144045" lon="17.113003">
        <ele>150.582250</ele>
        <time>2026-05-06T13:34:52.070Z</time>
      </trkpt>
      <trkpt lat="48.144073" lon="17.112998">
        <ele>150.586261</ele>
        <time>2026-05-06T13:34:52.631Z</time>
      </trkpt>
      <trkpt lat="48.144058" lon="17.112819">
        <ele>150.603383</ele>
        <time>2026-05-06T13:34:54.984Z</time>
      </trkpt>
      <trkpt lat="48.144030" lon="17.112828">
        <ele>150.607456</ele>
        <time>2026-05-06T13:34:55.539Z</time>
      </trkpt>
      <trkpt lat="48.143790" lon="17.112908">
        <ele>150.642427</ele>
        <time>2026-05-06T13:35:00.184Z</time>
      </trkpt>
      <trkpt lat="48.143764" lon="17.112821">
        <ele>150.651475</ele>
        <time>2026-05-06T13:35:01.359Z</time>
      </trkpt>
      <trkpt lat="48.142995" lon="17.111067">
        <ele>149.069067</ele>
        <time>2026-05-06T13:35:27.458Z</time>
      </trkpt>
      <trkpt lat="48.142971" lon="17.111010">
        <ele>148.993115</ele>
        <time>2026-05-06T13:35:28.182Z</time>
      </trkpt>
      <trkpt lat="48.142886" lon="17.110793">
        <ele>148.709557</ele>
        <time>2026-05-06T13:35:30.834Z</time>
      </trkpt>
      <trkpt lat="48.142814" lon="17.110607">
        <ele>148.467237</ele>
        <time>2026-05-06T13:35:33.132Z</time>
      </trkpt>
      <trkpt lat="48.142692" lon="17.110294">
        <ele>148.058748</ele>
        <time>2026-05-06T13:35:37.250Z</time>
      </trkpt>
      <trkpt lat="48.142624" lon="17.110118">
        <ele>147.829565</ele>
        <time>2026-05-06T13:35:39.773Z</time>
      </trkpt>
      <trkpt lat="48.142481" lon="17.109751">
        <ele>147.854460</ele>
        <time>2026-05-06T13:35:45.524Z</time>
      </trkpt>
      <trkpt lat="48.142473" lon="17.109731">
        <ele>147.869037</ele>
        <time>2026-05-06T13:35:46.605Z</time>
      </trkpt>
      <trkpt lat="48.142457" lon="17.109745">
        <ele>147.886394</ele>
        <time>2026-05-06T13:35:47.849Z</time>
      </trkpt>
      <trkpt lat="48.142413" lon="17.109640">
        <ele>147.963901</ele>
        <time>2026-05-06T13:35:53.618Z</time>
      </trkpt>
      <trkpt lat="48.142340" lon="17.109468">
        <ele>148.091327</ele>
        <time>2026-05-06T13:36:03.062Z</time>
      </trkpt>
      <trkpt lat="48.142310" lon="17.109396">
        <ele>148.144390</ele>
        <time>2026-05-06T13:36:06.995Z</time>
      </trkpt>
      <trkpt lat="48.142357" lon="17.109365">
        <ele>148.192496</ele>
        <time>2026-05-06T13:36:10.564Z</time>
      </trkpt>
      <trkpt lat="48.142543" lon="17.109206">
        <ele>148.393098</ele>
        <time>2026-05-06T13:36:25.448Z</time>
      </trkpt>
      <trkpt lat="48.142893" lon="17.108920">
        <ele>148.766557</ele>
        <time>2026-05-06T13:36:53.149Z</time>
      </trkpt>
      <trkpt lat="48.143126" lon="17.108329">
        <ele>149.195663</ele>
        <time>2026-05-06T13:37:24.990Z</time>
      </trkpt>
      <trkpt lat="48.143186" lon="17.108188">
        <ele>149.300201</ele>
        <time>2026-05-06T13:37:32.755Z</time>
      </trkpt>
      <trkpt lat="48.143361" lon="17.107781">
        <ele>149.725798</ele>
        <time>2026-05-06T13:37:55.189Z</time>
      </trkpt>
      <trkpt lat="48.143391" lon="17.107709">
        <ele>149.805685</ele>
        <time>2026-05-06T13:37:57.445Z</time>
      </trkpt>
      <trkpt lat="48.143407" lon="17.107672">
        <ele>149.847179</ele>
        <time>2026-05-06T13:37:58.544Z</time>
      </trkpt>
      <trkpt lat="48.143498" lon="17.107488">
        <ele>150.062723</ele>
        <time>2026-05-06T13:38:04.027Z</time>
      </trkpt>
      <trkpt lat="48.143769" lon="17.106819">
        <ele>150.799267</ele>
        <time>2026-05-06T13:38:20.917Z</time>
      </trkpt>
      <trkpt lat="48.143860" lon="17.106649">
        <ele>151.004375</ele>
        <time>2026-05-06T13:38:25.517Z</time>
      </trkpt>
      <trkpt lat="48.143902" lon="17.106582">
        <ele>151.090890</ele>
        <time>2026-05-06T13:38:27.581Z</time>
      </trkpt>
      <trkpt lat="48.144203" lon="17.106645">
        <ele>151.519543</ele>
        <time>2026-05-06T13:38:36.505Z</time>
      </trkpt>
      <trkpt lat="48.144283" lon="17.106669">
        <ele>151.634614</ele>
        <time>2026-05-06T13:38:38.808Z</time>
      </trkpt>
      <trkpt lat="48.144397" lon="17.106686">
        <ele>151.796194</ele>
        <time>2026-05-06T13:38:41.895Z</time>
      </trkpt>
      <trkpt lat="48.144503" lon="17.106701">
        <ele>151.865354</ele>
        <time>2026-05-06T13:38:44.672Z</time>
      </trkpt>
      <trkpt lat="48.144570" lon="17.106711">
        <ele>151.806001</ele>
        <time>2026-05-06T13:38:46.303Z</time>
      </trkpt>
      <trkpt lat="48.144625" lon="17.106719">
        <ele>151.757289</ele>
        <time>2026-05-06T13:38:47.692Z</time>
      </trkpt>
      <trkpt lat="48.144570" lon="17.106711">
        <ele>151.708578</ele>
        <time>2026-05-06T13:38:48.990Z</time>
      </trkpt>
      <trkpt lat="48.144503" lon="17.106701">
        <ele>151.649224</ele>
        <time>2026-05-06T13:38:50.534Z</time>
      </trkpt>
      <trkpt lat="48.144397" lon="17.106686">
        <ele>151.555368</ele>
        <time>2026-05-06T13:38:52.898Z</time>
      </trkpt>
      <trkpt lat="48.144283" lon="17.106669">
        <ele>151.454378</ele>
        <time>2026-05-06T13:38:55.395Z</time>
      </trkpt>
      <trkpt lat="48.144203" lon="17.106645">
        <ele>151.382458</ele>
        <time>2026-05-06T13:38:57.098Z</time>
      </trkpt>
      <trkpt lat="48.143902" lon="17.106582">
        <ele>151.114546</ele>
        <time>2026-05-06T13:39:03.409Z</time>
      </trkpt>
      <trkpt lat="48.143805" lon="17.106556">
        <ele>151.027682</ele>
        <time>2026-05-06T13:39:05.986Z</time>
      </trkpt>
      <trkpt lat="48.143298" lon="17.106513">
        <ele>150.580037</ele>
        <time>2026-05-06T13:39:18.551Z</time>
      </trkpt>
      <trkpt lat="48.142860" lon="17.106494">
        <ele>150.032048</ele>
        <time>2026-05-06T13:39:29.219Z</time>
      </trkpt>
      <trkpt lat="48.142677" lon="17.106487">
        <ele>149.648014</ele>
        <time>2026-05-06T13:39:33.531Z</time>
      </trkpt>
      <trkpt lat="48.142424" lon="17.106489">
        <ele>149.117247</ele>
        <time>2026-05-06T13:39:39.445Z</time>
      </trkpt>
      <trkpt lat="48.142094" lon="17.106526">
        <ele>148.423018</ele>
        <time>2026-05-06T13:39:47.332Z</time>
      </trkpt>
      <trkpt lat="48.142047" lon="17.106532">
        <ele>148.324061</ele>
        <time>2026-05-06T13:39:48.460Z</time>
      </trkpt>
      <trkpt lat="48.141988" lon="17.106418">
        <ele>148.122102</ele>
        <time>2026-05-06T13:39:50.262Z</time>
      </trkpt>
      <trkpt lat="48.141901" lon="17.106331">
        <ele>147.902684</ele>
        <time>2026-05-06T13:39:52.210Z</time>
      </trkpt>
      <trkpt lat="48.141643" lon="17.105801">
        <ele>146.984304</ele>
        <time>2026-05-06T13:40:00.483Z</time>
      </trkpt>
      <trkpt lat="48.141599" lon="17.105715">
        <ele>146.832600</ele>
        <time>2026-05-06T13:40:01.859Z</time>
      </trkpt>
      <trkpt lat="48.141563" lon="17.105753">
        <ele>146.740223</ele>
        <time>2026-05-06T13:40:04.935Z</time>
      </trkpt>
      <trkpt lat="48.141419" lon="17.105899">
        <ele>146.246694</ele>
        <time>2026-05-06T13:40:16.994Z</time>
      </trkpt>
      <trkpt lat="48.141563" lon="17.105753">
        <ele>145.592313</ele>
        <time>2026-05-06T13:40:29.054Z</time>
      </trkpt>
      <trkpt lat="48.141599" lon="17.105715">
        <ele>145.426577</ele>
        <time>2026-05-06T13:40:32.131Z</time>
      </trkpt>
      <trkpt lat="48.141457" lon="17.105440">
        <ele>144.553254</ele>
        <time>2026-05-06T13:40:36.087Z</time>
      </trkpt>
      <trkpt lat="48.141386" lon="17.105301">
        <ele>144.113607</ele>
        <time>2026-05-06T13:40:38.085Z</time>
      </trkpt>
      <trkpt lat="48.141356" lon="17.105240">
        <ele>143.923286</ele>
        <time>2026-05-06T13:40:38.927Z</time>
      </trkpt>
      <trkpt lat="48.141204" lon="17.104934">
        <ele>142.965183</ele>
        <time>2026-05-06T13:40:43.197Z</time>
      </trkpt>
      <trkpt lat="48.141124" lon="17.104782">
        <ele>142.478967</ele>
        <time>2026-05-06T13:40:45.323Z</time>
      </trkpt>
      <trkpt lat="48.141050" lon="17.104801">
        <ele>142.196385</ele>
        <time>2026-05-06T13:40:50.534Z</time>
      </trkpt>
      <trkpt lat="48.140681" lon="17.104967">
        <ele>140.746305</ele>
        <time>2026-05-06T13:40:56.679Z</time>
      </trkpt>
      <trkpt lat="48.140455" lon="17.105081">
        <ele>139.848784</ele>
        <time>2026-05-06T13:41:00.362Z</time>
      </trkpt>
      <trkpt lat="48.140103" lon="17.105117">
        <ele>138.960879</ele>
        <time>2026-05-06T13:41:07.672Z</time>
      </trkpt>
      <trkpt lat="48.139925" lon="17.105130">
        <ele>138.526808</ele>
        <time>2026-05-06T13:41:11.520Z</time>
      </trkpt>
      <trkpt lat="48.139853" lon="17.105130">
        <ele>138.351438</ele>
        <time>2026-05-06T13:41:12.700Z</time>
      </trkpt>
      <trkpt lat="48.139819" lon="17.105130">
        <ele>138.268624</ele>
        <time>2026-05-06T13:41:13.230Z</time>
      </trkpt>
      <trkpt lat="48.139741" lon="17.105130">
        <ele>138.078639</ele>
        <time>2026-05-06T13:41:14.518Z</time>
      </trkpt>
      <trkpt lat="48.139713" lon="17.105130">
        <ele>138.010439</ele>
        <time>2026-05-06T13:41:14.981Z</time>
      </trkpt>
      <trkpt lat="48.139629" lon="17.105130">
        <ele>137.805840</ele>
        <time>2026-05-06T13:41:16.355Z</time>
      </trkpt>
      <trkpt lat="48.139593" lon="17.104949">
        <ele>137.498855</ele>
        <time>2026-05-06T13:41:19.291Z</time>
      </trkpt>
      <trkpt lat="48.139589" lon="17.104611">
        <ele>136.949386</ele>
        <time>2026-05-06T13:41:24.661Z</time>
      </trkpt>
      <trkpt lat="48.139586" lon="17.104326">
        <ele>136.486093</ele>
        <time>2026-05-06T13:41:29.414Z</time>
      </trkpt>
      <trkpt lat="48.139652" lon="17.102604">
        <ele>135.697360</ele>
        <time>2026-05-06T13:42:04.037Z</time>
      </trkpt>
      <trkpt lat="48.139699" lon="17.101270">
        <ele>136.092833</ele>
        <time>2026-05-06T13:42:32.764Z</time>
      </trkpt>
      <trkpt lat="48.139729" lon="17.100488">
        <ele>136.256370</ele>
        <time>2026-05-06T13:42:49.408Z</time>
      </trkpt>
      <trkpt lat="48.139747" lon="17.099929">
        <ele>136.341077</ele>
        <time>2026-05-06T13:43:01.346Z</time>
      </trkpt>
      <trkpt lat="48.139788" lon="17.098597">
        <ele>136.542898</ele>
        <time>2026-05-06T13:43:28.277Z</time>
      </trkpt>
      <trkpt lat="48.139789" lon="17.098567">
        <ele>136.547445</ele>
        <time>2026-05-06T13:43:28.870Z</time>
      </trkpt>
      <trkpt lat="48.139871" lon="17.097214">
        <ele>136.009919</ele>
        <time>2026-05-06T13:43:53.083Z</time>
      </trkpt>
      <trkpt lat="48.140025" lon="17.095619">
        <ele>135.122624</ele>
        <time>2026-05-06T13:44:20.676Z</time>
      </trkpt>
      <trkpt lat="48.140090" lon="17.095172">
        <ele>135.191845</ele>
        <time>2026-05-06T13:44:29.124Z</time>
      </trkpt>
      <trkpt lat="48.140213" lon="17.094579">
        <ele>135.310999</ele>
        <time>2026-05-06T13:44:41.576Z</time>
      </trkpt>
      <trkpt lat="48.140276" lon="17.094255">
        <ele>135.375752</ele>
        <time>2026-05-06T13:44:49.050Z</time>
      </trkpt>
      <trkpt lat="48.140279" lon="17.094240">
        <ele>135.378757</ele>
        <time>2026-05-06T13:44:49.402Z</time>
      </trkpt>
      <trkpt lat="48.140418" lon="17.093523">
        <ele>135.522021</ele>
        <time>2026-05-06T13:45:06.694Z</time>
      </trkpt>
      <trkpt lat="48.140469" lon="17.093262">
        <ele>135.574203</ele>
        <time>2026-05-06T13:45:12.483Z</time>
      </trkpt>
      <trkpt lat="48.140644" lon="17.092409">
        <ele>135.340294</ele>
        <time>2026-05-06T13:45:29.532Z</time>
      </trkpt>
      <trkpt lat="48.140816" lon="17.091505">
        <ele>134.908622</ele>
        <time>2026-05-06T13:45:41.680Z</time>
      </trkpt>
      <trkpt lat="48.141020" lon="17.090493">
        <ele>134.423161</ele>
        <time>2026-05-06T13:45:54.871Z</time>
      </trkpt>
      <trkpt lat="48.141144" lon="17.089862">
        <ele>134.658868</ele>
        <time>2026-05-06T13:46:03.639Z</time>
      </trkpt>
      <trkpt lat="48.141174" lon="17.089712">
        <ele>134.731690</ele>
        <time>2026-05-06T13:46:05.929Z</time>
      </trkpt>
      <trkpt lat="48.141177" lon="17.089698">
        <ele>134.738528</ele>
        <time>2026-05-06T13:46:06.140Z</time>
      </trkpt>
      <trkpt lat="48.141245" lon="17.089346">
        <ele>134.908944</ele>
        <time>2026-05-06T13:46:13.738Z</time>
      </trkpt>
      <trkpt lat="48.141254" lon="17.089300">
        <ele>134.931236</ele>
        <time>2026-05-06T13:46:14.677Z</time>
      </trkpt>
      <trkpt lat="48.141434" lon="17.088354">
        <ele>135.388700</ele>
        <time>2026-05-06T13:46:34.186Z</time>
      </trkpt>
      <trkpt lat="48.141494" lon="17.088042">
        <ele>135.539697</ele>
        <time>2026-05-06T13:46:40.694Z</time>
      </trkpt>
      <trkpt lat="48.141558" lon="17.088071">
        <ele>135.586293</ele>
        <time>2026-05-06T13:46:42.796Z</time>
      </trkpt>
      <trkpt lat="48.141576" lon="17.087976">
        <ele>135.632218</ele>
        <time>2026-05-06T13:46:44.612Z</time>
      </trkpt>
      <trkpt lat="48.141638" lon="17.087665">
        <ele>135.816707</ele>
        <time>2026-05-06T13:46:50.622Z</time>
      </trkpt>
      <trkpt lat="48.141704" lon="17.087336">
        <ele>136.014371</ele>
        <time>2026-05-06T13:46:56.704Z</time>
      </trkpt>
      <trkpt lat="48.141766" lon="17.087020">
        <ele>136.203883</ele>
        <time>2026-05-06T13:47:02.524Z</time>
      </trkpt>
      <trkpt lat="48.141827" lon="17.086706">
        <ele>136.392048</ele>
        <time>2026-05-06T13:47:08.314Z</time>
      </trkpt>
      <trkpt lat="48.141887" lon="17.086404">
        <ele>136.573346</ele>
        <time>2026-05-06T13:47:13.785Z</time>
      </trkpt>
      <trkpt lat="48.141949" lon="17.086084">
        <ele>136.765066</ele>
        <time>2026-05-06T13:47:19.201Z</time>
      </trkpt>
      <trkpt lat="48.142012" lon="17.085765">
        <ele>136.956476</ele>
        <time>2026-05-06T13:47:24.480Z</time>
      </trkpt>
      <trkpt lat="48.142073" lon="17.085452">
        <ele>137.144088</ele>
        <time>2026-05-06T13:47:29.545Z</time>
      </trkpt>
      <trkpt lat="48.142139" lon="17.085116">
        <ele>137.307765</ele>
        <time>2026-05-06T13:47:34.888Z</time>
      </trkpt>
      <trkpt lat="48.142242" lon="17.084603">
        <ele>137.539743</ele>
        <time>2026-05-06T13:47:42.703Z</time>
      </trkpt>
      <trkpt lat="48.142347" lon="17.084067">
        <ele>137.781637</ele>
        <time>2026-05-06T13:47:52.056Z</time>
      </trkpt>
      <trkpt lat="48.142412" lon="17.083729">
        <ele>137.933954</ele>
        <time>2026-05-06T13:47:58.355Z</time>
      </trkpt>
      <trkpt lat="48.142419" lon="17.083697">
        <ele>137.948536</ele>
        <time>2026-05-06T13:47:58.925Z</time>
      </trkpt>
      <trkpt lat="48.142474" lon="17.083406">
        <ele>138.079502</ele>
        <time>2026-05-06T13:48:04.154Z</time>
      </trkpt>
      <trkpt lat="48.142529" lon="17.083109">
        <ele>138.212969</ele>
        <time>2026-05-06T13:48:09.499Z</time>
      </trkpt>
      <trkpt lat="48.142588" lon="17.082797">
        <ele>138.353391</ele>
        <time>2026-05-06T13:48:15.248Z</time>
      </trkpt>
      <trkpt lat="48.142651" lon="17.082457">
        <ele>138.369347</ele>
        <time>2026-05-06T13:48:21.626Z</time>
      </trkpt>
      <trkpt lat="48.142708" lon="17.082158">
        <ele>138.378108</ele>
        <time>2026-05-06T13:48:26.876Z</time>
      </trkpt>
      <trkpt lat="48.142767" lon="17.081842">
        <ele>138.387352</ele>
        <time>2026-05-06T13:48:32.052Z</time>
      </trkpt>
      <trkpt lat="48.142829" lon="17.081508">
        <ele>138.397119</ele>
        <time>2026-05-06T13:48:37.367Z</time>
      </trkpt>
      <trkpt lat="48.142893" lon="17.081169">
        <ele>138.407045</ele>
        <time>2026-05-06T13:48:42.531Z</time>
      </trkpt>
      <trkpt lat="48.142944" lon="17.080896">
        <ele>138.415032</ele>
        <time>2026-05-06T13:48:46.410Z</time>
      </trkpt>
      <trkpt lat="48.143205" lon="17.079507">
        <ele>138.430324</ele>
        <time>2026-05-06T13:49:05.539Z</time>
      </trkpt>
      <trkpt lat="48.143255" lon="17.079237">
        <ele>138.428168</ele>
        <time>2026-05-06T13:49:09.256Z</time>
      </trkpt>
      <trkpt lat="48.143332" lon="17.078736">
        <ele>138.424212</ele>
        <time>2026-05-06T13:49:16.353Z</time>
      </trkpt>
      <trkpt lat="48.143380" lon="17.078429">
        <ele>138.421786</ele>
        <time>2026-05-06T13:49:21.099Z</time>
      </trkpt>
      <trkpt lat="48.143787" lon="17.075800">
        <ele>140.443658</ele>
        <time>2026-05-06T13:50:08.059Z</time>
      </trkpt>
      <trkpt lat="48.143856" lon="17.075339">
        <ele>140.970253</ele>
        <time>2026-05-06T13:50:18.443Z</time>
      </trkpt>
      <trkpt lat="48.143922" lon="17.074926">
        <ele>141.468159</ele>
        <time>2026-05-06T13:50:27.997Z</time>
      </trkpt>
      <trkpt lat="48.144439" lon="17.075009">
        <ele>143.220881</ele>
        <time>2026-05-06T13:50:46.883Z</time>
      </trkpt>
      <trkpt lat="48.144461" lon="17.075012">
        <ele>143.295347</ele>
        <time>2026-05-06T13:50:47.725Z</time>
      </trkpt>
      <trkpt lat="48.144503" lon="17.075019">
        <ele>143.437797</ele>
        <time>2026-05-06T13:50:49.286Z</time>
      </trkpt>
      <trkpt lat="48.144813" lon="17.075095">
        <ele>144.496663</ele>
        <time>2026-05-06T13:51:02.439Z</time>
      </trkpt>
      <trkpt lat="48.145603" lon="17.075403">
        <ele>147.248300</ele>
        <time>2026-05-06T13:51:33.627Z</time>
      </trkpt>
      <trkpt lat="48.145596" lon="17.075449">
        <ele>147.354419</ele>
        <time>2026-05-06T13:51:34.545Z</time>
      </trkpt>
      <trkpt lat="48.145578" lon="17.075558">
        <ele>147.476100</ele>
        <time>2026-05-06T13:51:36.769Z</time>
      </trkpt>
      <trkpt lat="48.145569" lon="17.075687">
        <ele>147.461097</ele>
        <time>2026-05-06T13:51:39.697Z</time>
      </trkpt>
      <trkpt lat="48.145560" lon="17.075816">
        <ele>147.446095</ele>
        <time>2026-05-06T13:51:42.556Z</time>
      </trkpt>
      <trkpt lat="48.144678" lon="17.075736">
        <ele>147.292915</ele>
        <time>2026-05-06T13:52:07.658Z</time>
      </trkpt>
      <trkpt lat="48.144592" lon="17.075883">
        <ele>147.270301</ele>
        <time>2026-05-06T13:52:10.841Z</time>
      </trkpt>
      <trkpt lat="48.144539" lon="17.075875">
        <ele>147.261067</ele>
        <time>2026-05-06T13:52:11.750Z</time>
      </trkpt>
      <trkpt lat="48.144563" lon="17.075530">
        <ele>147.220944</ele>
        <time>2026-05-06T13:52:15.830Z</time>
      </trkpt>
      <trkpt lat="48.144516" lon="17.075521">
        <ele>147.212730</ele>
        <time>2026-05-06T13:52:16.614Z</time>
      </trkpt>
      <trkpt lat="48.144490" lon="17.075900">
        <ele>147.164284</ele>
        <time>2026-05-06T13:52:21.224Z</time>
      </trkpt>
      <trkpt lat="48.144466" lon="17.075897">
        <ele>147.151145</ele>
        <time>2026-05-06T13:52:21.627Z</time>
      </trkpt>
      <trkpt lat="48.139358" lon="17.074960">
        <ele>144.536863</ele>
        <time>2026-05-06T13:54:08.030Z</time>
      </trkpt>
      <trkpt lat="48.138456" lon="17.074813">
        <ele>144.213512</ele>
        <time>2026-05-06T13:54:27.086Z</time>
      </trkpt>
      <trkpt lat="48.137904" lon="17.074774">
        <ele>144.028048</ele>
        <time>2026-05-06T13:54:39.114Z</time>
      </trkpt>
      <trkpt lat="48.137687" lon="17.074766">
        <ele>143.955199</ele>
        <time>2026-05-06T13:54:43.773Z</time>
      </trkpt>
      <trkpt lat="48.137683" lon="17.074814">
        <ele>143.944365</ele>
        <time>2026-05-06T13:54:44.468Z</time>
      </trkpt>
      <trkpt lat="48.138106" lon="17.074869">
        <ele>143.778381</ele>
        <time>2026-05-06T13:54:53.151Z</time>
      </trkpt>
      <trkpt lat="48.138090" lon="17.074801">
        <ele>143.752913</ele>
        <time>2026-05-06T13:54:54.163Z</time>
      </trkpt>
      <trkpt lat="48.138032" lon="17.074588">
        <ele>143.671655</ele>
        <time>2026-05-06T13:54:57.285Z</time>
      </trkpt>
      <trkpt lat="48.137930" lon="17.074356">
        <ele>143.573523</ele>
        <time>2026-05-06T13:55:01.037Z</time>
      </trkpt>
      <trkpt lat="48.137871" lon="17.074265">
        <ele>143.528707</ele>
        <time>2026-05-06T13:55:02.737Z</time>
      </trkpt>
      <trkpt lat="48.137680" lon="17.074086">
        <ele>143.409469</ele>
        <time>2026-05-06T13:55:07.313Z</time>
      </trkpt>
      <trkpt lat="48.137474" lon="17.073999">
        <ele>143.296186</ele>
        <time>2026-05-06T13:55:11.609Z</time>
      </trkpt>
      <trkpt lat="48.127922" lon="17.073774">
        <ele>138.085249</ele>
        <time>2026-05-06T13:58:26.917Z</time>
      </trkpt>
      <trkpt lat="48.127390" lon="17.073730">
        <ele>137.753570</ele>
        <time>2026-05-06T13:58:37.435Z</time>
      </trkpt>
      <trkpt lat="48.127145" lon="17.073696">
        <ele>137.597821</ele>
        <time>2026-05-06T13:58:42.185Z</time>
      </trkpt>
      <trkpt lat="48.126724" lon="17.073577">
        <ele>137.326628</ele>
        <time>2026-05-06T13:58:50.526Z</time>
      </trkpt>
      <trkpt lat="48.126044" lon="17.073260">
        <ele>136.875832</ele>
        <time>2026-05-06T13:59:04.914Z</time>
      </trkpt>
      <trkpt lat="48.125511" lon="17.072884">
        <ele>136.970575</ele>
        <time>2026-05-06T13:59:18.056Z</time>
      </trkpt>
      <trkpt lat="48.125270" lon="17.072679">
        <ele>137.052545</ele>
        <time>2026-05-06T13:59:24.729Z</time>
      </trkpt>
      <trkpt lat="48.124934" lon="17.072336">
        <ele>137.172803</ele>
        <time>2026-05-06T13:59:34.853Z</time>
      </trkpt>
      <trkpt lat="48.124612" lon="17.071951">
        <ele>137.294655</ele>
        <time>2026-05-06T13:59:44.963Z</time>
      </trkpt>
      <trkpt lat="48.124259" lon="17.071442">
        <ele>137.471924</ele>
        <time>2026-05-06T13:59:56.630Z</time>
      </trkpt>
      <trkpt lat="48.124007" lon="17.071010">
        <ele>137.627842</ele>
        <time>2026-05-06T14:00:05.676Z</time>
      </trkpt>
      <trkpt lat="48.123681" lon="17.070304">
        <ele>137.861145</ele>
        <time>2026-05-06T14:00:19.373Z</time>
      </trkpt>
      <trkpt lat="48.123370" lon="17.069487">
        <ele>138.100978</ele>
        <time>2026-05-06T14:00:34.430Z</time>
      </trkpt>
      <trkpt lat="48.123271" lon="17.069187">
        <ele>138.145394</ele>
        <time>2026-05-06T14:00:39.772Z</time>
      </trkpt>
      <trkpt lat="48.123228" lon="17.068957">
        <ele>138.177095</ele>
        <time>2026-05-06T14:00:43.578Z</time>
      </trkpt>
      <trkpt lat="48.123056" lon="17.068036">
        <ele>138.304025</ele>
        <time>2026-05-06T14:00:58.394Z</time>
      </trkpt>
      <trkpt lat="48.122462" lon="17.063401">
        <ele>138.532384</ele>
        <time>2026-05-06T14:02:08.906Z</time>
      </trkpt>
      <trkpt lat="48.122428" lon="17.062466">
        <ele>138.510762</ele>
        <time>2026-05-06T14:02:22.681Z</time>
      </trkpt>
      <trkpt lat="48.122421" lon="17.062306">
        <ele>138.507060</ele>
        <time>2026-05-06T14:02:25.049Z</time>
      </trkpt>
      <trkpt lat="48.122236" lon="17.057026">
        <ele>138.341974</ele>
        <time>2026-05-06T14:03:42.924Z</time>
      </trkpt>
      <trkpt lat="48.122184" lon="17.056824">
        <ele>138.331499</ele>
        <time>2026-05-06T14:03:46.058Z</time>
      </trkpt>
      <trkpt lat="48.121959" lon="17.056390">
        <ele>138.308655</ele>
        <time>2026-05-06T14:03:54.020Z</time>
      </trkpt>
      <trkpt lat="48.121938" lon="17.056208">
        <ele>138.316683</ele>
        <time>2026-05-06T14:03:56.686Z</time>
      </trkpt>
      <trkpt lat="48.121845" lon="17.055138">
        <ele>138.363581</ele>
        <time>2026-05-06T14:04:12.430Z</time>
      </trkpt>
      <trkpt lat="48.121613" lon="17.049161">
        <ele>138.649941</ele>
        <time>2026-05-06T14:05:43.388Z</time>
      </trkpt>
      <trkpt lat="48.121598" lon="17.048321">
        <ele>138.692830</ele>
        <time>2026-05-06T14:05:55.935Z</time>
      </trkpt>
      <trkpt lat="48.121613" lon="17.047881">
        <ele>138.671187</ele>
        <time>2026-05-06T14:06:02.462Z</time>
      </trkpt>
      <trkpt lat="48.121729" lon="17.046834">
        <ele>138.619050</ele>
        <time>2026-05-06T14:06:18.016Z</time>
      </trkpt>
      <trkpt lat="48.121890" lon="17.046034">
        <ele>138.578003</ele>
        <time>2026-05-06T14:06:30.149Z</time>
      </trkpt>
      <trkpt lat="48.122060" lon="17.045390">
        <ele>138.548008</ele>
        <time>2026-05-06T14:06:40.097Z</time>
      </trkpt>
      <trkpt lat="48.122503" lon="17.044065">
        <ele>138.490732</ele>
        <time>2026-05-06T14:07:01.609Z</time>
      </trkpt>
      <trkpt lat="48.123416" lon="17.041201">
        <ele>138.592878</ele>
        <time>2026-05-06T14:07:49.529Z</time>
      </trkpt>
      <trkpt lat="48.123638" lon="17.040619">
        <ele>138.623232</ele>
        <time>2026-05-06T14:07:59.625Z</time>
      </trkpt>
      <trkpt lat="48.123826" lon="17.039943">
        <ele>138.646924</ele>
        <time>2026-05-06T14:08:10.587Z</time>
      </trkpt>
      <trkpt lat="48.124953" lon="17.036468">
        <ele>138.760446</ele>
        <time>2026-05-06T14:09:08.245Z</time>
      </trkpt>
      <trkpt lat="48.125248" lon="17.035689">
        <ele>138.820859</ele>
        <time>2026-05-06T14:09:21.939Z</time>
      </trkpt>
      <trkpt lat="48.125421" lon="17.035041">
        <ele>138.899221</ele>
        <time>2026-05-06T14:09:32.669Z</time>
      </trkpt>
      <trkpt lat="48.126729" lon="17.031020">
        <ele>139.393772</ele>
        <time>2026-05-06T14:10:41.099Z</time>
      </trkpt>
      <trkpt lat="48.126997" lon="17.030262">
        <ele>139.462500</ele>
        <time>2026-05-06T14:10:54.097Z</time>
      </trkpt>
      <trkpt lat="48.128001" lon="17.027101">
        <ele>140.115715</ele>
        <time>2026-05-06T14:11:47.021Z</time>
      </trkpt>
      <trkpt lat="48.129116" lon="17.023713">
        <ele>142.771977</ele>
        <time>2026-05-06T14:12:54.292Z</time>
      </trkpt>
      <trkpt lat="48.129403" lon="17.023036">
        <ele>143.598247</ele>
        <time>2026-05-06T14:13:11.333Z</time>
      </trkpt>
      <trkpt lat="48.129639" lon="17.022561">
        <ele>144.208309</ele>
        <time>2026-05-06T14:13:24.338Z</time>
      </trkpt>
      <trkpt lat="48.129927" lon="17.022060">
        <ele>144.889504</ele>
        <time>2026-05-06T14:13:36.377Z</time>
      </trkpt>
      <trkpt lat="48.130307" lon="17.021478">
        <ele>145.081391</ele>
        <time>2026-05-06T14:13:49.110Z</time>
      </trkpt>
      <trkpt lat="48.130380" lon="17.021393">
        <ele>145.016663</ele>
        <time>2026-05-06T14:13:51.065Z</time>
      </trkpt>
      <trkpt lat="48.130441" lon="17.021375">
        <ele>144.973135</ele>
        <time>2026-05-06T14:13:52.384Z</time>
      </trkpt>
      <trkpt lat="48.130536" lon="17.021398">
        <ele>144.905761</ele>
        <time>2026-05-06T14:13:54.325Z</time>
      </trkpt>
      <trkpt lat="48.130635" lon="17.021477">
        <ele>144.827231</ele>
        <time>2026-05-06T14:13:56.557Z</time>
      </trkpt>
      <trkpt lat="48.130705" lon="17.021460">
        <ele>144.777583</ele>
        <time>2026-05-06T14:13:57.919Z</time>
      </trkpt>
      <trkpt lat="48.130881" lon="17.021142">
        <ele>144.584543</ele>
        <time>2026-05-06T14:14:03.047Z</time>
      </trkpt>
      <trkpt lat="48.131429" lon="17.020281">
        <ele>144.028603</ele>
        <time>2026-05-06T14:14:17.473Z</time>
      </trkpt>
      <trkpt lat="48.131586" lon="17.019974">
        <ele>143.984294</ele>
        <time>2026-05-06T14:14:22.795Z</time>
      </trkpt>
      <trkpt lat="48.132637" lon="17.017497">
        <ele>144.051338</ele>
        <time>2026-05-06T14:15:06.824Z</time>
      </trkpt>
      <trkpt lat="48.133069" lon="17.016844">
        <ele>144.514909</ele>
        <time>2026-05-06T14:15:22.881Z</time>
      </trkpt>
      <trkpt lat="48.133455" lon="17.016013">
        <ele>145.025369</ele>
        <time>2026-05-06T14:15:40.559Z</time>
      </trkpt>
      <trkpt lat="48.133389" lon="17.015904">
        <ele>145.100140</ele>
        <time>2026-05-06T14:15:43.146Z</time>
      </trkpt>
      <trkpt lat="48.133360" lon="17.015858">
        <ele>145.161593</ele>
        <time>2026-05-06T14:15:44.252Z</time>
      </trkpt>
      <trkpt lat="48.133584" lon="17.015471">
        <ele>145.659090</ele>
        <time>2026-05-06T14:15:53.140Z</time>
      </trkpt>
      <trkpt lat="48.133785" lon="17.015015">
        <ele>146.189810</ele>
        <time>2026-05-06T14:16:03.850Z</time>
      </trkpt>
      <trkpt lat="48.133922" lon="17.014560">
        <ele>146.674576</ele>
        <time>2026-05-06T14:16:14.278Z</time>
      </trkpt>
      <trkpt lat="48.133997" lon="17.014117">
        <ele>147.118425</ele>
        <time>2026-05-06T14:16:22.386Z</time>
      </trkpt>
      <trkpt lat="48.134040" lon="17.013862">
        <ele>147.373852</ele>
        <time>2026-05-06T14:16:27.209Z</time>
      </trkpt>
      <trkpt lat="48.134174" lon="17.013167">
        <ele>147.845319</ele>
        <time>2026-05-06T14:16:40.715Z</time>
      </trkpt>
      <trkpt lat="48.134351" lon="17.012487">
        <ele>148.099330</ele>
        <time>2026-05-06T14:16:54.231Z</time>
      </trkpt>
      <trkpt lat="48.134619" lon="17.011797">
        <ele>148.377165</ele>
        <time>2026-05-06T14:17:07.094Z</time>
      </trkpt>
      <trkpt lat="48.134786" lon="17.011468">
        <ele>148.521015</ele>
        <time>2026-05-06T14:17:12.939Z</time>
      </trkpt>
      <trkpt lat="48.135341" lon="17.010509">
        <ele>148.536866</ele>
        <time>2026-05-06T14:17:29.885Z</time>
      </trkpt>
      <trkpt lat="48.135695" lon="17.009796">
        <ele>148.419298</ele>
        <time>2026-05-06T14:17:42.189Z</time>
      </trkpt>
      <trkpt lat="48.135926" lon="17.009281">
        <ele>148.337208</ele>
        <time>2026-05-06T14:17:51.196Z</time>
      </trkpt>
      <trkpt lat="48.136473" lon="17.007991">
        <ele>148.669476</ele>
        <time>2026-05-06T14:18:16.902Z</time>
      </trkpt>
      <trkpt lat="48.136627" lon="17.007628">
        <ele>148.799604</ele>
        <time>2026-05-06T14:18:24.010Z</time>
      </trkpt>
      <trkpt lat="48.136776" lon="17.007127">
        <ele>148.965538</ele>
        <time>2026-05-06T14:18:32.873Z</time>
      </trkpt>
      <trkpt lat="48.136879" lon="17.006689">
        <ele>149.106029</ele>
        <time>2026-05-06T14:18:40.416Z</time>
      </trkpt>
      <trkpt lat="48.137028" lon="17.006021">
        <ele>148.741462</ele>
        <time>2026-05-06T14:18:50.805Z</time>
      </trkpt>
      <trkpt lat="48.137187" lon="17.005356">
        <ele>148.356288</ele>
        <time>2026-05-06T14:18:59.991Z</time>
      </trkpt>
      <trkpt lat="48.137232" lon="17.005175">
        <ele>148.250968</ele>
        <time>2026-05-06T14:19:02.415Z</time>
      </trkpt>
      <trkpt lat="48.137613" lon="17.004075">
        <ele>147.542801</ele>
        <time>2026-05-06T14:19:17.781Z</time>
      </trkpt>
      <trkpt lat="48.137678" lon="17.003779">
        <ele>147.292132</ele>
        <time>2026-05-06T14:19:21.615Z</time>
      </trkpt>
      <trkpt lat="48.137724" lon="17.003784">
        <ele>147.236538</ele>
        <time>2026-05-06T14:19:22.461Z</time>
      </trkpt>
      <trkpt lat="48.137893" lon="17.003802">
        <ele>147.032310</ele>
        <time>2026-05-06T14:19:25.584Z</time>
      </trkpt>
      <trkpt lat="48.137986" lon="17.003769">
        <ele>146.917106</ele>
        <time>2026-05-06T14:19:27.374Z</time>
      </trkpt>
      <trkpt lat="48.138157" lon="17.003602">
        <ele>146.671069</ele>
        <time>2026-05-06T14:19:31.227Z</time>
      </trkpt>
      <trkpt lat="48.138476" lon="17.003896">
        <ele>146.219637</ele>
        <time>2026-05-06T14:19:38.598Z</time>
      </trkpt>
      <trkpt lat="48.138786" lon="17.004234">
        <ele>145.757513</ele>
        <time>2026-05-06T14:19:46.191Z</time>
      </trkpt>
      <trkpt lat="48.138915" lon="17.004541">
        <ele>145.459448</ele>
        <time>2026-05-06T14:19:50.701Z</time>
      </trkpt>
      <trkpt lat="48.138960" lon="17.004812">
        <ele>145.088698</ele>
        <time>2026-05-06T14:19:54.101Z</time>
      </trkpt>
      <trkpt lat="48.139068" lon="17.005199">
        <ele>144.531802</ele>
        <time>2026-05-06T14:19:59.360Z</time>
      </trkpt>
      <trkpt lat="48.139163" lon="17.005364">
        <ele>144.242487</ele>
        <time>2026-05-06T14:20:02.048Z</time>
      </trkpt>
      <trkpt lat="48.139283" lon="17.005495">
        <ele>143.947125</ele>
        <time>2026-05-06T14:20:04.784Z</time>
      </trkpt>
      <trkpt lat="48.139580" lon="17.005651">
        <ele>143.321020</ele>
        <time>2026-05-06T14:20:10.465Z</time>
      </trkpt>
      <trkpt lat="48.139793" lon="17.005757">
        <ele>142.874517</ele>
        <time>2026-05-06T14:20:14.488Z</time>
      </trkpt>
      <trkpt lat="48.139878" lon="17.005802">
        <ele>142.695173</ele>
        <time>2026-05-06T14:20:16.015Z</time>
      </trkpt>
      <trkpt lat="48.139939" lon="17.005827">
        <ele>142.569361</ele>
        <time>2026-05-06T14:20:17.095Z</time>
      </trkpt>
      <trkpt lat="48.140066" lon="17.005692">
        <ele>142.259593</ele>
        <time>2026-05-06T14:20:19.729Z</time>
      </trkpt>
      <trkpt lat="48.140304" lon="17.005347">
        <ele>141.674774</ele>
        <time>2026-05-06T14:20:25.353Z</time>
      </trkpt>
      <trkpt lat="48.140652" lon="17.005033">
        <ele>141.068396</ele>
        <time>2026-05-06T14:20:32.661Z</time>
      </trkpt>
      <trkpt lat="48.140790" lon="17.004874">
        <ele>140.808547</ele>
        <time>2026-05-06T14:20:35.923Z</time>
      </trkpt>
      <trkpt lat="48.141136" lon="17.004346">
        <ele>140.071396</ele>
        <time>2026-05-06T14:20:45.175Z</time>
      </trkpt>
      <trkpt lat="48.141432" lon="17.004001">
        <ele>139.511629</ele>
        <time>2026-05-06T14:20:52.210Z</time>
      </trkpt>
      <trkpt lat="48.142420" lon="17.003042">
        <ele>138.673481</ele>
        <time>2026-05-06T14:21:14.988Z</time>
      </trkpt>
      <trkpt lat="48.143607" lon="17.001941">
        <ele>138.424703</ele>
        <time>2026-05-06T14:21:46.027Z</time>
      </trkpt>
      <trkpt lat="48.144045" lon="17.001636">
        <ele>138.597018</ele>
        <time>2026-05-06T14:21:57.802Z</time>
      </trkpt>
      <trkpt lat="48.144652" lon="17.001355">
        <ele>138.823681</ele>
        <time>2026-05-06T14:22:13.382Z</time>
      </trkpt>
      <trkpt lat="48.144911" lon="17.001120">
        <ele>138.890611</ele>
        <time>2026-05-06T14:22:20.730Z</time>
      </trkpt>
      <trkpt lat="48.145368" lon="17.000804">
        <ele>138.964750</ele>
        <time>2026-05-06T14:22:32.637Z</time>
      </trkpt>
      <trkpt lat="48.145453" lon="17.000707">
        <ele>138.980488</ele>
        <time>2026-05-06T14:22:35.121Z</time>
      </trkpt>
      <trkpt lat="48.145497" lon="17.000609">
        <ele>138.992098</ele>
        <time>2026-05-06T14:22:36.923Z</time>
      </trkpt>
      <trkpt lat="48.145579" lon="17.000292">
        <ele>139.025515</ele>
        <time>2026-05-06T14:22:42.109Z</time>
      </trkpt>
      <trkpt lat="48.146423" lon="16.996196">
        <ele>139.391017</ele>
        <time>2026-05-06T14:23:44.543Z</time>
      </trkpt>
      <trkpt lat="48.142865" lon="16.992506">
        <ele>143.931320</ele>
        <time>2026-05-06T14:25:39.614Z</time>
      </trkpt>
      <trkpt lat="48.142089" lon="16.992108">
        <ele>145.007894</ele>
        <time>2026-05-06T14:26:03.498Z</time>
      </trkpt>
      <trkpt lat="48.140725" lon="16.991316">
        <ele>146.878313</ele>
        <time>2026-05-06T14:26:44.774Z</time>
      </trkpt>
      <trkpt lat="48.141635" lon="16.988634">
        <ele>147.755703</ele>
        <time>2026-05-06T14:27:32.274Z</time>
      </trkpt>
      <trkpt lat="48.141776" lon="16.988166">
        <ele>147.754101</ele>
        <time>2026-05-06T14:27:39.255Z</time>
      </trkpt>
      <trkpt lat="48.141869" lon="16.987748">
        <ele>147.752553</ele>
        <time>2026-05-06T14:27:45.077Z</time>
      </trkpt>
      <trkpt lat="48.142125" lon="16.986126">
        <ele>147.746698</ele>
        <time>2026-05-06T14:28:08.681Z</time>
      </trkpt>
      <trkpt lat="48.143191" lon="16.981511">
        <ele>153.606405</ele>
        <time>2026-05-06T14:29:46.651Z</time>
      </trkpt>
      <trkpt lat="48.143231" lon="16.981406">
        <ele>153.765216</ele>
        <time>2026-05-06T14:29:49.134Z</time>
      </trkpt>
      <trkpt lat="48.143342" lon="16.981250">
        <ele>154.064763</ele>
        <time>2026-05-06T14:29:53.815Z</time>
      </trkpt>
      <trkpt lat="48.143363" lon="16.981175">
        <ele>154.171597</ele>
        <time>2026-05-06T14:29:55.470Z</time>
      </trkpt>
      <trkpt lat="48.143344" lon="16.980895">
        <ele>154.521725</ele>
        <time>2026-05-06T14:30:01.191Z</time>
      </trkpt>
      <trkpt lat="48.143358" lon="16.980762">
        <ele>154.678170</ele>
        <time>2026-05-06T14:30:03.924Z</time>
      </trkpt>
      <trkpt lat="48.143865" lon="16.977244">
        <ele>158.914215</ele>
        <time>2026-05-06T14:31:13.648Z</time>
      </trkpt>
      <trkpt lat="48.144363" lon="16.974539">
        <ele>162.538063</ele>
        <time>2026-05-06T14:32:09.507Z</time>
      </trkpt>
      <trkpt lat="48.144431" lon="16.972201">
        <ele>165.584023</ele>
        <time>2026-05-06T14:32:58.187Z</time>
      </trkpt>
      <trkpt lat="48.144550" lon="16.971117">
        <ele>166.863159</ele>
        <time>2026-05-06T14:33:19.793Z</time>
      </trkpt>
      <trkpt lat="48.144610" lon="16.970776">
        <ele>167.273779</ele>
        <time>2026-05-06T14:33:26.368Z</time>
      </trkpt>
      <trkpt lat="48.144902" lon="16.969523">
        <ele>168.124671</ele>
        <time>2026-05-06T14:33:49.451Z</time>
      </trkpt>
      <trkpt lat="48.145605" lon="16.966821">
        <ele>169.551184</ele>
        <time>2026-05-06T14:34:36.135Z</time>
      </trkpt>
      <trkpt lat="48.145734" lon="16.966410">
        <ele>169.786268</ele>
        <time>2026-05-06T14:34:43.746Z</time>
      </trkpt>
      <trkpt lat="48.145778" lon="16.966377">
        <ele>169.824433</ele>
        <time>2026-05-06T14:34:44.995Z</time>
      </trkpt>
      <trkpt lat="48.148753" lon="16.967130">
        <ele>172.926433</ele>
        <time>2026-05-06T14:36:05.849Z</time>
      </trkpt>
      <trkpt lat="48.148842" lon="16.967110">
        <ele>173.016251</ele>
        <time>2026-05-06T14:36:08.343Z</time>
      </trkpt>
      <trkpt lat="48.148630" lon="16.965918">
        <ele>173.837703</ele>
        <time>2026-05-06T14:36:30.587Z</time>
      </trkpt>
      <trkpt lat="48.147881" lon="16.962750">
        <ele>174.805118</ele>
        <time>2026-05-06T14:37:23.903Z</time>
      </trkpt>
      <trkpt lat="48.147507" lon="16.961204">
        <ele>174.441907</ele>
        <time>2026-05-06T14:37:47.611Z</time>
      </trkpt>
      <trkpt lat="48.146806" lon="16.958483">
        <ele>172.746548</ele>
        <time>2026-05-06T14:38:25.553Z</time>
      </trkpt>
      <trkpt lat="48.146685" lon="16.957863">
        <ele>172.265537</ele>
        <time>2026-05-06T14:38:33.529Z</time>
      </trkpt>
      <trkpt lat="48.146639" lon="16.957191">
        <ele>171.448066</ele>
        <time>2026-05-06T14:38:41.613Z</time>
      </trkpt>
      <trkpt lat="48.146579" lon="16.957025">
        <ele>171.219604</ele>
        <time>2026-05-06T14:38:43.823Z</time>
      </trkpt>
      <trkpt lat="48.146621" lon="16.956878">
        <ele>171.026093</ele>
        <time>2026-05-06T14:38:45.692Z</time>
      </trkpt>
      <trkpt lat="48.146804" lon="16.955349">
        <ele>169.146286</ele>
        <time>2026-05-06T14:39:03.644Z</time>
      </trkpt>
      <trkpt lat="48.147093" lon="16.953055">
        <ele>167.373153</ele>
        <time>2026-05-06T14:39:33.578Z</time>
      </trkpt>
      <trkpt lat="48.147702" lon="16.953283">
        <ele>166.374218</ele>
        <time>2026-05-06T14:39:46.258Z</time>
      </trkpt>
      <trkpt lat="48.147907" lon="16.952556">
        <ele>165.296078</ele>
        <time>2026-05-06T14:39:56.113Z</time>
      </trkpt>
      <trkpt lat="48.148139" lon="16.951644">
        <ele>163.962802</ele>
        <time>2026-05-06T14:40:06.983Z</time>
      </trkpt>
      <trkpt lat="48.148468" lon="16.950254">
        <ele>161.487298</ele>
        <time>2026-05-06T14:40:22.917Z</time>
      </trkpt>
      <trkpt lat="48.148592" lon="16.949734">
        <ele>160.485406</ele>
        <time>2026-05-06T14:40:29.203Z</time>
      </trkpt>
      <trkpt lat="48.149157" lon="16.948339">
        <ele>157.480607</ele>
        <time>2026-05-06T14:40:47.964Z</time>
      </trkpt>
      <trkpt lat="48.149445" lon="16.947610">
        <ele>155.871282</ele>
        <time>2026-05-06T14:40:57.403Z</time>
      </trkpt>
      <trkpt lat="48.149952" lon="16.946317">
        <ele>153.025279</ele>
        <time>2026-05-06T14:41:13.687Z</time>
      </trkpt>
      <trkpt lat="48.150142" lon="16.945834">
        <ele>151.969793</ele>
        <time>2026-05-06T14:41:19.848Z</time>
      </trkpt>
      <trkpt lat="48.150276" lon="16.945455">
        <ele>151.162367</ele>
        <time>2026-05-06T14:41:24.633Z</time>
      </trkpt>
      <trkpt lat="48.150315" lon="16.945314">
        <ele>150.875040</ele>
        <time>2026-05-06T14:41:26.369Z</time>
      </trkpt>
      <trkpt lat="48.150307" lon="16.945169">
        <ele>150.601157</ele>
        <time>2026-05-06T14:41:28.035Z</time>
      </trkpt>
      <trkpt lat="48.150245" lon="16.945035">
        <ele>150.294191</ele>
        <time>2026-05-06T14:41:29.822Z</time>
      </trkpt>
      <trkpt lat="48.150156" lon="16.944979">
        <ele>150.021851</ele>
        <time>2026-05-06T14:41:31.390Z</time>
      </trkpt>
      <trkpt lat="48.149868" lon="16.944895">
        <ele>149.194027</ele>
        <time>2026-05-06T14:41:36.075Z</time>
      </trkpt>
      <trkpt lat="48.149883" lon="16.944681">
        <ele>148.788968</ele>
        <time>2026-05-06T14:41:38.454Z</time>
      </trkpt>
      <trkpt lat="48.149935" lon="16.944367">
        <ele>148.205937</ele>
        <time>2026-05-06T14:41:42.157Z</time>
      </trkpt>
      <trkpt lat="48.149975" lon="16.944318">
        <ele>148.104464</ele>
        <time>2026-05-06T14:41:43.122Z</time>
      </trkpt>
      <trkpt lat="48.150122" lon="16.944224">
        <ele>147.790542</ele>
        <time>2026-05-06T14:41:46.102Z</time>
      </trkpt>
      <trkpt lat="48.150369" lon="16.944020">
        <ele>147.236594</ele>
        <time>2026-05-06T14:41:51.315Z</time>
      </trkpt>
      <trkpt lat="48.150387" lon="16.943872">
        <ele>147.039445</ele>
        <time>2026-05-06T14:41:53.022Z</time>
      </trkpt>
      <trkpt lat="48.150370" lon="16.943771">
        <ele>146.902938</ele>
        <time>2026-05-06T14:41:54.240Z</time>
      </trkpt>
      <trkpt lat="48.150344" lon="16.943663">
        <ele>146.752472</ele>
        <time>2026-05-06T14:41:55.492Z</time>
      </trkpt>
      <trkpt lat="48.150031" lon="16.943009">
        <ele>145.697698</ele>
        <time>2026-05-06T14:42:04.431Z</time>
      </trkpt>
      <trkpt lat="48.149981" lon="16.942668">
        <ele>145.240151</ele>
        <time>2026-05-06T14:42:08.422Z</time>
      </trkpt>
      <trkpt lat="48.149916" lon="16.942401">
        <ele>144.867681</ele>
        <time>2026-05-06T14:42:12.143Z</time>
      </trkpt>
      <trkpt lat="48.149830" lon="16.942081">
        <ele>144.753901</ele>
        <time>2026-05-06T14:42:17.246Z</time>
      </trkpt>
      <trkpt lat="48.149682" lon="16.941668">
        <ele>144.795322</ele>
        <time>2026-05-06T14:42:24.296Z</time>
      </trkpt>
      <trkpt lat="48.149377" lon="16.940858">
        <ele>144.877502</ele>
        <time>2026-05-06T14:42:37.121Z</time>
      </trkpt>
      <trkpt lat="48.149146" lon="16.940244">
        <ele>144.939784</ele>
        <time>2026-05-06T14:42:49.192Z</time>
      </trkpt>
      <trkpt lat="48.148785" lon="16.939253">
        <ele>145.298711</ele>
        <time>2026-05-06T14:43:11.011Z</time>
      </trkpt>
      <trkpt lat="48.148374" lon="16.938193">
        <ele>145.814975</ele>
        <time>2026-05-06T14:43:30.395Z</time>
      </trkpt>
      <trkpt lat="48.148076" lon="16.937504">
        <ele>146.052461</ele>
        <time>2026-05-06T14:43:43.423Z</time>
      </trkpt>
      <trkpt lat="48.147959" lon="16.937300">
        <ele>145.941979</ele>
        <time>2026-05-06T14:43:47.307Z</time>
      </trkpt>
      <trkpt lat="48.147686" lon="16.936842">
        <ele>145.689746</ele>
        <time>2026-05-06T14:43:55.415Z</time>
      </trkpt>
      <trkpt lat="48.147574" lon="16.936655">
        <ele>145.586540</ele>
        <time>2026-05-06T14:43:58.556Z</time>
      </trkpt>
      <trkpt lat="48.146505" lon="16.934866">
        <ele>144.899263</ele>
        <time>2026-05-06T14:44:30.255Z</time>
      </trkpt>
      <trkpt lat="48.146448" lon="16.934659">
        <ele>144.876301</ele>
        <time>2026-05-06T14:44:33.556Z</time>
      </trkpt>
      <trkpt lat="48.145453" lon="16.932451">
        <ele>144.474761</ele>
        <time>2026-05-06T14:45:14.725Z</time>
      </trkpt>
      <trkpt lat="48.145362" lon="16.932180">
        <ele>144.410176</ele>
        <time>2026-05-06T14:45:18.909Z</time>
      </trkpt>
      <trkpt lat="48.145299" lon="16.931892">
        <ele>144.345655</ele>
        <time>2026-05-06T14:45:23.018Z</time>
      </trkpt>
      <trkpt lat="48.145250" lon="16.931435">
        <ele>144.247120</ele>
        <time>2026-05-06T14:45:29.143Z</time>
      </trkpt>
      <trkpt lat="48.145247" lon="16.931044">
        <ele>144.163878</ele>
        <time>2026-05-06T14:45:34.212Z</time>
      </trkpt>
      <trkpt lat="48.145221" lon="16.928785">
        <ele>143.167732</ele>
        <time>2026-05-06T14:46:03.843Z</time>
      </trkpt>
      <trkpt lat="48.145295" lon="16.927449">
        <ele>142.987620</ele>
        <time>2026-05-06T14:46:23.420Z</time>
      </trkpt>
      <trkpt lat="48.145337" lon="16.926873">
        <ele>143.020985</ele>
        <time>2026-05-06T14:46:32.320Z</time>
      </trkpt>
      <trkpt lat="48.145368" lon="16.925115">
        <ele>143.027908</ele>
        <time>2026-05-06T14:46:59.748Z</time>
      </trkpt>
      <trkpt lat="48.145193" lon="16.924157">
        <ele>142.887621</ele>
        <time>2026-05-06T14:47:14.511Z</time>
      </trkpt>
      <trkpt lat="48.145200" lon="16.923286">
        <ele>142.764593</ele>
        <time>2026-05-06T14:47:26.381Z</time>
      </trkpt>
      <trkpt lat="48.145266" lon="16.921791">
        <ele>142.537464</ele>
        <time>2026-05-06T14:47:46.335Z</time>
      </trkpt>
      <trkpt lat="48.145156" lon="16.918585">
        <ele>142.494476</ele>
        <time>2026-05-06T14:48:34.860Z</time>
      </trkpt>
      <trkpt lat="48.145146" lon="16.914253">
        <ele>143.455139</ele>
        <time>2026-05-06T14:49:42.611Z</time>
      </trkpt>
      <trkpt lat="48.145088" lon="16.913724">
        <ele>143.706186</ele>
        <time>2026-05-06T14:49:51.003Z</time>
      </trkpt>
      <trkpt lat="48.144959" lon="16.913005">
        <ele>144.054846</ele>
        <time>2026-05-06T14:50:03.318Z</time>
      </trkpt>
      <trkpt lat="48.144843" lon="16.912655">
        <ele>144.237853</ele>
        <time>2026-05-06T14:50:10.081Z</time>
      </trkpt>
      <trkpt lat="48.143799" lon="16.910057">
        <ele>146.574555</ele>
        <time>2026-05-06T14:51:06.469Z</time>
      </trkpt>
      <trkpt lat="48.143703" lon="16.909762">
        <ele>146.747249</ele>
        <time>2026-05-06T14:51:11.856Z</time>
      </trkpt>
      <trkpt lat="48.143625" lon="16.909570">
        <ele>146.840505</ele>
        <time>2026-05-06T14:51:15.345Z</time>
      </trkpt>
      <trkpt lat="48.143487" lon="16.909575">
        <ele>146.926331</ele>
        <time>2026-05-06T14:51:18.543Z</time>
      </trkpt>
      <trkpt lat="48.143058" lon="16.909817">
        <ele>147.211330</ele>
        <time>2026-05-06T14:51:29.584Z</time>
      </trkpt>
      <trkpt lat="48.142785" lon="16.909928">
        <ele>147.387202</ele>
        <time>2026-05-06T14:51:36.679Z</time>
      </trkpt>
      <trkpt lat="48.142567" lon="16.909984">
        <ele>147.524720</ele>
        <time>2026-05-06T14:51:42.195Z</time>
      </trkpt>
      <trkpt lat="48.142064" lon="16.910104">
        <ele>147.787658</ele>
        <time>2026-05-06T14:51:54.616Z</time>
      </trkpt>
      <trkpt lat="48.141777" lon="16.910249">
        <ele>147.840345</ele>
        <time>2026-05-06T14:52:01.933Z</time>
      </trkpt>
      <trkpt lat="48.141662" lon="16.910341">
        <ele>147.863022</ele>
        <time>2026-05-06T14:52:05.003Z</time>
      </trkpt>
      <trkpt lat="48.141538" lon="16.910413">
        <ele>147.886155</ele>
        <time>2026-05-06T14:52:08.177Z</time>
      </trkpt>
      <trkpt lat="48.141573" lon="16.910011">
        <ele>147.933215</ele>
        <time>2026-05-06T14:52:14.696Z</time>
      </trkpt>
      <trkpt lat="48.141567" lon="16.908937">
        <ele>148.057890</ele>
        <time>2026-05-06T14:52:30.249Z</time>
      </trkpt>
      <trkpt lat="48.141519" lon="16.908194">
        <ele>147.970548</ele>
        <time>2026-05-06T14:52:40.749Z</time>
      </trkpt>
      <trkpt lat="48.141416" lon="16.907396">
        <ele>147.811841</ele>
        <time>2026-05-06T14:52:53.159Z</time>
      </trkpt>
      <trkpt lat="48.141368" lon="16.907157">
        <ele>147.763105</ele>
        <time>2026-05-06T14:52:56.889Z</time>
      </trkpt>
      <trkpt lat="48.141067" lon="16.906080">
        <ele>147.518968</ele>
        <time>2026-05-06T14:53:12.853Z</time>
      </trkpt>
      <trkpt lat="48.140907" lon="16.905574">
        <ele>147.312929</ele>
        <time>2026-05-06T14:53:19.979Z</time>
      </trkpt>
      <trkpt lat="48.140765" lon="16.905142">
        <ele>147.135726</ele>
        <time>2026-05-06T14:53:26.186Z</time>
      </trkpt>
      <trkpt lat="48.140526" lon="16.904402">
        <ele>146.833210</ele>
        <time>2026-05-06T14:53:36.852Z</time>
      </trkpt>
      <trkpt lat="48.140419" lon="16.904078">
        <ele>146.700185</ele>
        <time>2026-05-06T14:53:41.944Z</time>
      </trkpt>
      <trkpt lat="48.140363" lon="16.903908">
        <ele>146.630423</ele>
        <time>2026-05-06T14:53:44.717Z</time>
      </trkpt>
      <trkpt lat="48.140336" lon="16.903733">
        <ele>146.564328</ele>
        <time>2026-05-06T14:53:47.408Z</time>
      </trkpt>
      <trkpt lat="48.140337" lon="16.903518">
        <ele>146.670961</ele>
        <time>2026-05-06T14:53:50.787Z</time>
      </trkpt>
      <trkpt lat="48.140368" lon="16.903373">
        <ele>146.751304</ele>
        <time>2026-05-06T14:53:53.302Z</time>
      </trkpt>
      <trkpt lat="48.140467" lon="16.903338">
        <ele>146.831736</ele>
        <time>2026-05-06T14:53:55.932Z</time>
      </trkpt>
      <trkpt lat="48.140487" lon="16.903189">
        <ele>146.911933</ele>
        <time>2026-05-06T14:53:58.636Z</time>
      </trkpt>
      <trkpt lat="48.140422" lon="16.903102">
        <ele>146.980848</ele>
        <time>2026-05-06T14:54:00.977Z</time>
      </trkpt>
      <trkpt lat="48.140377" lon="16.903102">
        <ele>147.016431</ele>
        <time>2026-05-06T14:54:02.195Z</time>
      </trkpt>
      <trkpt lat="48.140326" lon="16.903151">
        <ele>147.064336</ele>
        <time>2026-05-06T14:54:03.850Z</time>
      </trkpt>
      <trkpt lat="48.140305" lon="16.903237">
        <ele>147.112658</ele>
        <time>2026-05-06T14:54:05.544Z</time>
      </trkpt>
      <trkpt lat="48.140187" lon="16.903246">
        <ele>147.206086</ele>
        <time>2026-05-06T14:54:08.799Z</time>
      </trkpt>
      <trkpt lat="48.139879" lon="16.903263">
        <ele>147.449800</ele>
        <time>2026-05-06T14:54:17.251Z</time>
      </trkpt>
      <trkpt lat="48.139559" lon="16.903289">
        <ele>147.703208</ele>
        <time>2026-05-06T14:54:25.378Z</time>
      </trkpt>
      <trkpt lat="48.139430" lon="16.903301">
        <ele>147.805410</ele>
        <time>2026-05-06T14:54:28.749Z</time>
      </trkpt>
      <trkpt lat="48.139222" lon="16.903321">
        <ele>147.970223</ele>
        <time>2026-05-06T14:54:34.183Z</time>
      </trkpt>
      <trkpt lat="48.138447" lon="16.903633">
        <ele>147.983788</ele>
        <time>2026-05-06T14:54:53.287Z</time>
      </trkpt>
      <trkpt lat="48.137673" lon="16.904261">
        <ele>147.983788</ele>
        <time>2026-05-06T14:55:13.268Z</time>
      </trkpt>
      <trkpt lat="48.137769" lon="16.904529">
        <ele>147.983788</ele>
        <time>2026-05-06T14:55:18.196Z</time>
      </trkpt>
      <trkpt lat="48.137826" lon="16.904556">
        <ele>147.983788</ele>
        <time>2026-05-06T14:55:19.649Z</time>
      </trkpt>
      <trkpt lat="48.137940" lon="16.904493">
        <ele>147.983788</ele>
        <time>2026-05-06T14:55:22.644Z</time>
      </trkpt>
    </trkseg>
  </trk>
</gpx>